<?xml version="1.0" encoding="UTF-8" standalone="no" ?>
<gpx xmlns="http://www.topografix.com/GPX/1/1" xmlns:xsi="http://www.w3.org/2001/XMLSchema-instance" xsi:schemaLocation="http://www.topografix.com/GPX/1/1 http://www.topografix.com/GPX/1/1/gpx.xsd" version="1.1" creator="VisuGPX - https://www.visugpx.com">
  <metadata>
    <name>2013 04 21 VTT 40 kms Beaumetz les Loges</name>
    <desc><![CDATA[40 kms VTT beaumetz les loges 21 avril 2013]]></desc>
  </metadata>
  <trk>
    <name><![CDATA[2013-04-21T06:54:53Z]]></name>
    <trkseg>
      <trkpt lat="50.24031" lon="2.65927">
        <ele>119.3408203</ele>
        <time>2013-04-21T06:54:53Z</time>
      </trkpt>
      <trkpt lat="50.24033" lon="2.65932">
        <ele>121.7441406</ele>
        <time>2013-04-21T06:54:55Z</time>
      </trkpt>
      <trkpt lat="50.2403" lon="2.6594">
        <ele>122.2247314</ele>
        <time>2013-04-21T06:54:58Z</time>
      </trkpt>
      <trkpt lat="50.24018" lon="2.65958">
        <ele>127.0313721</ele>
        <time>2013-04-21T06:55:03Z</time>
      </trkpt>
      <trkpt lat="50.24017" lon="2.65967">
        <ele>128.9541016</ele>
        <time>2013-04-21T06:55:05Z</time>
      </trkpt>
      <trkpt lat="50.24021" lon="2.65979">
        <ele>131.3572998</ele>
        <time>2013-04-21T06:55:08Z</time>
      </trkpt>
      <trkpt lat="50.24023" lon="2.65982">
        <ele>132.3186035</ele>
        <time>2013-04-21T06:55:09Z</time>
      </trkpt>
      <trkpt lat="50.24027" lon="2.6599">
        <ele>133.2799072</ele>
        <time>2013-04-21T06:55:11Z</time>
      </trkpt>
      <trkpt lat="50.24038" lon="2.66012">
        <ele>135.6831055</ele>
        <time>2013-04-21T06:55:16Z</time>
      </trkpt>
      <trkpt lat="50.24042" lon="2.66019">
        <ele>136.6446533</ele>
        <time>2013-04-21T06:55:19Z</time>
      </trkpt>
      <trkpt lat="50.2405" lon="2.66018">
        <ele>137.1252441</ele>
        <time>2013-04-21T06:55:23Z</time>
      </trkpt>
      <trkpt lat="50.24074" lon="2.6598">
        <ele>136.6446533</ele>
        <time>2013-04-21T06:55:32Z</time>
      </trkpt>
      <trkpt lat="50.24093" lon="2.65951">
        <ele>136.1639404</ele>
        <time>2013-04-21T06:55:39Z</time>
      </trkpt>
      <trkpt lat="50.24101" lon="2.65938">
        <ele>136.1639404</ele>
        <time>2013-04-21T06:55:44Z</time>
      </trkpt>
      <trkpt lat="50.24105" lon="2.65932">
        <ele>135.6831055</ele>
        <time>2013-04-21T06:55:50Z</time>
      </trkpt>
      <trkpt lat="50.24105" lon="2.65933">
        <ele>135.6831055</ele>
        <time>2013-04-21T06:55:51Z</time>
      </trkpt>
      <trkpt lat="50.24108" lon="2.65933">
        <ele>135.2025146</ele>
        <time>2013-04-21T06:56:01Z</time>
      </trkpt>
      <trkpt lat="50.2411" lon="2.6593">
        <ele>134.7219238</ele>
        <time>2013-04-21T06:56:02Z</time>
      </trkpt>
      <trkpt lat="50.24121" lon="2.65912">
        <ele>133.760498</ele>
        <time>2013-04-21T06:56:06Z</time>
      </trkpt>
      <trkpt lat="50.24142" lon="2.65883">
        <ele>133.2799072</ele>
        <time>2013-04-21T06:56:13Z</time>
      </trkpt>
      <trkpt lat="50.24155" lon="2.65864">
        <ele>133.760498</ele>
        <time>2013-04-21T06:56:17Z</time>
      </trkpt>
      <trkpt lat="50.24158" lon="2.65859">
        <ele>133.760498</ele>
        <time>2013-04-21T06:56:21Z</time>
      </trkpt>
      <trkpt lat="50.2416" lon="2.65855">
        <ele>133.760498</ele>
        <time>2013-04-21T06:56:27Z</time>
      </trkpt>
      <trkpt lat="50.24171" lon="2.6584">
        <ele>133.2799072</ele>
        <time>2013-04-21T06:56:30Z</time>
      </trkpt>
      <trkpt lat="50.24199" lon="2.65806">
        <ele>132.7993164</ele>
        <time>2013-04-21T06:56:36Z</time>
      </trkpt>
      <trkpt lat="50.24204" lon="2.65801">
        <ele>132.3186035</ele>
        <time>2013-04-21T06:56:37Z</time>
      </trkpt>
      <trkpt lat="50.24213" lon="2.65792">
        <ele>132.3186035</ele>
        <time>2013-04-21T06:56:39Z</time>
      </trkpt>
      <trkpt lat="50.24218" lon="2.65787">
        <ele>132.3186035</ele>
        <time>2013-04-21T06:56:40Z</time>
      </trkpt>
      <trkpt lat="50.24231" lon="2.65778">
        <ele>131.3572998</ele>
        <time>2013-04-21T06:56:43Z</time>
      </trkpt>
      <trkpt lat="50.24239" lon="2.65772">
        <ele>130.876709</ele>
        <time>2013-04-21T06:56:45Z</time>
      </trkpt>
      <trkpt lat="50.24247" lon="2.6576">
        <ele>131.8378906</ele>
        <time>2013-04-21T06:56:48Z</time>
      </trkpt>
      <trkpt lat="50.24247" lon="2.65751">
        <ele>132.3186035</ele>
        <time>2013-04-21T06:56:50Z</time>
      </trkpt>
      <trkpt lat="50.24245" lon="2.65737">
        <ele>132.7993164</ele>
        <time>2013-04-21T06:56:53Z</time>
      </trkpt>
      <trkpt lat="50.24245" lon="2.65731">
        <ele>132.7993164</ele>
        <time>2013-04-21T06:56:54Z</time>
      </trkpt>
      <trkpt lat="50.24245" lon="2.65696">
        <ele>134.2412109</ele>
        <time>2013-04-21T06:56:59Z</time>
      </trkpt>
      <trkpt lat="50.24245" lon="2.65667">
        <ele>134.2412109</ele>
        <time>2013-04-21T06:57:04Z</time>
      </trkpt>
      <trkpt lat="50.24248" lon="2.65654">
        <ele>134.2412109</ele>
        <time>2013-04-21T06:57:06Z</time>
      </trkpt>
      <trkpt lat="50.24259" lon="2.65615">
        <ele>131.8378906</ele>
        <time>2013-04-21T06:57:12Z</time>
      </trkpt>
      <trkpt lat="50.24262" lon="2.65603">
        <ele>131.3572998</ele>
        <time>2013-04-21T06:57:14Z</time>
      </trkpt>
      <trkpt lat="50.24269" lon="2.6558">
        <ele>131.8378906</ele>
        <time>2013-04-21T06:57:18Z</time>
      </trkpt>
      <trkpt lat="50.24273" lon="2.65568">
        <ele>131.3572998</ele>
        <time>2013-04-21T06:57:20Z</time>
      </trkpt>
      <trkpt lat="50.24281" lon="2.65534">
        <ele>128.4733887</ele>
        <time>2013-04-21T06:57:25Z</time>
      </trkpt>
      <trkpt lat="50.24286" lon="2.6551">
        <ele>127.0313721</ele>
        <time>2013-04-21T06:57:29Z</time>
      </trkpt>
      <trkpt lat="50.24306" lon="2.65474">
        <ele>130.3959961</ele>
        <time>2013-04-21T06:57:36Z</time>
      </trkpt>
      <trkpt lat="50.24314" lon="2.65461">
        <ele>130.876709</ele>
        <time>2013-04-21T06:57:39Z</time>
      </trkpt>
      <trkpt lat="50.24323" lon="2.65449">
        <ele>130.3959961</ele>
        <time>2013-04-21T06:57:43Z</time>
      </trkpt>
      <trkpt lat="50.24325" lon="2.65447">
        <ele>130.3959961</ele>
        <time>2013-04-21T06:57:45Z</time>
      </trkpt>
      <trkpt lat="50.24333" lon="2.65443">
        <ele>130.3959961</ele>
        <time>2013-04-21T06:57:50Z</time>
      </trkpt>
      <trkpt lat="50.24346" lon="2.65426">
        <ele>129.9152832</ele>
        <time>2013-04-21T06:57:55Z</time>
      </trkpt>
      <trkpt lat="50.24348" lon="2.65414">
        <ele>128.9541016</ele>
        <time>2013-04-21T06:57:57Z</time>
      </trkpt>
      <trkpt lat="50.24354" lon="2.65369">
        <ele>125.5893555</ele>
        <time>2013-04-21T06:58:04Z</time>
      </trkpt>
      <trkpt lat="50.24364" lon="2.65363">
        <ele>125.5893555</ele>
        <time>2013-04-21T06:58:08Z</time>
      </trkpt>
      <trkpt lat="50.2438" lon="2.65372">
        <ele>127.5119629</ele>
        <time>2013-04-21T06:58:14Z</time>
      </trkpt>
      <trkpt lat="50.2441" lon="2.65382">
        <ele>127.5119629</ele>
        <time>2013-04-21T06:58:21Z</time>
      </trkpt>
      <trkpt lat="50.24437" lon="2.6539">
        <ele>125.5893555</ele>
        <time>2013-04-21T06:58:27Z</time>
      </trkpt>
      <trkpt lat="50.24448" lon="2.65394">
        <ele>125.1087646</ele>
        <time>2013-04-21T06:58:30Z</time>
      </trkpt>
      <trkpt lat="50.24474" lon="2.65406">
        <ele>126.0699463</ele>
        <time>2013-04-21T06:58:37Z</time>
      </trkpt>
      <trkpt lat="50.24496" lon="2.6542">
        <ele>126.0699463</ele>
        <time>2013-04-21T06:58:43Z</time>
      </trkpt>
      <trkpt lat="50.24508" lon="2.65433">
        <ele>126.0699463</ele>
        <time>2013-04-21T06:58:48Z</time>
      </trkpt>
      <trkpt lat="50.24514" lon="2.65427">
        <ele>126.0699463</ele>
        <time>2013-04-21T06:58:52Z</time>
      </trkpt>
      <trkpt lat="50.24514" lon="2.65422">
        <ele>126.0699463</ele>
        <time>2013-04-21T06:58:53Z</time>
      </trkpt>
      <trkpt lat="50.24515" lon="2.65387">
        <ele>124.6280518</ele>
        <time>2013-04-21T06:58:59Z</time>
      </trkpt>
      <trkpt lat="50.24523" lon="2.65387">
        <ele>124.1473389</ele>
        <time>2013-04-21T06:59:03Z</time>
      </trkpt>
      <trkpt lat="50.24543" lon="2.65419">
        <ele>125.1087646</ele>
        <time>2013-04-21T06:59:11Z</time>
      </trkpt>
      <trkpt lat="50.24555" lon="2.65421">
        <ele>125.1087646</ele>
        <time>2013-04-21T06:59:14Z</time>
      </trkpt>
      <trkpt lat="50.24586" lon="2.65414">
        <ele>123.666748</ele>
        <time>2013-04-21T06:59:20Z</time>
      </trkpt>
      <trkpt lat="50.24625" lon="2.65399">
        <ele>122.7054443</ele>
        <time>2013-04-21T06:59:27Z</time>
      </trkpt>
      <trkpt lat="50.24631" lon="2.65397">
        <ele>122.2247314</ele>
        <time>2013-04-21T06:59:28Z</time>
      </trkpt>
      <trkpt lat="50.24677" lon="2.6538">
        <ele>121.7441406</ele>
        <time>2013-04-21T06:59:36Z</time>
      </trkpt>
      <trkpt lat="50.24725" lon="2.65359">
        <ele>120.302124</ele>
        <time>2013-04-21T06:59:44Z</time>
      </trkpt>
      <trkpt lat="50.24774" lon="2.6534">
        <ele>119.3408203</ele>
        <time>2013-04-21T06:59:52Z</time>
      </trkpt>
      <trkpt lat="50.24825" lon="2.6532">
        <ele>118.8601074</ele>
        <time>2013-04-21T07:00:00Z</time>
      </trkpt>
      <trkpt lat="50.24877" lon="2.65304">
        <ele>117.8988037</ele>
        <time>2013-04-21T07:00:08Z</time>
      </trkpt>
      <trkpt lat="50.24927" lon="2.65296">
        <ele>116.4567871</ele>
        <time>2013-04-21T07:00:16Z</time>
      </trkpt>
      <trkpt lat="50.24982" lon="2.65298">
        <ele>114.0535889</ele>
        <time>2013-04-21T07:00:24Z</time>
      </trkpt>
      <trkpt lat="50.25032" lon="2.65304">
        <ele>112.1309814</ele>
        <time>2013-04-21T07:00:31Z</time>
      </trkpt>
      <trkpt lat="50.25068" lon="2.65317">
        <ele>112.6115723</ele>
        <time>2013-04-21T07:00:37Z</time>
      </trkpt>
      <trkpt lat="50.25106" lon="2.65338">
        <ele>112.1309814</ele>
        <time>2013-04-21T07:00:44Z</time>
      </trkpt>
      <trkpt lat="50.2514" lon="2.65358">
        <ele>111.6502686</ele>
        <time>2013-04-21T07:00:50Z</time>
      </trkpt>
      <trkpt lat="50.25158" lon="2.65369">
        <ele>110.6888428</ele>
        <time>2013-04-21T07:00:53Z</time>
      </trkpt>
      <trkpt lat="50.25206" lon="2.65405">
        <ele>109.2469482</ele>
        <time>2013-04-21T07:01:01Z</time>
      </trkpt>
      <trkpt lat="50.25211" lon="2.65411">
        <ele>109.2469482</ele>
        <time>2013-04-21T07:01:02Z</time>
      </trkpt>
      <trkpt lat="50.25246" lon="2.65435">
        <ele>108.7662354</ele>
        <time>2013-04-21T07:01:08Z</time>
      </trkpt>
      <trkpt lat="50.25291" lon="2.65464">
        <ele>107.8050537</ele>
        <time>2013-04-21T07:01:16Z</time>
      </trkpt>
      <trkpt lat="50.2535" lon="2.65495">
        <ele>107.8050537</ele>
        <time>2013-04-21T07:01:26Z</time>
      </trkpt>
      <trkpt lat="50.25399" lon="2.6552">
        <ele>107.8050537</ele>
        <time>2013-04-21T07:01:35Z</time>
      </trkpt>
      <trkpt lat="50.25446" lon="2.65544">
        <ele>105.4017334</ele>
        <time>2013-04-21T07:01:43Z</time>
      </trkpt>
      <trkpt lat="50.25476" lon="2.65561">
        <ele>104.9210205</ele>
        <time>2013-04-21T07:01:48Z</time>
      </trkpt>
      <trkpt lat="50.25519" lon="2.65582">
        <ele>105.4017334</ele>
        <time>2013-04-21T07:01:56Z</time>
      </trkpt>
      <trkpt lat="50.2555" lon="2.65598">
        <ele>104.9210205</ele>
        <time>2013-04-21T07:02:02Z</time>
      </trkpt>
      <trkpt lat="50.2557" lon="2.65591">
        <ele>104.4404297</ele>
        <time>2013-04-21T07:02:06Z</time>
      </trkpt>
      <trkpt lat="50.2558" lon="2.65581">
        <ele>103.4790039</ele>
        <time>2013-04-21T07:02:08Z</time>
      </trkpt>
      <trkpt lat="50.25606" lon="2.6558">
        <ele>102.0371094</ele>
        <time>2013-04-21T07:02:12Z</time>
      </trkpt>
      <trkpt lat="50.25616" lon="2.65591">
        <ele>102.5177002</ele>
        <time>2013-04-21T07:02:14Z</time>
      </trkpt>
      <trkpt lat="50.2566" lon="2.65656">
        <ele>102.0371094</ele>
        <time>2013-04-21T07:02:24Z</time>
      </trkpt>
      <trkpt lat="50.25702" lon="2.65718">
        <ele>101.0756836</ele>
        <time>2013-04-21T07:02:33Z</time>
      </trkpt>
      <trkpt lat="50.25733" lon="2.65768">
        <ele>100.114502</ele>
        <time>2013-04-21T07:02:40Z</time>
      </trkpt>
      <trkpt lat="50.25736" lon="2.65775">
        <ele>100.114502</ele>
        <time>2013-04-21T07:02:41Z</time>
      </trkpt>
      <trkpt lat="50.25749" lon="2.65784">
        <ele>100.114502</ele>
        <time>2013-04-21T07:02:45Z</time>
      </trkpt>
      <trkpt lat="50.25769" lon="2.65768">
        <ele>98.6724854</ele>
        <time>2013-04-21T07:02:50Z</time>
      </trkpt>
      <trkpt lat="50.25795" lon="2.65741">
        <ele>96.7498779</ele>
        <time>2013-04-21T07:02:57Z</time>
      </trkpt>
      <trkpt lat="50.25819" lon="2.65716">
        <ele>95.7884521</ele>
        <time>2013-04-21T07:03:04Z</time>
      </trkpt>
      <trkpt lat="50.25845" lon="2.65686">
        <ele>96.7498779</ele>
        <time>2013-04-21T07:03:13Z</time>
      </trkpt>
      <trkpt lat="50.25849" lon="2.6568">
        <ele>97.7111816</ele>
        <time>2013-04-21T07:03:15Z</time>
      </trkpt>
      <trkpt lat="50.25861" lon="2.65673">
        <ele>98.6724854</ele>
        <time>2013-04-21T07:03:20Z</time>
      </trkpt>
      <trkpt lat="50.25866" lon="2.65668">
        <ele>99.1530762</ele>
        <time>2013-04-21T07:03:22Z</time>
      </trkpt>
      <trkpt lat="50.25893" lon="2.65641">
        <ele>101.5563965</ele>
        <time>2013-04-21T07:03:33Z</time>
      </trkpt>
      <trkpt lat="50.25924" lon="2.6561">
        <ele>103.4790039</ele>
        <time>2013-04-21T07:03:46Z</time>
      </trkpt>
      <trkpt lat="50.25949" lon="2.65587">
        <ele>104.4404297</ele>
        <time>2013-04-21T07:03:57Z</time>
      </trkpt>
      <trkpt lat="50.25958" lon="2.65579">
        <ele>105.4017334</ele>
        <time>2013-04-21T07:04:03Z</time>
      </trkpt>
      <trkpt lat="50.25962" lon="2.65564">
        <ele>105.4017334</ele>
        <time>2013-04-21T07:04:09Z</time>
      </trkpt>
      <trkpt lat="50.25958" lon="2.65539">
        <ele>105.4017334</ele>
        <time>2013-04-21T07:04:15Z</time>
      </trkpt>
      <trkpt lat="50.25953" lon="2.65507">
        <ele>105.4017334</ele>
        <time>2013-04-21T07:04:21Z</time>
      </trkpt>
      <trkpt lat="50.25952" lon="2.65451">
        <ele>104.9210205</ele>
        <time>2013-04-21T07:04:30Z</time>
      </trkpt>
      <trkpt lat="50.25953" lon="2.65403">
        <ele>103.9597168</ele>
        <time>2013-04-21T07:04:36Z</time>
      </trkpt>
      <trkpt lat="50.25941" lon="2.6535">
        <ele>102.998291</ele>
        <time>2013-04-21T07:04:42Z</time>
      </trkpt>
      <trkpt lat="50.25926" lon="2.65302">
        <ele>102.998291</ele>
        <time>2013-04-21T07:04:48Z</time>
      </trkpt>
      <trkpt lat="50.25909" lon="2.65257">
        <ele>102.998291</ele>
        <time>2013-04-21T07:04:54Z</time>
      </trkpt>
      <trkpt lat="50.25878" lon="2.65196">
        <ele>104.9210205</ele>
        <time>2013-04-21T07:05:03Z</time>
      </trkpt>
      <trkpt lat="50.25864" lon="2.65142">
        <ele>105.4017334</ele>
        <time>2013-04-21T07:05:10Z</time>
      </trkpt>
      <trkpt lat="50.2585" lon="2.65071">
        <ele>106.3630371</ele>
        <time>2013-04-21T07:05:20Z</time>
      </trkpt>
      <trkpt lat="50.25839" lon="2.65023">
        <ele>107.3243408</ele>
        <time>2013-04-21T07:05:28Z</time>
      </trkpt>
      <trkpt lat="50.25826" lon="2.64974">
        <ele>108.7662354</ele>
        <time>2013-04-21T07:05:38Z</time>
      </trkpt>
      <trkpt lat="50.25828" lon="2.64956">
        <ele>109.2469482</ele>
        <time>2013-04-21T07:05:42Z</time>
      </trkpt>
      <trkpt lat="50.2583" lon="2.64934">
        <ele>109.2469482</ele>
        <time>2013-04-21T07:05:48Z</time>
      </trkpt>
      <trkpt lat="50.25828" lon="2.6491">
        <ele>108.7662354</ele>
        <time>2013-04-21T07:05:53Z</time>
      </trkpt>
      <trkpt lat="50.25825" lon="2.64891">
        <ele>108.7662354</ele>
        <time>2013-04-21T07:05:57Z</time>
      </trkpt>
      <trkpt lat="50.25822" lon="2.64873">
        <ele>110.6888428</ele>
        <time>2013-04-21T07:06:01Z</time>
      </trkpt>
      <trkpt lat="50.25818" lon="2.64847">
        <ele>112.1309814</ele>
        <time>2013-04-21T07:06:06Z</time>
      </trkpt>
      <trkpt lat="50.25814" lon="2.64815">
        <ele>113.572998</ele>
        <time>2013-04-21T07:06:12Z</time>
      </trkpt>
      <trkpt lat="50.25812" lon="2.64786">
        <ele>112.1309814</ele>
        <time>2013-04-21T07:06:17Z</time>
      </trkpt>
      <trkpt lat="50.25808" lon="2.64763">
        <ele>113.0922852</ele>
        <time>2013-04-21T07:06:22Z</time>
      </trkpt>
      <trkpt lat="50.25803" lon="2.64722">
        <ele>114.0535889</ele>
        <time>2013-04-21T07:06:30Z</time>
      </trkpt>
      <trkpt lat="50.25795" lon="2.64694">
        <ele>112.6115723</ele>
        <time>2013-04-21T07:06:36Z</time>
      </trkpt>
      <trkpt lat="50.2579" lon="2.64676">
        <ele>111.6502686</ele>
        <time>2013-04-21T07:06:40Z</time>
      </trkpt>
      <trkpt lat="50.25783" lon="2.64645">
        <ele>115.0148926</ele>
        <time>2013-04-21T07:06:46Z</time>
      </trkpt>
      <trkpt lat="50.25779" lon="2.64609">
        <ele>114.0535889</ele>
        <time>2013-04-21T07:06:53Z</time>
      </trkpt>
      <trkpt lat="50.25774" lon="2.64583">
        <ele>112.6115723</ele>
        <time>2013-04-21T07:06:58Z</time>
      </trkpt>
      <trkpt lat="50.2576" lon="2.64517">
        <ele>114.5341797</ele>
        <time>2013-04-21T07:07:10Z</time>
      </trkpt>
      <trkpt lat="50.25751" lon="2.64478">
        <ele>113.572998</ele>
        <time>2013-04-21T07:07:18Z</time>
      </trkpt>
      <trkpt lat="50.25746" lon="2.64454">
        <ele>113.572998</ele>
        <time>2013-04-21T07:07:23Z</time>
      </trkpt>
      <trkpt lat="50.25739" lon="2.64418">
        <ele>113.572998</ele>
        <time>2013-04-21T07:07:30Z</time>
      </trkpt>
      <trkpt lat="50.25736" lon="2.64393">
        <ele>114.5341797</ele>
        <time>2013-04-21T07:07:35Z</time>
      </trkpt>
      <trkpt lat="50.25731" lon="2.64354">
        <ele>114.5341797</ele>
        <time>2013-04-21T07:07:42Z</time>
      </trkpt>
      <trkpt lat="50.2573" lon="2.64344">
        <ele>114.5341797</ele>
        <time>2013-04-21T07:07:44Z</time>
      </trkpt>
      <trkpt lat="50.2574" lon="2.64333">
        <ele>114.0535889</ele>
        <time>2013-04-21T07:07:48Z</time>
      </trkpt>
      <trkpt lat="50.25781" lon="2.64317">
        <ele>113.0922852</ele>
        <time>2013-04-21T07:07:57Z</time>
      </trkpt>
      <trkpt lat="50.25831" lon="2.64298">
        <ele>113.572998</ele>
        <time>2013-04-21T07:08:07Z</time>
      </trkpt>
      <trkpt lat="50.25874" lon="2.64283">
        <ele>114.0535889</ele>
        <time>2013-04-21T07:08:14Z</time>
      </trkpt>
      <trkpt lat="50.25918" lon="2.64274">
        <ele>111.6502686</ele>
        <time>2013-04-21T07:08:22Z</time>
      </trkpt>
      <trkpt lat="50.25957" lon="2.64255">
        <ele>112.6115723</ele>
        <time>2013-04-21T07:08:30Z</time>
      </trkpt>
      <trkpt lat="50.2599" lon="2.64242">
        <ele>114.5341797</ele>
        <time>2013-04-21T07:08:37Z</time>
      </trkpt>
      <trkpt lat="50.2601" lon="2.64231">
        <ele>116.9375</ele>
        <time>2013-04-21T07:08:42Z</time>
      </trkpt>
      <trkpt lat="50.26038" lon="2.64219">
        <ele>117.8988037</ele>
        <time>2013-04-21T07:08:50Z</time>
      </trkpt>
      <trkpt lat="50.26061" lon="2.64204">
        <ele>117.4182129</ele>
        <time>2013-04-21T07:08:57Z</time>
      </trkpt>
      <trkpt lat="50.26065" lon="2.64179">
        <ele>117.4182129</ele>
        <time>2013-04-21T07:09:01Z</time>
      </trkpt>
      <trkpt lat="50.26066" lon="2.64158">
        <ele>117.8988037</ele>
        <time>2013-04-21T07:09:04Z</time>
      </trkpt>
      <trkpt lat="50.26082" lon="2.6414">
        <ele>119.8214111</ele>
        <time>2013-04-21T07:09:09Z</time>
      </trkpt>
      <trkpt lat="50.2611" lon="2.64126">
        <ele>121.7441406</ele>
        <time>2013-04-21T07:09:17Z</time>
      </trkpt>
      <trkpt lat="50.26123" lon="2.6412">
        <ele>122.2247314</ele>
        <time>2013-04-21T07:09:21Z</time>
      </trkpt>
      <trkpt lat="50.2616" lon="2.64102">
        <ele>124.1473389</ele>
        <time>2013-04-21T07:09:32Z</time>
      </trkpt>
      <trkpt lat="50.26197" lon="2.64083">
        <ele>126.0699463</ele>
        <time>2013-04-21T07:09:43Z</time>
      </trkpt>
      <trkpt lat="50.26233" lon="2.64063">
        <ele>127.9925537</ele>
        <time>2013-04-21T07:09:54Z</time>
      </trkpt>
      <trkpt lat="50.26266" lon="2.64036">
        <ele>129.9152832</ele>
        <time>2013-04-21T07:10:05Z</time>
      </trkpt>
      <trkpt lat="50.26306" lon="2.63997">
        <ele>131.3572998</ele>
        <time>2013-04-21T07:10:19Z</time>
      </trkpt>
      <trkpt lat="50.26338" lon="2.63966">
        <ele>131.3572998</ele>
        <time>2013-04-21T07:10:28Z</time>
      </trkpt>
      <trkpt lat="50.26365" lon="2.63953">
        <ele>130.3959961</ele>
        <time>2013-04-21T07:10:34Z</time>
      </trkpt>
      <trkpt lat="50.26403" lon="2.63934">
        <ele>128.9541016</ele>
        <time>2013-04-21T07:10:41Z</time>
      </trkpt>
      <trkpt lat="50.26434" lon="2.63919">
        <ele>128.4733887</ele>
        <time>2013-04-21T07:10:47Z</time>
      </trkpt>
      <trkpt lat="50.26477" lon="2.63897">
        <ele>126.5506592</ele>
        <time>2013-04-21T07:10:55Z</time>
      </trkpt>
      <trkpt lat="50.26508" lon="2.63881">
        <ele>125.1087646</ele>
        <time>2013-04-21T07:11:00Z</time>
      </trkpt>
      <trkpt lat="50.26561" lon="2.63856">
        <ele>123.1861572</ele>
        <time>2013-04-21T07:11:08Z</time>
      </trkpt>
      <trkpt lat="50.26626" lon="2.63824">
        <ele>119.3408203</ele>
        <time>2013-04-21T07:11:17Z</time>
      </trkpt>
      <trkpt lat="50.26686" lon="2.63793">
        <ele>117.4182129</ele>
        <time>2013-04-21T07:11:25Z</time>
      </trkpt>
      <trkpt lat="50.26752" lon="2.63761">
        <ele>114.0535889</ele>
        <time>2013-04-21T07:11:34Z</time>
      </trkpt>
      <trkpt lat="50.26809" lon="2.63732">
        <ele>113.0922852</ele>
        <time>2013-04-21T07:11:42Z</time>
      </trkpt>
      <trkpt lat="50.26844" lon="2.63715">
        <ele>113.0922852</ele>
        <time>2013-04-21T07:11:48Z</time>
      </trkpt>
      <trkpt lat="50.26875" lon="2.63699">
        <ele>114.0535889</ele>
        <time>2013-04-21T07:11:54Z</time>
      </trkpt>
      <trkpt lat="50.26884" lon="2.63693">
        <ele>114.5341797</ele>
        <time>2013-04-21T07:11:56Z</time>
      </trkpt>
      <trkpt lat="50.26889" lon="2.63674">
        <ele>115.4956055</ele>
        <time>2013-04-21T07:12:00Z</time>
      </trkpt>
      <trkpt lat="50.26887" lon="2.63668">
        <ele>115.4956055</ele>
        <time>2013-04-21T07:12:01Z</time>
      </trkpt>
      <trkpt lat="50.26877" lon="2.63634">
        <ele>115.4956055</ele>
        <time>2013-04-21T07:12:06Z</time>
      </trkpt>
      <trkpt lat="50.2687" lon="2.63605">
        <ele>115.9761963</ele>
        <time>2013-04-21T07:12:10Z</time>
      </trkpt>
      <trkpt lat="50.26862" lon="2.63577">
        <ele>115.4956055</ele>
        <time>2013-04-21T07:12:14Z</time>
      </trkpt>
      <trkpt lat="50.26855" lon="2.63551">
        <ele>115.0148926</ele>
        <time>2013-04-21T07:12:18Z</time>
      </trkpt>
      <trkpt lat="50.26844" lon="2.63512">
        <ele>114.5341797</ele>
        <time>2013-04-21T07:12:24Z</time>
      </trkpt>
      <trkpt lat="50.2683" lon="2.63465">
        <ele>115.0148926</ele>
        <time>2013-04-21T07:12:32Z</time>
      </trkpt>
      <trkpt lat="50.26819" lon="2.63435">
        <ele>114.5341797</ele>
        <time>2013-04-21T07:12:38Z</time>
      </trkpt>
      <trkpt lat="50.26803" lon="2.63389">
        <ele>114.5341797</ele>
        <time>2013-04-21T07:12:46Z</time>
      </trkpt>
      <trkpt lat="50.26789" lon="2.63343">
        <ele>114.5341797</ele>
        <time>2013-04-21T07:12:55Z</time>
      </trkpt>
      <trkpt lat="50.26776" lon="2.63299">
        <ele>114.5341797</ele>
        <time>2013-04-21T07:13:03Z</time>
      </trkpt>
      <trkpt lat="50.26763" lon="2.63257">
        <ele>115.0148926</ele>
        <time>2013-04-21T07:13:11Z</time>
      </trkpt>
      <trkpt lat="50.26752" lon="2.63223">
        <ele>115.4956055</ele>
        <time>2013-04-21T07:13:19Z</time>
      </trkpt>
      <trkpt lat="50.26741" lon="2.63192">
        <ele>115.0148926</ele>
        <time>2013-04-21T07:13:25Z</time>
      </trkpt>
      <trkpt lat="50.26729" lon="2.63148">
        <ele>115.0148926</ele>
        <time>2013-04-21T07:13:34Z</time>
      </trkpt>
      <trkpt lat="50.26715" lon="2.63099">
        <ele>115.0148926</ele>
        <time>2013-04-21T07:13:45Z</time>
      </trkpt>
      <trkpt lat="50.26705" lon="2.63064">
        <ele>115.4956055</ele>
        <time>2013-04-21T07:13:53Z</time>
      </trkpt>
      <trkpt lat="50.26694" lon="2.63021">
        <ele>115.9761963</ele>
        <time>2013-04-21T07:14:02Z</time>
      </trkpt>
      <trkpt lat="50.26683" lon="2.62977">
        <ele>116.4567871</ele>
        <time>2013-04-21T07:14:11Z</time>
      </trkpt>
      <trkpt lat="50.26682" lon="2.62963">
        <ele>116.4567871</ele>
        <time>2013-04-21T07:14:14Z</time>
      </trkpt>
      <trkpt lat="50.26692" lon="2.62951">
        <ele>117.4182129</ele>
        <time>2013-04-21T07:14:18Z</time>
      </trkpt>
      <trkpt lat="50.26733" lon="2.62937">
        <ele>120.302124</ele>
        <time>2013-04-21T07:14:30Z</time>
      </trkpt>
      <trkpt lat="50.26769" lon="2.62919">
        <ele>122.7054443</ele>
        <time>2013-04-21T07:14:41Z</time>
      </trkpt>
      <trkpt lat="50.26798" lon="2.62906">
        <ele>124.6280518</ele>
        <time>2013-04-21T07:14:50Z</time>
      </trkpt>
      <trkpt lat="50.26824" lon="2.62891">
        <ele>126.5506592</ele>
        <time>2013-04-21T07:14:59Z</time>
      </trkpt>
      <trkpt lat="50.26858" lon="2.62866">
        <ele>128.4733887</ele>
        <time>2013-04-21T07:15:10Z</time>
      </trkpt>
      <trkpt lat="50.26896" lon="2.62831">
        <ele>130.3959961</ele>
        <time>2013-04-21T07:15:23Z</time>
      </trkpt>
      <trkpt lat="50.26932" lon="2.62796">
        <ele>131.3572998</ele>
        <time>2013-04-21T07:15:35Z</time>
      </trkpt>
      <trkpt lat="50.26961" lon="2.62769">
        <ele>130.876709</ele>
        <time>2013-04-21T07:15:43Z</time>
      </trkpt>
      <trkpt lat="50.26987" lon="2.62742">
        <ele>129.4346924</ele>
        <time>2013-04-21T07:15:49Z</time>
      </trkpt>
      <trkpt lat="50.27019" lon="2.62705">
        <ele>127.0313721</ele>
        <time>2013-04-21T07:15:55Z</time>
      </trkpt>
      <trkpt lat="50.27046" lon="2.62663">
        <ele>123.666748</ele>
        <time>2013-04-21T07:16:00Z</time>
      </trkpt>
      <trkpt lat="50.27069" lon="2.62615">
        <ele>120.302124</ele>
        <time>2013-04-21T07:16:05Z</time>
      </trkpt>
      <trkpt lat="50.27082" lon="2.62581">
        <ele>118.3793945</ele>
        <time>2013-04-21T07:16:09Z</time>
      </trkpt>
      <trkpt lat="50.27081" lon="2.62563">
        <ele>117.4182129</ele>
        <time>2013-04-21T07:16:13Z</time>
      </trkpt>
      <trkpt lat="50.27073" lon="2.62568">
        <ele>118.8601074</ele>
        <time>2013-04-21T07:16:17Z</time>
      </trkpt>
      <trkpt lat="50.27059" lon="2.62592">
        <ele>118.8601074</ele>
        <time>2013-04-21T07:16:24Z</time>
      </trkpt>
      <trkpt lat="50.27053" lon="2.62593">
        <ele>118.3793945</ele>
        <time>2013-04-21T07:16:26Z</time>
      </trkpt>
      <trkpt lat="50.27043" lon="2.62576">
        <ele>117.4182129</ele>
        <time>2013-04-21T07:16:30Z</time>
      </trkpt>
      <trkpt lat="50.27025" lon="2.62541">
        <ele>115.9761963</ele>
        <time>2013-04-21T07:16:37Z</time>
      </trkpt>
      <trkpt lat="50.27011" lon="2.62512">
        <ele>114.0535889</ele>
        <time>2013-04-21T07:16:43Z</time>
      </trkpt>
      <trkpt lat="50.26983" lon="2.62455">
        <ele>111.6502686</ele>
        <time>2013-04-21T07:16:55Z</time>
      </trkpt>
      <trkpt lat="50.26957" lon="2.62399">
        <ele>105.8824463</ele>
        <time>2013-04-21T07:17:06Z</time>
      </trkpt>
      <trkpt lat="50.26937" lon="2.62356">
        <ele>103.4790039</ele>
        <time>2013-04-21T07:17:15Z</time>
      </trkpt>
      <trkpt lat="50.26908" lon="2.62295">
        <ele>101.5563965</ele>
        <time>2013-04-21T07:17:28Z</time>
      </trkpt>
      <trkpt lat="50.2691" lon="2.62277">
        <ele>105.8824463</ele>
        <time>2013-04-21T07:17:32Z</time>
      </trkpt>
      <trkpt lat="50.26922" lon="2.62261">
        <ele>108.7662354</ele>
        <time>2013-04-21T07:17:36Z</time>
      </trkpt>
      <trkpt lat="50.26919" lon="2.62239">
        <ele>111.1695557</ele>
        <time>2013-04-21T07:17:40Z</time>
      </trkpt>
      <trkpt lat="50.26915" lon="2.62234">
        <ele>111.1695557</ele>
        <time>2013-04-21T07:17:41Z</time>
      </trkpt>
      <trkpt lat="50.26891" lon="2.62195">
        <ele>111.1695557</ele>
        <time>2013-04-21T07:17:49Z</time>
      </trkpt>
      <trkpt lat="50.26861" lon="2.62146">
        <ele>110.6888428</ele>
        <time>2013-04-21T07:17:59Z</time>
      </trkpt>
      <trkpt lat="50.26837" lon="2.62107">
        <ele>112.6115723</ele>
        <time>2013-04-21T07:18:08Z</time>
      </trkpt>
      <trkpt lat="50.26808" lon="2.6206">
        <ele>113.572998</ele>
        <time>2013-04-21T07:18:20Z</time>
      </trkpt>
      <trkpt lat="50.26787" lon="2.62025">
        <ele>113.0922852</ele>
        <time>2013-04-21T07:18:27Z</time>
      </trkpt>
      <trkpt lat="50.26761" lon="2.61983">
        <ele>113.0922852</ele>
        <time>2013-04-21T07:18:36Z</time>
      </trkpt>
      <trkpt lat="50.26728" lon="2.61929">
        <ele>112.1309814</ele>
        <time>2013-04-21T07:18:48Z</time>
      </trkpt>
      <trkpt lat="50.26701" lon="2.61885">
        <ele>112.6115723</ele>
        <time>2013-04-21T07:18:58Z</time>
      </trkpt>
      <trkpt lat="50.26679" lon="2.61849">
        <ele>112.1309814</ele>
        <time>2013-04-21T07:19:06Z</time>
      </trkpt>
      <trkpt lat="50.26665" lon="2.61828">
        <ele>112.6115723</ele>
        <time>2013-04-21T07:19:11Z</time>
      </trkpt>
      <trkpt lat="50.26667" lon="2.6181">
        <ele>112.6115723</ele>
        <time>2013-04-21T07:19:15Z</time>
      </trkpt>
      <trkpt lat="50.26678" lon="2.61793">
        <ele>111.6502686</ele>
        <time>2013-04-21T07:19:19Z</time>
      </trkpt>
      <trkpt lat="50.26691" lon="2.61774">
        <ele>111.1695557</ele>
        <time>2013-04-21T07:19:22Z</time>
      </trkpt>
      <trkpt lat="50.26734" lon="2.61732">
        <ele>110.208252</ele>
        <time>2013-04-21T07:19:29Z</time>
      </trkpt>
      <trkpt lat="50.26784" lon="2.61691">
        <ele>109.2469482</ele>
        <time>2013-04-21T07:19:36Z</time>
      </trkpt>
      <trkpt lat="50.26829" lon="2.61662">
        <ele>110.208252</ele>
        <time>2013-04-21T07:19:43Z</time>
      </trkpt>
      <trkpt lat="50.26878" lon="2.61631">
        <ele>112.1309814</ele>
        <time>2013-04-21T07:19:52Z</time>
      </trkpt>
      <trkpt lat="50.26912" lon="2.61609">
        <ele>115.0148926</ele>
        <time>2013-04-21T07:19:59Z</time>
      </trkpt>
      <trkpt lat="50.26934" lon="2.61594">
        <ele>116.9375</ele>
        <time>2013-04-21T07:20:04Z</time>
      </trkpt>
      <trkpt lat="50.26946" lon="2.61586">
        <ele>118.3793945</ele>
        <time>2013-04-21T07:20:07Z</time>
      </trkpt>
      <trkpt lat="50.2697" lon="2.61572">
        <ele>120.7828369</ele>
        <time>2013-04-21T07:20:13Z</time>
      </trkpt>
      <trkpt lat="50.27009" lon="2.61556">
        <ele>122.2247314</ele>
        <time>2013-04-21T07:20:22Z</time>
      </trkpt>
      <trkpt lat="50.27057" lon="2.61537">
        <ele>120.7828369</ele>
        <time>2013-04-21T07:20:31Z</time>
      </trkpt>
      <trkpt lat="50.27105" lon="2.61507">
        <ele>119.8214111</ele>
        <time>2013-04-21T07:20:40Z</time>
      </trkpt>
      <trkpt lat="50.27134" lon="2.61485">
        <ele>119.3408203</ele>
        <time>2013-04-21T07:20:46Z</time>
      </trkpt>
      <trkpt lat="50.27158" lon="2.61466">
        <ele>118.8601074</ele>
        <time>2013-04-21T07:20:51Z</time>
      </trkpt>
      <trkpt lat="50.2719" lon="2.61445">
        <ele>117.4182129</ele>
        <time>2013-04-21T07:20:57Z</time>
      </trkpt>
      <trkpt lat="50.27195" lon="2.61441">
        <ele>117.4182129</ele>
        <time>2013-04-21T07:20:58Z</time>
      </trkpt>
      <trkpt lat="50.27201" lon="2.61419">
        <ele>116.9375</ele>
        <time>2013-04-21T07:21:02Z</time>
      </trkpt>
      <trkpt lat="50.27193" lon="2.61401">
        <ele>115.9761963</ele>
        <time>2013-04-21T07:21:05Z</time>
      </trkpt>
      <trkpt lat="50.27169" lon="2.61357">
        <ele>113.572998</ele>
        <time>2013-04-21T07:21:12Z</time>
      </trkpt>
      <trkpt lat="50.27147" lon="2.61332">
        <ele>113.572998</ele>
        <time>2013-04-21T07:21:17Z</time>
      </trkpt>
      <trkpt lat="50.27122" lon="2.6131">
        <ele>115.4956055</ele>
        <time>2013-04-21T07:21:22Z</time>
      </trkpt>
      <trkpt lat="50.27094" lon="2.61287">
        <ele>117.4182129</ele>
        <time>2013-04-21T07:21:28Z</time>
      </trkpt>
      <trkpt lat="50.27083" lon="2.61279">
        <ele>118.3793945</ele>
        <time>2013-04-21T07:21:31Z</time>
      </trkpt>
      <trkpt lat="50.27079" lon="2.61267">
        <ele>118.3793945</ele>
        <time>2013-04-21T07:21:35Z</time>
      </trkpt>
      <trkpt lat="50.27084" lon="2.61269">
        <ele>118.3793945</ele>
        <time>2013-04-21T07:21:37Z</time>
      </trkpt>
      <trkpt lat="50.27111" lon="2.61281">
        <ele>119.8214111</ele>
        <time>2013-04-21T07:21:44Z</time>
      </trkpt>
      <trkpt lat="50.27121" lon="2.61282">
        <ele>119.8214111</ele>
        <time>2013-04-21T07:21:46Z</time>
      </trkpt>
      <trkpt lat="50.27151" lon="2.61262">
        <ele>119.3408203</ele>
        <time>2013-04-21T07:21:52Z</time>
      </trkpt>
      <trkpt lat="50.27172" lon="2.61245">
        <ele>119.3408203</ele>
        <time>2013-04-21T07:21:56Z</time>
      </trkpt>
      <trkpt lat="50.2721" lon="2.61215">
        <ele>117.8988037</ele>
        <time>2013-04-21T07:22:03Z</time>
      </trkpt>
      <trkpt lat="50.27244" lon="2.61189">
        <ele>116.9375</ele>
        <time>2013-04-21T07:22:09Z</time>
      </trkpt>
      <trkpt lat="50.2726" lon="2.61176">
        <ele>116.9375</ele>
        <time>2013-04-21T07:22:12Z</time>
      </trkpt>
      <trkpt lat="50.27274" lon="2.6116">
        <ele>116.4567871</ele>
        <time>2013-04-21T07:22:15Z</time>
      </trkpt>
      <trkpt lat="50.27305" lon="2.61109">
        <ele>115.0148926</ele>
        <time>2013-04-21T07:22:23Z</time>
      </trkpt>
      <trkpt lat="50.27321" lon="2.61085">
        <ele>115.0148926</ele>
        <time>2013-04-21T07:22:27Z</time>
      </trkpt>
      <trkpt lat="50.27327" lon="2.61055">
        <ele>115.4956055</ele>
        <time>2013-04-21T07:22:31Z</time>
      </trkpt>
      <trkpt lat="50.27325" lon="2.61037">
        <ele>115.4956055</ele>
        <time>2013-04-21T07:22:33Z</time>
      </trkpt>
      <trkpt lat="50.27319" lon="2.60945">
        <ele>115.9761963</ele>
        <time>2013-04-21T07:22:43Z</time>
      </trkpt>
      <trkpt lat="50.27315" lon="2.60919">
        <ele>115.4956055</ele>
        <time>2013-04-21T07:22:46Z</time>
      </trkpt>
      <trkpt lat="50.27292" lon="2.60876">
        <ele>115.0148926</ele>
        <time>2013-04-21T07:22:52Z</time>
      </trkpt>
      <trkpt lat="50.27287" lon="2.6087">
        <ele>114.5341797</ele>
        <time>2013-04-21T07:22:53Z</time>
      </trkpt>
      <trkpt lat="50.27275" lon="2.60833">
        <ele>113.572998</ele>
        <time>2013-04-21T07:22:57Z</time>
      </trkpt>
      <trkpt lat="50.27276" lon="2.60804">
        <ele>111.6502686</ele>
        <time>2013-04-21T07:23:00Z</time>
      </trkpt>
      <trkpt lat="50.27281" lon="2.60756">
        <ele>103.9597168</ele>
        <time>2013-04-21T07:23:05Z</time>
      </trkpt>
      <trkpt lat="50.27282" lon="2.60752">
        <ele>102.5177002</ele>
        <time>2013-04-21T07:23:06Z</time>
      </trkpt>
      <trkpt lat="50.27272" lon="2.60732">
        <ele>104.9210205</ele>
        <time>2013-04-21T07:23:10Z</time>
      </trkpt>
      <trkpt lat="50.2725" lon="2.60712">
        <ele>104.4404297</ele>
        <time>2013-04-21T07:23:15Z</time>
      </trkpt>
      <trkpt lat="50.27211" lon="2.60671">
        <ele>103.9597168</ele>
        <time>2013-04-21T07:23:22Z</time>
      </trkpt>
      <trkpt lat="50.27186" lon="2.60635">
        <ele>102.0371094</ele>
        <time>2013-04-21T07:23:27Z</time>
      </trkpt>
      <trkpt lat="50.27156" lon="2.60569">
        <ele>99.1530762</ele>
        <time>2013-04-21T07:23:35Z</time>
      </trkpt>
      <trkpt lat="50.27124" lon="2.60496">
        <ele>98.1918945</ele>
        <time>2013-04-21T07:23:44Z</time>
      </trkpt>
      <trkpt lat="50.27105" lon="2.60444">
        <ele>97.7111816</ele>
        <time>2013-04-21T07:23:50Z</time>
      </trkpt>
      <trkpt lat="50.27092" lon="2.60398">
        <ele>97.2304688</ele>
        <time>2013-04-21T07:23:55Z</time>
      </trkpt>
      <trkpt lat="50.27083" lon="2.60353">
        <ele>98.1918945</ele>
        <time>2013-04-21T07:24:00Z</time>
      </trkpt>
      <trkpt lat="50.27071" lon="2.603">
        <ele>99.1530762</ele>
        <time>2013-04-21T07:24:06Z</time>
      </trkpt>
      <trkpt lat="50.27051" lon="2.60218">
        <ele>100.5950928</ele>
        <time>2013-04-21T07:24:16Z</time>
      </trkpt>
      <trkpt lat="50.27031" lon="2.60164">
        <ele>101.5563965</ele>
        <time>2013-04-21T07:24:23Z</time>
      </trkpt>
      <trkpt lat="50.26999" lon="2.60111">
        <ele>103.4790039</ele>
        <time>2013-04-21T07:24:31Z</time>
      </trkpt>
      <trkpt lat="50.26961" lon="2.60049">
        <ele>103.9597168</ele>
        <time>2013-04-21T07:24:41Z</time>
      </trkpt>
      <trkpt lat="50.26935" lon="2.60013">
        <ele>105.4017334</ele>
        <time>2013-04-21T07:24:48Z</time>
      </trkpt>
      <trkpt lat="50.26927" lon="2.60005">
        <ele>105.8824463</ele>
        <time>2013-04-21T07:24:50Z</time>
      </trkpt>
      <trkpt lat="50.26895" lon="2.59982">
        <ele>106.8436279</ele>
        <time>2013-04-21T07:24:58Z</time>
      </trkpt>
      <trkpt lat="50.26861" lon="2.5996">
        <ele>109.7276611</ele>
        <time>2013-04-21T07:25:07Z</time>
      </trkpt>
      <trkpt lat="50.26834" lon="2.5995">
        <ele>110.208252</ele>
        <time>2013-04-21T07:25:13Z</time>
      </trkpt>
      <trkpt lat="50.26784" lon="2.5994">
        <ele>110.6888428</ele>
        <time>2013-04-21T07:25:23Z</time>
      </trkpt>
      <trkpt lat="50.26756" lon="2.59932">
        <ele>110.6888428</ele>
        <time>2013-04-21T07:25:28Z</time>
      </trkpt>
      <trkpt lat="50.26716" lon="2.59922">
        <ele>110.6888428</ele>
        <time>2013-04-21T07:25:36Z</time>
      </trkpt>
      <trkpt lat="50.2667" lon="2.59908">
        <ele>110.6888428</ele>
        <time>2013-04-21T07:25:45Z</time>
      </trkpt>
      <trkpt lat="50.26622" lon="2.59896">
        <ele>112.1309814</ele>
        <time>2013-04-21T07:25:54Z</time>
      </trkpt>
      <trkpt lat="50.26584" lon="2.59886">
        <ele>112.6115723</ele>
        <time>2013-04-21T07:26:02Z</time>
      </trkpt>
      <trkpt lat="50.26545" lon="2.59876">
        <ele>115.0148926</ele>
        <time>2013-04-21T07:26:11Z</time>
      </trkpt>
      <trkpt lat="50.26538" lon="2.59875">
        <ele>115.4956055</ele>
        <time>2013-04-21T07:26:13Z</time>
      </trkpt>
      <trkpt lat="50.26525" lon="2.59883">
        <ele>116.4567871</ele>
        <time>2013-04-21T07:26:17Z</time>
      </trkpt>
      <trkpt lat="50.26524" lon="2.59888">
        <ele>116.4567871</ele>
        <time>2013-04-21T07:26:18Z</time>
      </trkpt>
      <trkpt lat="50.26515" lon="2.5993">
        <ele>116.9375</ele>
        <time>2013-04-21T07:26:26Z</time>
      </trkpt>
      <trkpt lat="50.26506" lon="2.59972">
        <ele>117.4182129</ele>
        <time>2013-04-21T07:26:35Z</time>
      </trkpt>
      <trkpt lat="50.26504" lon="2.59974">
        <ele>117.4182129</ele>
        <time>2013-04-21T07:26:36Z</time>
      </trkpt>
      <trkpt lat="50.26491" lon="2.59975">
        <ele>116.9375</ele>
        <time>2013-04-21T07:26:40Z</time>
      </trkpt>
      <trkpt lat="50.26456" lon="2.5996">
        <ele>117.4182129</ele>
        <time>2013-04-21T07:26:48Z</time>
      </trkpt>
      <trkpt lat="50.26425" lon="2.59947">
        <ele>118.3793945</ele>
        <time>2013-04-21T07:26:55Z</time>
      </trkpt>
      <trkpt lat="50.26416" lon="2.59944">
        <ele>119.3408203</ele>
        <time>2013-04-21T07:26:57Z</time>
      </trkpt>
      <trkpt lat="50.26402" lon="2.59943">
        <ele>120.7828369</ele>
        <time>2013-04-21T07:27:00Z</time>
      </trkpt>
      <trkpt lat="50.26375" lon="2.59936">
        <ele>120.302124</ele>
        <time>2013-04-21T07:27:06Z</time>
      </trkpt>
      <trkpt lat="50.26346" lon="2.59926">
        <ele>119.3408203</ele>
        <time>2013-04-21T07:27:13Z</time>
      </trkpt>
      <trkpt lat="50.26313" lon="2.5991">
        <ele>119.3408203</ele>
        <time>2013-04-21T07:27:21Z</time>
      </trkpt>
      <trkpt lat="50.26285" lon="2.59893">
        <ele>120.7828369</ele>
        <time>2013-04-21T07:27:28Z</time>
      </trkpt>
      <trkpt lat="50.26256" lon="2.59874">
        <ele>120.302124</ele>
        <time>2013-04-21T07:27:36Z</time>
      </trkpt>
      <trkpt lat="50.26231" lon="2.59854">
        <ele>120.7828369</ele>
        <time>2013-04-21T07:27:44Z</time>
      </trkpt>
      <trkpt lat="50.26213" lon="2.59844">
        <ele>122.2247314</ele>
        <time>2013-04-21T07:27:49Z</time>
      </trkpt>
      <trkpt lat="50.2619" lon="2.59829">
        <ele>124.1473389</ele>
        <time>2013-04-21T07:27:55Z</time>
      </trkpt>
      <trkpt lat="50.26157" lon="2.59809">
        <ele>123.666748</ele>
        <time>2013-04-21T07:28:02Z</time>
      </trkpt>
      <trkpt lat="50.2613" lon="2.59792">
        <ele>125.1087646</ele>
        <time>2013-04-21T07:28:08Z</time>
      </trkpt>
      <trkpt lat="50.26109" lon="2.59773">
        <ele>125.1087646</ele>
        <time>2013-04-21T07:28:13Z</time>
      </trkpt>
      <trkpt lat="50.26086" lon="2.59744">
        <ele>123.1861572</ele>
        <time>2013-04-21T07:28:19Z</time>
      </trkpt>
      <trkpt lat="50.26047" lon="2.59702">
        <ele>118.8601074</ele>
        <time>2013-04-21T07:28:29Z</time>
      </trkpt>
      <trkpt lat="50.26007" lon="2.59664">
        <ele>118.8601074</ele>
        <time>2013-04-21T07:28:39Z</time>
      </trkpt>
      <trkpt lat="50.25976" lon="2.59633">
        <ele>118.3793945</ele>
        <time>2013-04-21T07:28:47Z</time>
      </trkpt>
      <trkpt lat="50.25941" lon="2.59601">
        <ele>118.8601074</ele>
        <time>2013-04-21T07:28:56Z</time>
      </trkpt>
      <trkpt lat="50.25907" lon="2.59572">
        <ele>119.8214111</ele>
        <time>2013-04-21T07:29:05Z</time>
      </trkpt>
      <trkpt lat="50.25873" lon="2.59543">
        <ele>120.7828369</ele>
        <time>2013-04-21T07:29:15Z</time>
      </trkpt>
      <trkpt lat="50.25839" lon="2.59519">
        <ele>122.2247314</ele>
        <time>2013-04-21T07:29:24Z</time>
      </trkpt>
      <trkpt lat="50.25827" lon="2.59513">
        <ele>122.7054443</ele>
        <time>2013-04-21T07:29:27Z</time>
      </trkpt>
      <trkpt lat="50.2579" lon="2.59503">
        <ele>123.666748</ele>
        <time>2013-04-21T07:29:35Z</time>
      </trkpt>
      <trkpt lat="50.25741" lon="2.59493">
        <ele>124.1473389</ele>
        <time>2013-04-21T07:29:45Z</time>
      </trkpt>
      <trkpt lat="50.25701" lon="2.59485">
        <ele>125.1087646</ele>
        <time>2013-04-21T07:29:53Z</time>
      </trkpt>
      <trkpt lat="50.25655" lon="2.59478">
        <ele>127.0313721</ele>
        <time>2013-04-21T07:30:02Z</time>
      </trkpt>
      <trkpt lat="50.25602" lon="2.59465">
        <ele>128.4733887</ele>
        <time>2013-04-21T07:30:13Z</time>
      </trkpt>
      <trkpt lat="50.25546" lon="2.59454">
        <ele>129.9152832</ele>
        <time>2013-04-21T07:30:25Z</time>
      </trkpt>
      <trkpt lat="50.2549" lon="2.59441">
        <ele>131.8378906</ele>
        <time>2013-04-21T07:30:37Z</time>
      </trkpt>
      <trkpt lat="50.25455" lon="2.59428">
        <ele>132.3186035</ele>
        <time>2013-04-21T07:30:45Z</time>
      </trkpt>
      <trkpt lat="50.25417" lon="2.59419">
        <ele>132.3186035</ele>
        <time>2013-04-21T07:30:54Z</time>
      </trkpt>
      <trkpt lat="50.25375" lon="2.59424">
        <ele>131.3572998</ele>
        <time>2013-04-21T07:31:03Z</time>
      </trkpt>
      <trkpt lat="50.25341" lon="2.5943">
        <ele>129.9152832</ele>
        <time>2013-04-21T07:31:10Z</time>
      </trkpt>
      <trkpt lat="50.25302" lon="2.59436">
        <ele>127.9925537</ele>
        <time>2013-04-21T07:31:17Z</time>
      </trkpt>
      <trkpt lat="50.25264" lon="2.59433">
        <ele>127.0313721</ele>
        <time>2013-04-21T07:31:23Z</time>
      </trkpt>
      <trkpt lat="50.25214" lon="2.59427">
        <ele>125.5893555</ele>
        <time>2013-04-21T07:31:30Z</time>
      </trkpt>
      <trkpt lat="50.25177" lon="2.59436">
        <ele>124.1473389</ele>
        <time>2013-04-21T07:31:35Z</time>
      </trkpt>
      <trkpt lat="50.25118" lon="2.59453">
        <ele>121.2635498</ele>
        <time>2013-04-21T07:31:43Z</time>
      </trkpt>
      <trkpt lat="50.25073" lon="2.59458">
        <ele>118.8601074</ele>
        <time>2013-04-21T07:31:49Z</time>
      </trkpt>
      <trkpt lat="50.25037" lon="2.59452">
        <ele>119.8214111</ele>
        <time>2013-04-21T07:31:55Z</time>
      </trkpt>
      <trkpt lat="50.25032" lon="2.59451">
        <ele>119.3408203</ele>
        <time>2013-04-21T07:31:56Z</time>
      </trkpt>
      <trkpt lat="50.25019" lon="2.59459">
        <ele>120.7828369</ele>
        <time>2013-04-21T07:32:00Z</time>
      </trkpt>
      <trkpt lat="50.25017" lon="2.59473">
        <ele>121.2635498</ele>
        <time>2013-04-21T07:32:03Z</time>
      </trkpt>
      <trkpt lat="50.25012" lon="2.59499">
        <ele>120.7828369</ele>
        <time>2013-04-21T07:32:09Z</time>
      </trkpt>
      <trkpt lat="50.25008" lon="2.59534">
        <ele>122.7054443</ele>
        <time>2013-04-21T07:32:16Z</time>
      </trkpt>
      <trkpt lat="50.25002" lon="2.59567">
        <ele>125.5893555</ele>
        <time>2013-04-21T07:32:22Z</time>
      </trkpt>
      <trkpt lat="50.24988" lon="2.59606">
        <ele>127.5119629</ele>
        <time>2013-04-21T07:32:30Z</time>
      </trkpt>
      <trkpt lat="50.24973" lon="2.59616">
        <ele>128.9541016</ele>
        <time>2013-04-21T07:32:35Z</time>
      </trkpt>
      <trkpt lat="50.24947" lon="2.59634">
        <ele>130.876709</ele>
        <time>2013-04-21T07:32:43Z</time>
      </trkpt>
      <trkpt lat="50.24925" lon="2.59649">
        <ele>130.876709</ele>
        <time>2013-04-21T07:32:50Z</time>
      </trkpt>
      <trkpt lat="50.24903" lon="2.59663">
        <ele>131.3572998</ele>
        <time>2013-04-21T07:32:57Z</time>
      </trkpt>
      <trkpt lat="50.24881" lon="2.59674">
        <ele>131.3572998</ele>
        <time>2013-04-21T07:33:03Z</time>
      </trkpt>
      <trkpt lat="50.24855" lon="2.59684">
        <ele>133.2799072</ele>
        <time>2013-04-21T07:33:11Z</time>
      </trkpt>
      <trkpt lat="50.24835" lon="2.59694">
        <ele>133.760498</ele>
        <time>2013-04-21T07:33:18Z</time>
      </trkpt>
      <trkpt lat="50.2482" lon="2.59704">
        <ele>131.8378906</ele>
        <time>2013-04-21T07:33:24Z</time>
      </trkpt>
      <trkpt lat="50.24812" lon="2.59714">
        <ele>130.3959961</ele>
        <time>2013-04-21T07:33:28Z</time>
      </trkpt>
      <trkpt lat="50.24797" lon="2.59727">
        <ele>135.6831055</ele>
        <time>2013-04-21T07:33:33Z</time>
      </trkpt>
      <trkpt lat="50.24784" lon="2.59741">
        <ele>138.0865479</ele>
        <time>2013-04-21T07:33:39Z</time>
      </trkpt>
      <trkpt lat="50.24769" lon="2.59755">
        <ele>140.4898682</ele>
        <time>2013-04-21T07:33:45Z</time>
      </trkpt>
      <trkpt lat="50.24768" lon="2.59757">
        <ele>140.4898682</ele>
        <time>2013-04-21T07:33:46Z</time>
      </trkpt>
      <trkpt lat="50.24758" lon="2.5975">
        <ele>140.970459</ele>
        <time>2013-04-21T07:33:52Z</time>
      </trkpt>
      <trkpt lat="50.24745" lon="2.59752">
        <ele>140.4898682</ele>
        <time>2013-04-21T07:33:57Z</time>
      </trkpt>
      <trkpt lat="50.24741" lon="2.59757">
        <ele>139.5284424</ele>
        <time>2013-04-21T07:33:59Z</time>
      </trkpt>
      <trkpt lat="50.24727" lon="2.59771">
        <ele>139.5284424</ele>
        <time>2013-04-21T07:34:06Z</time>
      </trkpt>
      <trkpt lat="50.24716" lon="2.59777">
        <ele>139.5284424</ele>
        <time>2013-04-21T07:34:10Z</time>
      </trkpt>
      <trkpt lat="50.24705" lon="2.59788">
        <ele>140.4898682</ele>
        <time>2013-04-21T07:34:15Z</time>
      </trkpt>
      <trkpt lat="50.24701" lon="2.59793">
        <ele>141.4510498</ele>
        <time>2013-04-21T07:34:17Z</time>
      </trkpt>
      <trkpt lat="50.24688" lon="2.59809">
        <ele>144.8157959</ele>
        <time>2013-04-21T07:34:23Z</time>
      </trkpt>
      <trkpt lat="50.24676" lon="2.59822">
        <ele>145.7770996</ele>
        <time>2013-04-21T07:34:29Z</time>
      </trkpt>
      <trkpt lat="50.24663" lon="2.59843">
        <ele>149.6223145</ele>
        <time>2013-04-21T07:34:36Z</time>
      </trkpt>
      <trkpt lat="50.24643" lon="2.59873">
        <ele>153.9483643</ele>
        <time>2013-04-21T07:34:45Z</time>
      </trkpt>
      <trkpt lat="50.24627" lon="2.59899">
        <ele>154.9095459</ele>
        <time>2013-04-21T07:34:53Z</time>
      </trkpt>
      <trkpt lat="50.24612" lon="2.59925">
        <ele>153.9483643</ele>
        <time>2013-04-21T07:35:01Z</time>
      </trkpt>
      <trkpt lat="50.24601" lon="2.59943">
        <ele>151.5449219</ele>
        <time>2013-04-21T07:35:07Z</time>
      </trkpt>
      <trkpt lat="50.24592" lon="2.59961">
        <ele>151.064209</ele>
        <time>2013-04-21T07:35:12Z</time>
      </trkpt>
      <trkpt lat="50.24581" lon="2.59977">
        <ele>152.9869385</ele>
        <time>2013-04-21T07:35:17Z</time>
      </trkpt>
      <trkpt lat="50.2456" lon="2.60003">
        <ele>155.3902588</ele>
        <time>2013-04-21T07:35:26Z</time>
      </trkpt>
      <trkpt lat="50.24548" lon="2.60008">
        <ele>154.9095459</ele>
        <time>2013-04-21T07:35:31Z</time>
      </trkpt>
      <trkpt lat="50.24541" lon="2.59991">
        <ele>152.0257568</ele>
        <time>2013-04-21T07:35:36Z</time>
      </trkpt>
      <trkpt lat="50.24524" lon="2.59948">
        <ele>149.1416016</ele>
        <time>2013-04-21T07:35:46Z</time>
      </trkpt>
      <trkpt lat="50.24505" lon="2.59914">
        <ele>148.1804199</ele>
        <time>2013-04-21T07:35:54Z</time>
      </trkpt>
      <trkpt lat="50.24486" lon="2.5989">
        <ele>146.7384033</ele>
        <time>2013-04-21T07:36:00Z</time>
      </trkpt>
      <trkpt lat="50.24463" lon="2.59859">
        <ele>144.3352051</ele>
        <time>2013-04-21T07:36:07Z</time>
      </trkpt>
      <trkpt lat="50.24432" lon="2.5983">
        <ele>141.9317627</ele>
        <time>2013-04-21T07:36:15Z</time>
      </trkpt>
      <trkpt lat="50.24401" lon="2.59798">
        <ele>140.0091553</ele>
        <time>2013-04-21T07:36:23Z</time>
      </trkpt>
      <trkpt lat="50.24395" lon="2.59788">
        <ele>139.5284424</ele>
        <time>2013-04-21T07:36:25Z</time>
      </trkpt>
      <trkpt lat="50.24388" lon="2.59761">
        <ele>138.5672607</ele>
        <time>2013-04-21T07:36:30Z</time>
      </trkpt>
      <trkpt lat="50.24385" lon="2.5974">
        <ele>138.5672607</ele>
        <time>2013-04-21T07:36:34Z</time>
      </trkpt>
      <trkpt lat="50.24373" lon="2.59693">
        <ele>136.6446533</ele>
        <time>2013-04-21T07:36:41Z</time>
      </trkpt>
      <trkpt lat="50.24369" lon="2.5968">
        <ele>136.1639404</ele>
        <time>2013-04-21T07:36:43Z</time>
      </trkpt>
      <trkpt lat="50.24355" lon="2.59637">
        <ele>136.6446533</ele>
        <time>2013-04-21T07:36:49Z</time>
      </trkpt>
      <trkpt lat="50.24337" lon="2.59583">
        <ele>136.1639404</ele>
        <time>2013-04-21T07:36:56Z</time>
      </trkpt>
      <trkpt lat="50.24328" lon="2.59549">
        <ele>135.6831055</ele>
        <time>2013-04-21T07:37:00Z</time>
      </trkpt>
      <trkpt lat="50.24317" lon="2.59515">
        <ele>135.2025146</ele>
        <time>2013-04-21T07:37:04Z</time>
      </trkpt>
      <trkpt lat="50.24293" lon="2.59443">
        <ele>135.2025146</ele>
        <time>2013-04-21T07:37:12Z</time>
      </trkpt>
      <trkpt lat="50.24289" lon="2.59433">
        <ele>134.2412109</ele>
        <time>2013-04-21T07:37:13Z</time>
      </trkpt>
      <trkpt lat="50.24275" lon="2.5938">
        <ele>128.9541016</ele>
        <time>2013-04-21T07:37:18Z</time>
      </trkpt>
      <trkpt lat="50.24252" lon="2.59305">
        <ele>122.7054443</ele>
        <time>2013-04-21T07:37:24Z</time>
      </trkpt>
      <trkpt lat="50.24234" lon="2.5925">
        <ele>119.8214111</ele>
        <time>2013-04-21T07:37:29Z</time>
      </trkpt>
      <trkpt lat="50.24224" lon="2.59221">
        <ele>118.3793945</ele>
        <time>2013-04-21T07:37:32Z</time>
      </trkpt>
      <trkpt lat="50.24227" lon="2.59205">
        <ele>118.3793945</ele>
        <time>2013-04-21T07:37:36Z</time>
      </trkpt>
      <trkpt lat="50.24231" lon="2.59203">
        <ele>118.8601074</ele>
        <time>2013-04-21T07:37:37Z</time>
      </trkpt>
      <trkpt lat="50.24268" lon="2.59196">
        <ele>118.8601074</ele>
        <time>2013-04-21T07:37:44Z</time>
      </trkpt>
      <trkpt lat="50.24303" lon="2.59188">
        <ele>118.8601074</ele>
        <time>2013-04-21T07:37:50Z</time>
      </trkpt>
      <trkpt lat="50.24347" lon="2.59179">
        <ele>118.3793945</ele>
        <time>2013-04-21T07:37:57Z</time>
      </trkpt>
      <trkpt lat="50.24394" lon="2.59174">
        <ele>116.9375</ele>
        <time>2013-04-21T07:38:05Z</time>
      </trkpt>
      <trkpt lat="50.24427" lon="2.5917">
        <ele>115.4956055</ele>
        <time>2013-04-21T07:38:11Z</time>
      </trkpt>
      <trkpt lat="50.24438" lon="2.59169">
        <ele>115.0148926</ele>
        <time>2013-04-21T07:38:13Z</time>
      </trkpt>
      <trkpt lat="50.24446" lon="2.59156">
        <ele>114.5341797</ele>
        <time>2013-04-21T07:38:17Z</time>
      </trkpt>
      <trkpt lat="50.24441" lon="2.59151">
        <ele>115.9761963</ele>
        <time>2013-04-21T07:38:19Z</time>
      </trkpt>
      <trkpt lat="50.24407" lon="2.59133">
        <ele>121.2635498</ele>
        <time>2013-04-21T07:38:26Z</time>
      </trkpt>
      <trkpt lat="50.24369" lon="2.591">
        <ele>127.0313721</ele>
        <time>2013-04-21T07:38:34Z</time>
      </trkpt>
      <trkpt lat="50.24326" lon="2.59061">
        <ele>130.876709</ele>
        <time>2013-04-21T07:38:43Z</time>
      </trkpt>
      <trkpt lat="50.24283" lon="2.59019">
        <ele>130.876709</ele>
        <time>2013-04-21T07:38:52Z</time>
      </trkpt>
      <trkpt lat="50.24245" lon="2.58972">
        <ele>129.9152832</ele>
        <time>2013-04-21T07:39:01Z</time>
      </trkpt>
      <trkpt lat="50.24211" lon="2.58936">
        <ele>129.9152832</ele>
        <time>2013-04-21T07:39:09Z</time>
      </trkpt>
      <trkpt lat="50.24179" lon="2.58912">
        <ele>130.876709</ele>
        <time>2013-04-21T07:39:16Z</time>
      </trkpt>
      <trkpt lat="50.24146" lon="2.58901">
        <ele>129.9152832</ele>
        <time>2013-04-21T07:39:23Z</time>
      </trkpt>
      <trkpt lat="50.24094" lon="2.58896">
        <ele>130.876709</ele>
        <time>2013-04-21T07:39:34Z</time>
      </trkpt>
      <trkpt lat="50.24065" lon="2.58878">
        <ele>130.3959961</ele>
        <time>2013-04-21T07:39:41Z</time>
      </trkpt>
      <trkpt lat="50.24045" lon="2.5885">
        <ele>129.4346924</ele>
        <time>2013-04-21T07:39:47Z</time>
      </trkpt>
      <trkpt lat="50.24029" lon="2.58815">
        <ele>128.4733887</ele>
        <time>2013-04-21T07:39:53Z</time>
      </trkpt>
      <trkpt lat="50.24022" lon="2.58792">
        <ele>127.9925537</ele>
        <time>2013-04-21T07:39:57Z</time>
      </trkpt>
      <trkpt lat="50.2402" lon="2.58753">
        <ele>127.5119629</ele>
        <time>2013-04-21T07:40:04Z</time>
      </trkpt>
      <trkpt lat="50.24021" lon="2.58714">
        <ele>126.0699463</ele>
        <time>2013-04-21T07:40:12Z</time>
      </trkpt>
      <trkpt lat="50.2402" lon="2.58682">
        <ele>125.5893555</ele>
        <time>2013-04-21T07:40:19Z</time>
      </trkpt>
      <trkpt lat="50.2401" lon="2.58657">
        <ele>125.5893555</ele>
        <time>2013-04-21T07:40:24Z</time>
      </trkpt>
      <trkpt lat="50.23991" lon="2.58635">
        <ele>127.0313721</ele>
        <time>2013-04-21T07:40:30Z</time>
      </trkpt>
      <trkpt lat="50.23978" lon="2.5862">
        <ele>127.5119629</ele>
        <time>2013-04-21T07:40:34Z</time>
      </trkpt>
      <trkpt lat="50.23962" lon="2.58601">
        <ele>127.9925537</ele>
        <time>2013-04-21T07:40:38Z</time>
      </trkpt>
      <trkpt lat="50.23955" lon="2.58582">
        <ele>127.0313721</ele>
        <time>2013-04-21T07:40:41Z</time>
      </trkpt>
      <trkpt lat="50.23946" lon="2.58543">
        <ele>124.1473389</ele>
        <time>2013-04-21T07:40:47Z</time>
      </trkpt>
      <trkpt lat="50.23944" lon="2.58531">
        <ele>124.1473389</ele>
        <time>2013-04-21T07:40:49Z</time>
      </trkpt>
      <trkpt lat="50.23932" lon="2.58518">
        <ele>125.5893555</ele>
        <time>2013-04-21T07:40:53Z</time>
      </trkpt>
      <trkpt lat="50.23924" lon="2.58514">
        <ele>126.0699463</ele>
        <time>2013-04-21T07:40:55Z</time>
      </trkpt>
      <trkpt lat="50.23884" lon="2.5848">
        <ele>126.5506592</ele>
        <time>2013-04-21T07:41:05Z</time>
      </trkpt>
      <trkpt lat="50.2385" lon="2.58451">
        <ele>126.0699463</ele>
        <time>2013-04-21T07:41:13Z</time>
      </trkpt>
      <trkpt lat="50.23813" lon="2.58422">
        <ele>126.0699463</ele>
        <time>2013-04-21T07:41:21Z</time>
      </trkpt>
      <trkpt lat="50.23771" lon="2.58403">
        <ele>127.0313721</ele>
        <time>2013-04-21T07:41:29Z</time>
      </trkpt>
      <trkpt lat="50.23734" lon="2.5838">
        <ele>127.9925537</ele>
        <time>2013-04-21T07:41:37Z</time>
      </trkpt>
      <trkpt lat="50.23691" lon="2.58344">
        <ele>130.876709</ele>
        <time>2013-04-21T07:41:47Z</time>
      </trkpt>
      <trkpt lat="50.23651" lon="2.58305">
        <ele>135.2025146</ele>
        <time>2013-04-21T07:41:57Z</time>
      </trkpt>
      <trkpt lat="50.23625" lon="2.58276">
        <ele>135.6831055</ele>
        <time>2013-04-21T07:42:05Z</time>
      </trkpt>
      <trkpt lat="50.23602" lon="2.58243">
        <ele>130.876709</ele>
        <time>2013-04-21T07:42:13Z</time>
      </trkpt>
      <trkpt lat="50.23581" lon="2.58202">
        <ele>127.9925537</ele>
        <time>2013-04-21T07:42:21Z</time>
      </trkpt>
      <trkpt lat="50.23559" lon="2.58156">
        <ele>126.5506592</ele>
        <time>2013-04-21T07:42:30Z</time>
      </trkpt>
      <trkpt lat="50.23537" lon="2.58102">
        <ele>125.1087646</ele>
        <time>2013-04-21T07:42:40Z</time>
      </trkpt>
      <trkpt lat="50.23513" lon="2.58037">
        <ele>124.6280518</ele>
        <time>2013-04-21T07:42:51Z</time>
      </trkpt>
      <trkpt lat="50.23496" lon="2.57989">
        <ele>123.666748</ele>
        <time>2013-04-21T07:42:59Z</time>
      </trkpt>
      <trkpt lat="50.23483" lon="2.57944">
        <ele>125.1087646</ele>
        <time>2013-04-21T07:43:06Z</time>
      </trkpt>
      <trkpt lat="50.23472" lon="2.57908">
        <ele>124.6280518</ele>
        <time>2013-04-21T07:43:12Z</time>
      </trkpt>
      <trkpt lat="50.23456" lon="2.57852">
        <ele>125.1087646</ele>
        <time>2013-04-21T07:43:21Z</time>
      </trkpt>
      <trkpt lat="50.23444" lon="2.57813">
        <ele>125.5893555</ele>
        <time>2013-04-21T07:43:28Z</time>
      </trkpt>
      <trkpt lat="50.23427" lon="2.57761">
        <ele>125.5893555</ele>
        <time>2013-04-21T07:43:37Z</time>
      </trkpt>
      <trkpt lat="50.23414" lon="2.57725">
        <ele>124.6280518</ele>
        <time>2013-04-21T07:43:44Z</time>
      </trkpt>
      <trkpt lat="50.23395" lon="2.57685">
        <ele>122.7054443</ele>
        <time>2013-04-21T07:43:52Z</time>
      </trkpt>
      <trkpt lat="50.23372" lon="2.57639">
        <ele>122.7054443</ele>
        <time>2013-04-21T07:44:01Z</time>
      </trkpt>
      <trkpt lat="50.23344" lon="2.57578">
        <ele>123.666748</ele>
        <time>2013-04-21T07:44:12Z</time>
      </trkpt>
      <trkpt lat="50.2332" lon="2.57526">
        <ele>122.7054443</ele>
        <time>2013-04-21T07:44:22Z</time>
      </trkpt>
      <trkpt lat="50.23306" lon="2.57493">
        <ele>123.666748</ele>
        <time>2013-04-21T07:44:28Z</time>
      </trkpt>
      <trkpt lat="50.23287" lon="2.5745">
        <ele>123.1861572</ele>
        <time>2013-04-21T07:44:37Z</time>
      </trkpt>
      <trkpt lat="50.23272" lon="2.57412">
        <ele>124.6280518</ele>
        <time>2013-04-21T07:44:45Z</time>
      </trkpt>
      <trkpt lat="50.23275" lon="2.57394">
        <ele>123.666748</ele>
        <time>2013-04-21T07:44:49Z</time>
      </trkpt>
      <trkpt lat="50.23284" lon="2.57385">
        <ele>123.1861572</ele>
        <time>2013-04-21T07:44:54Z</time>
      </trkpt>
      <trkpt lat="50.23298" lon="2.57371">
        <ele>124.1473389</ele>
        <time>2013-04-21T07:45:01Z</time>
      </trkpt>
      <trkpt lat="50.23312" lon="2.57353">
        <ele>126.0699463</ele>
        <time>2013-04-21T07:45:09Z</time>
      </trkpt>
      <trkpt lat="50.23321" lon="2.57334">
        <ele>127.5119629</ele>
        <time>2013-04-21T07:45:15Z</time>
      </trkpt>
      <trkpt lat="50.23314" lon="2.57316">
        <ele>127.9925537</ele>
        <time>2013-04-21T07:45:19Z</time>
      </trkpt>
      <trkpt lat="50.23301" lon="2.5728">
        <ele>127.5119629</ele>
        <time>2013-04-21T07:45:26Z</time>
      </trkpt>
      <trkpt lat="50.23294" lon="2.57254">
        <ele>127.5119629</ele>
        <time>2013-04-21T07:45:31Z</time>
      </trkpt>
      <trkpt lat="50.23279" lon="2.57214">
        <ele>127.0313721</ele>
        <time>2013-04-21T07:45:39Z</time>
      </trkpt>
      <trkpt lat="50.23258" lon="2.57177">
        <ele>126.0699463</ele>
        <time>2013-04-21T07:45:47Z</time>
      </trkpt>
      <trkpt lat="50.23234" lon="2.5713">
        <ele>126.5506592</ele>
        <time>2013-04-21T07:45:57Z</time>
      </trkpt>
      <trkpt lat="50.2322" lon="2.57095">
        <ele>126.0699463</ele>
        <time>2013-04-21T07:46:04Z</time>
      </trkpt>
      <trkpt lat="50.23206" lon="2.57069">
        <ele>127.0313721</ele>
        <time>2013-04-21T07:46:10Z</time>
      </trkpt>
      <trkpt lat="50.23197" lon="2.5705">
        <ele>127.0313721</ele>
        <time>2013-04-21T07:46:15Z</time>
      </trkpt>
      <trkpt lat="50.23183" lon="2.57022">
        <ele>127.9925537</ele>
        <time>2013-04-21T07:46:22Z</time>
      </trkpt>
      <trkpt lat="50.23174" lon="2.57002">
        <ele>127.9925537</ele>
        <time>2013-04-21T07:46:27Z</time>
      </trkpt>
      <trkpt lat="50.2316" lon="2.56971">
        <ele>127.5119629</ele>
        <time>2013-04-21T07:46:33Z</time>
      </trkpt>
      <trkpt lat="50.23152" lon="2.56946">
        <ele>127.0313721</ele>
        <time>2013-04-21T07:46:38Z</time>
      </trkpt>
      <trkpt lat="50.23138" lon="2.56909">
        <ele>126.0699463</ele>
        <time>2013-04-21T07:46:45Z</time>
      </trkpt>
      <trkpt lat="50.23126" lon="2.56878">
        <ele>125.5893555</ele>
        <time>2013-04-21T07:46:51Z</time>
      </trkpt>
      <trkpt lat="50.23121" lon="2.56868">
        <ele>127.0313721</ele>
        <time>2013-04-21T07:46:53Z</time>
      </trkpt>
      <trkpt lat="50.2311" lon="2.56867">
        <ele>128.9541016</ele>
        <time>2013-04-21T07:46:57Z</time>
      </trkpt>
      <trkpt lat="50.23075" lon="2.56901">
        <ele>131.8378906</ele>
        <time>2013-04-21T07:47:09Z</time>
      </trkpt>
      <trkpt lat="50.23055" lon="2.56921">
        <ele>137.1252441</ele>
        <time>2013-04-21T07:47:17Z</time>
      </trkpt>
      <trkpt lat="50.23036" lon="2.56939">
        <ele>142.4124756</ele>
        <time>2013-04-21T07:47:25Z</time>
      </trkpt>
      <trkpt lat="50.23024" lon="2.56954">
        <ele>143.8543701</ele>
        <time>2013-04-21T07:47:31Z</time>
      </trkpt>
      <trkpt lat="50.23018" lon="2.56963">
        <ele>144.8157959</ele>
        <time>2013-04-21T07:47:35Z</time>
      </trkpt>
      <trkpt lat="50.22999" lon="2.56973">
        <ele>146.2578125</ele>
        <time>2013-04-21T07:47:43Z</time>
      </trkpt>
      <trkpt lat="50.22985" lon="2.56979">
        <ele>147.699707</ele>
        <time>2013-04-21T07:47:49Z</time>
      </trkpt>
      <trkpt lat="50.22965" lon="2.56986">
        <ele>150.5836182</ele>
        <time>2013-04-21T07:47:56Z</time>
      </trkpt>
      <trkpt lat="50.22944" lon="2.56994">
        <ele>151.064209</ele>
        <time>2013-04-21T07:48:04Z</time>
      </trkpt>
      <trkpt lat="50.22924" lon="2.57001">
        <ele>152.5063477</ele>
        <time>2013-04-21T07:48:12Z</time>
      </trkpt>
      <trkpt lat="50.22898" lon="2.5702">
        <ele>155.3902588</ele>
        <time>2013-04-21T07:48:23Z</time>
      </trkpt>
      <trkpt lat="50.22882" lon="2.57035">
        <ele>156.8321533</ele>
        <time>2013-04-21T07:48:30Z</time>
      </trkpt>
      <trkpt lat="50.2288" lon="2.57036">
        <ele>156.8321533</ele>
        <time>2013-04-21T07:48:31Z</time>
      </trkpt>
      <trkpt lat="50.22873" lon="2.57029">
        <ele>155.8709717</ele>
        <time>2013-04-21T07:48:35Z</time>
      </trkpt>
      <trkpt lat="50.22872" lon="2.57023">
        <ele>152.9869385</ele>
        <time>2013-04-21T07:48:39Z</time>
      </trkpt>
      <trkpt lat="50.22871" lon="2.57021">
        <ele>152.5063477</ele>
        <time>2013-04-21T07:48:40Z</time>
      </trkpt>
      <trkpt lat="50.22866" lon="2.57003">
        <ele>149.1416016</ele>
        <time>2013-04-21T07:48:46Z</time>
      </trkpt>
      <trkpt lat="50.2286" lon="2.56984">
        <ele>146.7384033</ele>
        <time>2013-04-21T07:48:50Z</time>
      </trkpt>
      <trkpt lat="50.2285" lon="2.56953">
        <ele>141.9317627</ele>
        <time>2013-04-21T07:48:57Z</time>
      </trkpt>
      <trkpt lat="50.22836" lon="2.56925">
        <ele>140.4898682</ele>
        <time>2013-04-21T07:49:03Z</time>
      </trkpt>
      <trkpt lat="50.2282" lon="2.56904">
        <ele>138.5672607</ele>
        <time>2013-04-21T07:49:09Z</time>
      </trkpt>
      <trkpt lat="50.22811" lon="2.56882">
        <ele>140.4898682</ele>
        <time>2013-04-21T07:49:14Z</time>
      </trkpt>
      <trkpt lat="50.22809" lon="2.56863">
        <ele>140.4898682</ele>
        <time>2013-04-21T07:49:18Z</time>
      </trkpt>
      <trkpt lat="50.22806" lon="2.56833">
        <ele>139.5284424</ele>
        <time>2013-04-21T07:49:22Z</time>
      </trkpt>
      <trkpt lat="50.22802" lon="2.56817">
        <ele>141.4510498</ele>
        <time>2013-04-21T07:49:24Z</time>
      </trkpt>
      <trkpt lat="50.22792" lon="2.568">
        <ele>144.3352051</ele>
        <time>2013-04-21T07:49:29Z</time>
      </trkpt>
      <trkpt lat="50.22797" lon="2.56795">
        <ele>144.8157959</ele>
        <time>2013-04-21T07:49:31Z</time>
      </trkpt>
      <trkpt lat="50.22801" lon="2.56795">
        <ele>144.8157959</ele>
        <time>2013-04-21T07:49:32Z</time>
      </trkpt>
      <trkpt lat="50.2283" lon="2.56784">
        <ele>146.7384033</ele>
        <time>2013-04-21T07:49:38Z</time>
      </trkpt>
      <trkpt lat="50.22848" lon="2.56774">
        <ele>148.1804199</ele>
        <time>2013-04-21T07:49:41Z</time>
      </trkpt>
      <trkpt lat="50.22874" lon="2.56756">
        <ele>147.699707</ele>
        <time>2013-04-21T07:49:45Z</time>
      </trkpt>
      <trkpt lat="50.22914" lon="2.56724">
        <ele>147.699707</ele>
        <time>2013-04-21T07:49:52Z</time>
      </trkpt>
      <trkpt lat="50.22942" lon="2.56707">
        <ele>146.7384033</ele>
        <time>2013-04-21T07:49:57Z</time>
      </trkpt>
      <trkpt lat="50.22956" lon="2.56697">
        <ele>146.2578125</ele>
        <time>2013-04-21T07:50:00Z</time>
      </trkpt>
      <trkpt lat="50.22979" lon="2.56682">
        <ele>143.3736572</ele>
        <time>2013-04-21T07:50:05Z</time>
      </trkpt>
      <trkpt lat="50.22993" lon="2.56668">
        <ele>142.8930664</ele>
        <time>2013-04-21T07:50:09Z</time>
      </trkpt>
      <trkpt lat="50.23002" lon="2.56653">
        <ele>140.970459</ele>
        <time>2013-04-21T07:50:15Z</time>
      </trkpt>
      <trkpt lat="50.23001" lon="2.56639">
        <ele>140.0091553</ele>
        <time>2013-04-21T07:50:19Z</time>
      </trkpt>
      <trkpt lat="50.22998" lon="2.56629">
        <ele>139.0478516</ele>
        <time>2013-04-21T07:50:21Z</time>
      </trkpt>
      <trkpt lat="50.22986" lon="2.56592">
        <ele>136.6446533</ele>
        <time>2013-04-21T07:50:28Z</time>
      </trkpt>
      <trkpt lat="50.22975" lon="2.56565">
        <ele>135.6831055</ele>
        <time>2013-04-21T07:50:34Z</time>
      </trkpt>
      <trkpt lat="50.2297" lon="2.5654">
        <ele>134.2412109</ele>
        <time>2013-04-21T07:50:41Z</time>
      </trkpt>
      <trkpt lat="50.22963" lon="2.56523">
        <ele>132.3186035</ele>
        <time>2013-04-21T07:50:46Z</time>
      </trkpt>
      <trkpt lat="50.22955" lon="2.56502">
        <ele>134.2412109</ele>
        <time>2013-04-21T07:50:52Z</time>
      </trkpt>
      <trkpt lat="50.22947" lon="2.56476">
        <ele>132.7993164</ele>
        <time>2013-04-21T07:50:57Z</time>
      </trkpt>
      <trkpt lat="50.22937" lon="2.56435">
        <ele>133.2799072</ele>
        <time>2013-04-21T07:51:04Z</time>
      </trkpt>
      <trkpt lat="50.22928" lon="2.56401">
        <ele>133.2799072</ele>
        <time>2013-04-21T07:51:10Z</time>
      </trkpt>
      <trkpt lat="50.22919" lon="2.56374">
        <ele>134.7219238</ele>
        <time>2013-04-21T07:51:15Z</time>
      </trkpt>
      <trkpt lat="50.22909" lon="2.56341">
        <ele>134.2412109</ele>
        <time>2013-04-21T07:51:21Z</time>
      </trkpt>
      <trkpt lat="50.22903" lon="2.56309">
        <ele>130.3959961</ele>
        <time>2013-04-21T07:51:27Z</time>
      </trkpt>
      <trkpt lat="50.22897" lon="2.56275">
        <ele>128.9541016</ele>
        <time>2013-04-21T07:51:33Z</time>
      </trkpt>
      <trkpt lat="50.2289" lon="2.56234">
        <ele>127.5119629</ele>
        <time>2013-04-21T07:51:40Z</time>
      </trkpt>
      <trkpt lat="50.22882" lon="2.56206">
        <ele>127.0313721</ele>
        <time>2013-04-21T07:51:45Z</time>
      </trkpt>
      <trkpt lat="50.22872" lon="2.56205">
        <ele>129.9152832</ele>
        <time>2013-04-21T07:51:49Z</time>
      </trkpt>
      <trkpt lat="50.2287" lon="2.56213">
        <ele>130.876709</ele>
        <time>2013-04-21T07:51:51Z</time>
      </trkpt>
      <trkpt lat="50.22858" lon="2.5623">
        <ele>133.2799072</ele>
        <time>2013-04-21T07:51:56Z</time>
      </trkpt>
      <trkpt lat="50.22838" lon="2.56255">
        <ele>137.605835</ele>
        <time>2013-04-21T07:52:02Z</time>
      </trkpt>
      <trkpt lat="50.22819" lon="2.56278">
        <ele>139.5284424</ele>
        <time>2013-04-21T07:52:08Z</time>
      </trkpt>
      <trkpt lat="50.22796" lon="2.56307">
        <ele>139.5284424</ele>
        <time>2013-04-21T07:52:15Z</time>
      </trkpt>
      <trkpt lat="50.22767" lon="2.56343">
        <ele>138.0865479</ele>
        <time>2013-04-21T07:52:23Z</time>
      </trkpt>
      <trkpt lat="50.22737" lon="2.5638">
        <ele>137.605835</ele>
        <time>2013-04-21T07:52:31Z</time>
      </trkpt>
      <trkpt lat="50.22707" lon="2.56421">
        <ele>143.3736572</ele>
        <time>2013-04-21T07:52:39Z</time>
      </trkpt>
      <trkpt lat="50.22687" lon="2.56451">
        <ele>144.3352051</ele>
        <time>2013-04-21T07:52:46Z</time>
      </trkpt>
      <trkpt lat="50.22682" lon="2.5646">
        <ele>146.2578125</ele>
        <time>2013-04-21T07:52:48Z</time>
      </trkpt>
      <trkpt lat="50.22673" lon="2.56485">
        <ele>148.1804199</ele>
        <time>2013-04-21T07:52:54Z</time>
      </trkpt>
      <trkpt lat="50.22668" lon="2.56507">
        <ele>146.7384033</ele>
        <time>2013-04-21T07:53:00Z</time>
      </trkpt>
      <trkpt lat="50.22664" lon="2.56527">
        <ele>143.8543701</ele>
        <time>2013-04-21T07:53:06Z</time>
      </trkpt>
      <trkpt lat="50.2266" lon="2.56547">
        <ele>143.8543701</ele>
        <time>2013-04-21T07:53:12Z</time>
      </trkpt>
      <trkpt lat="50.22652" lon="2.56567">
        <ele>143.3736572</ele>
        <time>2013-04-21T07:53:19Z</time>
      </trkpt>
      <trkpt lat="50.2264" lon="2.56582">
        <ele>147.2189941</ele>
        <time>2013-04-21T07:53:25Z</time>
      </trkpt>
      <trkpt lat="50.22628" lon="2.56599">
        <ele>152.5063477</ele>
        <time>2013-04-21T07:53:31Z</time>
      </trkpt>
      <trkpt lat="50.22615" lon="2.56621">
        <ele>154.4289551</ele>
        <time>2013-04-21T07:53:38Z</time>
      </trkpt>
      <trkpt lat="50.22604" lon="2.56646">
        <ele>155.8709717</ele>
        <time>2013-04-21T07:53:45Z</time>
      </trkpt>
      <trkpt lat="50.226" lon="2.56672">
        <ele>156.3515625</ele>
        <time>2013-04-21T07:53:51Z</time>
      </trkpt>
      <trkpt lat="50.22596" lon="2.56707">
        <ele>156.3515625</ele>
        <time>2013-04-21T07:53:58Z</time>
      </trkpt>
      <trkpt lat="50.22591" lon="2.56735">
        <ele>155.8709717</ele>
        <time>2013-04-21T07:54:04Z</time>
      </trkpt>
      <trkpt lat="50.2258" lon="2.56764">
        <ele>152.9869385</ele>
        <time>2013-04-21T07:54:11Z</time>
      </trkpt>
      <trkpt lat="50.2258" lon="2.56784">
        <ele>152.5063477</ele>
        <time>2013-04-21T07:54:15Z</time>
      </trkpt>
      <trkpt lat="50.22591" lon="2.56804">
        <ele>152.5063477</ele>
        <time>2013-04-21T07:54:19Z</time>
      </trkpt>
      <trkpt lat="50.22622" lon="2.56833">
        <ele>151.064209</ele>
        <time>2013-04-21T07:54:27Z</time>
      </trkpt>
      <trkpt lat="50.22639" lon="2.56847">
        <ele>150.1030273</ele>
        <time>2013-04-21T07:54:31Z</time>
      </trkpt>
      <trkpt lat="50.22656" lon="2.5688">
        <ele>150.5836182</ele>
        <time>2013-04-21T07:54:37Z</time>
      </trkpt>
      <trkpt lat="50.22656" lon="2.56886">
        <ele>150.1030273</ele>
        <time>2013-04-21T07:54:38Z</time>
      </trkpt>
      <trkpt lat="50.22651" lon="2.56912">
        <ele>152.0257568</ele>
        <time>2013-04-21T07:54:43Z</time>
      </trkpt>
      <trkpt lat="50.22648" lon="2.56915">
        <ele>152.0257568</ele>
        <time>2013-04-21T07:54:44Z</time>
      </trkpt>
      <trkpt lat="50.22618" lon="2.56938">
        <ele>154.9095459</ele>
        <time>2013-04-21T07:54:53Z</time>
      </trkpt>
      <trkpt lat="50.22602" lon="2.56954">
        <ele>155.8709717</ele>
        <time>2013-04-21T07:54:59Z</time>
      </trkpt>
      <trkpt lat="50.22594" lon="2.56962">
        <ele>156.3515625</ele>
        <time>2013-04-21T07:55:04Z</time>
      </trkpt>
      <trkpt lat="50.22585" lon="2.56971">
        <ele>157.3128662</ele>
        <time>2013-04-21T07:55:09Z</time>
      </trkpt>
      <trkpt lat="50.22575" lon="2.56982">
        <ele>157.3128662</ele>
        <time>2013-04-21T07:55:14Z</time>
      </trkpt>
      <trkpt lat="50.22565" lon="2.56978">
        <ele>156.8321533</ele>
        <time>2013-04-21T07:55:18Z</time>
      </trkpt>
      <trkpt lat="50.22556" lon="2.56967">
        <ele>154.4289551</ele>
        <time>2013-04-21T07:55:22Z</time>
      </trkpt>
      <trkpt lat="50.22537" lon="2.56937">
        <ele>148.6610107</ele>
        <time>2013-04-21T07:55:30Z</time>
      </trkpt>
      <trkpt lat="50.22528" lon="2.56923">
        <ele>149.1416016</ele>
        <time>2013-04-21T07:55:35Z</time>
      </trkpt>
      <trkpt lat="50.22522" lon="2.56914">
        <ele>151.5449219</ele>
        <time>2013-04-21T07:55:39Z</time>
      </trkpt>
      <trkpt lat="50.22509" lon="2.56917">
        <ele>155.8709717</ele>
        <time>2013-04-21T07:55:44Z</time>
      </trkpt>
      <trkpt lat="50.22507" lon="2.56921">
        <ele>156.3515625</ele>
        <time>2013-04-21T07:55:45Z</time>
      </trkpt>
      <trkpt lat="50.22504" lon="2.56928">
        <ele>157.3128662</ele>
        <time>2013-04-21T07:55:47Z</time>
      </trkpt>
      <trkpt lat="50.22497" lon="2.56928">
        <ele>158.7547607</ele>
        <time>2013-04-21T07:55:51Z</time>
      </trkpt>
      <trkpt lat="50.22494" lon="2.56926">
        <ele>158.7547607</ele>
        <time>2013-04-21T07:55:53Z</time>
      </trkpt>
      <trkpt lat="50.22482" lon="2.56915">
        <ele>163.0808105</ele>
        <time>2013-04-21T07:55:58Z</time>
      </trkpt>
      <trkpt lat="50.22463" lon="2.56896">
        <ele>164.5227051</ele>
        <time>2013-04-21T07:56:04Z</time>
      </trkpt>
      <trkpt lat="50.22461" lon="2.56892">
        <ele>164.0421143</ele>
        <time>2013-04-21T07:56:05Z</time>
      </trkpt>
      <trkpt lat="50.22461" lon="2.56892">
        <ele>164.0421143</ele>
        <time>2013-04-21T07:56:05Z</time>
      </trkpt>
      <trkpt lat="50.22451" lon="2.56878">
        <ele>162.1195068</ele>
        <time>2013-04-21T07:56:09Z</time>
      </trkpt>
      <trkpt lat="50.22432" lon="2.56857">
        <ele>158.7547607</ele>
        <time>2013-04-21T07:56:15Z</time>
      </trkpt>
      <trkpt lat="50.22418" lon="2.56843">
        <ele>156.8321533</ele>
        <time>2013-04-21T07:56:20Z</time>
      </trkpt>
      <trkpt lat="50.22404" lon="2.56832">
        <ele>158.2741699</ele>
        <time>2013-04-21T07:56:25Z</time>
      </trkpt>
      <trkpt lat="50.22386" lon="2.56818">
        <ele>159.7161865</ele>
        <time>2013-04-21T07:56:31Z</time>
      </trkpt>
      <trkpt lat="50.22371" lon="2.56804">
        <ele>163.0808105</ele>
        <time>2013-04-21T07:56:36Z</time>
      </trkpt>
      <trkpt lat="50.22358" lon="2.56793">
        <ele>163.5615234</ele>
        <time>2013-04-21T07:56:41Z</time>
      </trkpt>
      <trkpt lat="50.22345" lon="2.56789">
        <ele>163.0808105</ele>
        <time>2013-04-21T07:56:46Z</time>
      </trkpt>
      <trkpt lat="50.22344" lon="2.56787">
        <ele>163.0808105</ele>
        <time>2013-04-21T07:56:47Z</time>
      </trkpt>
      <trkpt lat="50.22334" lon="2.56773">
        <ele>162.1195068</ele>
        <time>2013-04-21T07:56:52Z</time>
      </trkpt>
      <trkpt lat="50.22322" lon="2.56756">
        <ele>159.2354736</ele>
        <time>2013-04-21T07:56:57Z</time>
      </trkpt>
      <trkpt lat="50.22308" lon="2.56734">
        <ele>156.3515625</ele>
        <time>2013-04-21T07:57:02Z</time>
      </trkpt>
      <trkpt lat="50.22293" lon="2.56716">
        <ele>156.8321533</ele>
        <time>2013-04-21T07:57:07Z</time>
      </trkpt>
      <trkpt lat="50.2229" lon="2.56712">
        <ele>158.2741699</ele>
        <time>2013-04-21T07:57:08Z</time>
      </trkpt>
      <trkpt lat="50.2228" lon="2.56714">
        <ele>160.6774902</ele>
        <time>2013-04-21T07:57:13Z</time>
      </trkpt>
      <trkpt lat="50.22273" lon="2.56723">
        <ele>161.638916</ele>
        <time>2013-04-21T07:57:17Z</time>
      </trkpt>
      <trkpt lat="50.22272" lon="2.56725">
        <ele>162.6000977</ele>
        <time>2013-04-21T07:57:18Z</time>
      </trkpt>
      <trkpt lat="50.22258" lon="2.56747">
        <ele>165.9647217</ele>
        <time>2013-04-21T07:57:25Z</time>
      </trkpt>
      <trkpt lat="50.22248" lon="2.56767">
        <ele>168.8487549</ele>
        <time>2013-04-21T07:57:31Z</time>
      </trkpt>
      <trkpt lat="50.22243" lon="2.56774">
        <ele>170.2906494</ele>
        <time>2013-04-21T07:57:34Z</time>
      </trkpt>
      <trkpt lat="50.22236" lon="2.56791">
        <ele>169.8100586</ele>
        <time>2013-04-21T07:57:39Z</time>
      </trkpt>
      <trkpt lat="50.22221" lon="2.56824">
        <ele>174.6165771</ele>
        <time>2013-04-21T07:57:47Z</time>
      </trkpt>
      <trkpt lat="50.22211" lon="2.5685">
        <ele>177.0200195</ele>
        <time>2013-04-21T07:57:53Z</time>
      </trkpt>
      <trkpt lat="50.2221" lon="2.56873">
        <ele>172.2132568</ele>
        <time>2013-04-21T07:57:59Z</time>
      </trkpt>
      <trkpt lat="50.2221" lon="2.56895">
        <ele>169.3294678</ele>
        <time>2013-04-21T07:58:04Z</time>
      </trkpt>
      <trkpt lat="50.2221" lon="2.56903">
        <ele>167.4067383</ele>
        <time>2013-04-21T07:58:06Z</time>
      </trkpt>
      <trkpt lat="50.22224" lon="2.56931">
        <ele>164.5227051</ele>
        <time>2013-04-21T07:58:12Z</time>
      </trkpt>
      <trkpt lat="50.22236" lon="2.56951">
        <ele>163.0808105</ele>
        <time>2013-04-21T07:58:16Z</time>
      </trkpt>
      <trkpt lat="50.22244" lon="2.56965">
        <ele>163.5615234</ele>
        <time>2013-04-21T07:58:19Z</time>
      </trkpt>
      <trkpt lat="50.2226" lon="2.56992">
        <ele>164.0421143</ele>
        <time>2013-04-21T07:58:25Z</time>
      </trkpt>
      <trkpt lat="50.22275" lon="2.5702">
        <ele>162.1195068</ele>
        <time>2013-04-21T07:58:31Z</time>
      </trkpt>
      <trkpt lat="50.22291" lon="2.57046">
        <ele>162.1195068</ele>
        <time>2013-04-21T07:58:36Z</time>
      </trkpt>
      <trkpt lat="50.22297" lon="2.57055">
        <ele>162.1195068</ele>
        <time>2013-04-21T07:58:38Z</time>
      </trkpt>
      <trkpt lat="50.2231" lon="2.57078">
        <ele>163.0808105</ele>
        <time>2013-04-21T07:58:43Z</time>
      </trkpt>
      <trkpt lat="50.22329" lon="2.57112">
        <ele>162.6000977</ele>
        <time>2013-04-21T07:58:50Z</time>
      </trkpt>
      <trkpt lat="50.22349" lon="2.57146">
        <ele>162.1195068</ele>
        <time>2013-04-21T07:58:58Z</time>
      </trkpt>
      <trkpt lat="50.22358" lon="2.57162">
        <ele>163.0808105</ele>
        <time>2013-04-21T07:59:02Z</time>
      </trkpt>
      <trkpt lat="50.22374" lon="2.57191">
        <ele>164.0421143</ele>
        <time>2013-04-21T07:59:08Z</time>
      </trkpt>
      <trkpt lat="50.2238" lon="2.57203">
        <ele>163.5615234</ele>
        <time>2013-04-21T07:59:11Z</time>
      </trkpt>
      <trkpt lat="50.22376" lon="2.57217">
        <ele>165.4841309</ele>
        <time>2013-04-21T07:59:15Z</time>
      </trkpt>
      <trkpt lat="50.22368" lon="2.57224">
        <ele>165.9647217</ele>
        <time>2013-04-21T07:59:18Z</time>
      </trkpt>
      <trkpt lat="50.22346" lon="2.57248">
        <ele>164.5227051</ele>
        <time>2013-04-21T07:59:24Z</time>
      </trkpt>
      <trkpt lat="50.22317" lon="2.57283">
        <ele>174.6165771</ele>
        <time>2013-04-21T07:59:32Z</time>
      </trkpt>
      <trkpt lat="50.22303" lon="2.573">
        <ele>177.5006104</ele>
        <time>2013-04-21T07:59:36Z</time>
      </trkpt>
      <trkpt lat="50.22295" lon="2.5731">
        <ele>177.0200195</ele>
        <time>2013-04-21T07:59:38Z</time>
      </trkpt>
      <trkpt lat="50.22271" lon="2.57338">
        <ele>176.5393066</ele>
        <time>2013-04-21T07:59:43Z</time>
      </trkpt>
      <trkpt lat="50.22242" lon="2.57361">
        <ele>174.1358643</ele>
        <time>2013-04-21T07:59:48Z</time>
      </trkpt>
      <trkpt lat="50.22237" lon="2.57366">
        <ele>173.1746826</ele>
        <time>2013-04-21T07:59:49Z</time>
      </trkpt>
      <trkpt lat="50.22226" lon="2.57378">
        <ele>171.732666</ele>
        <time>2013-04-21T07:59:51Z</time>
      </trkpt>
      <trkpt lat="50.22209" lon="2.57421">
        <ele>165.003418</ele>
        <time>2013-04-21T07:59:56Z</time>
      </trkpt>
      <trkpt lat="50.22201" lon="2.57466">
        <ele>159.2354736</ele>
        <time>2013-04-21T08:00:00Z</time>
      </trkpt>
      <trkpt lat="50.22199" lon="2.57516">
        <ele>153.4676514</ele>
        <time>2013-04-21T08:00:04Z</time>
      </trkpt>
      <trkpt lat="50.22193" lon="2.57585">
        <ele>146.7384033</ele>
        <time>2013-04-21T08:00:10Z</time>
      </trkpt>
      <trkpt lat="50.2218" lon="2.57639">
        <ele>146.2578125</ele>
        <time>2013-04-21T08:00:16Z</time>
      </trkpt>
      <trkpt lat="50.22162" lon="2.57714">
        <ele>146.7384033</ele>
        <time>2013-04-21T08:00:25Z</time>
      </trkpt>
      <trkpt lat="50.22151" lon="2.5778">
        <ele>148.1804199</ele>
        <time>2013-04-21T08:00:33Z</time>
      </trkpt>
      <trkpt lat="50.22153" lon="2.57827">
        <ele>149.6223145</ele>
        <time>2013-04-21T08:00:39Z</time>
      </trkpt>
      <trkpt lat="50.22156" lon="2.57874">
        <ele>151.064209</ele>
        <time>2013-04-21T08:00:46Z</time>
      </trkpt>
      <trkpt lat="50.22151" lon="2.57926">
        <ele>152.5063477</ele>
        <time>2013-04-21T08:00:54Z</time>
      </trkpt>
      <trkpt lat="50.22135" lon="2.5798">
        <ele>153.9483643</ele>
        <time>2013-04-21T08:01:03Z</time>
      </trkpt>
      <trkpt lat="50.22114" lon="2.58033">
        <ele>154.9095459</ele>
        <time>2013-04-21T08:01:12Z</time>
      </trkpt>
      <trkpt lat="50.22094" lon="2.58081">
        <ele>155.3902588</ele>
        <time>2013-04-21T08:01:20Z</time>
      </trkpt>
      <trkpt lat="50.22071" lon="2.58137">
        <ele>154.9095459</ele>
        <time>2013-04-21T08:01:30Z</time>
      </trkpt>
      <trkpt lat="50.2204" lon="2.58219">
        <ele>152.0257568</ele>
        <time>2013-04-21T08:01:44Z</time>
      </trkpt>
      <trkpt lat="50.22017" lon="2.58286">
        <ele>151.5449219</ele>
        <time>2013-04-21T08:01:54Z</time>
      </trkpt>
      <trkpt lat="50.21997" lon="2.58353">
        <ele>152.0257568</ele>
        <time>2013-04-21T08:02:04Z</time>
      </trkpt>
      <trkpt lat="50.21981" lon="2.58408">
        <ele>153.9483643</ele>
        <time>2013-04-21T08:02:12Z</time>
      </trkpt>
      <trkpt lat="50.21975" lon="2.58435">
        <ele>155.8709717</ele>
        <time>2013-04-21T08:02:17Z</time>
      </trkpt>
      <trkpt lat="50.21973" lon="2.58452">
        <ele>156.3515625</ele>
        <time>2013-04-21T08:02:23Z</time>
      </trkpt>
      <trkpt lat="50.21968" lon="2.58476">
        <ele>156.3515625</ele>
        <time>2013-04-21T08:02:28Z</time>
      </trkpt>
      <trkpt lat="50.21963" lon="2.58517">
        <ele>155.8709717</ele>
        <time>2013-04-21T08:02:33Z</time>
      </trkpt>
      <trkpt lat="50.21956" lon="2.58579">
        <ele>156.8321533</ele>
        <time>2013-04-21T08:02:41Z</time>
      </trkpt>
      <trkpt lat="50.21948" lon="2.58617">
        <ele>157.3128662</ele>
        <time>2013-04-21T08:02:47Z</time>
      </trkpt>
      <trkpt lat="50.21935" lon="2.58658">
        <ele>157.7935791</ele>
        <time>2013-04-21T08:02:55Z</time>
      </trkpt>
      <trkpt lat="50.21931" lon="2.58671">
        <ele>157.3128662</ele>
        <time>2013-04-21T08:02:59Z</time>
      </trkpt>
      <trkpt lat="50.21929" lon="2.58676">
        <ele>157.3128662</ele>
        <time>2013-04-21T08:03:03Z</time>
      </trkpt>
      <trkpt lat="50.2193" lon="2.58677">
        <ele>157.3128662</ele>
        <time>2013-04-21T08:03:04Z</time>
      </trkpt>
      <trkpt lat="50.21927" lon="2.587">
        <ele>158.7547607</ele>
        <time>2013-04-21T08:08:00Z</time>
      </trkpt>
      <trkpt lat="50.21926" lon="2.58702">
        <ele>158.7547607</ele>
        <time>2013-04-21T08:08:01Z</time>
      </trkpt>
      <trkpt lat="50.21919" lon="2.58723">
        <ele>158.2741699</ele>
        <time>2013-04-21T08:08:06Z</time>
      </trkpt>
      <trkpt lat="50.21908" lon="2.58759">
        <ele>157.7935791</ele>
        <time>2013-04-21T08:08:13Z</time>
      </trkpt>
      <trkpt lat="50.21895" lon="2.58804">
        <ele>157.7935791</ele>
        <time>2013-04-21T08:08:18Z</time>
      </trkpt>
      <trkpt lat="50.21884" lon="2.58841">
        <ele>157.3128662</ele>
        <time>2013-04-21T08:08:22Z</time>
      </trkpt>
      <trkpt lat="50.21878" lon="2.5886">
        <ele>156.8321533</ele>
        <time>2013-04-21T08:08:24Z</time>
      </trkpt>
      <trkpt lat="50.21856" lon="2.58943">
        <ele>157.7935791</ele>
        <time>2013-04-21T08:08:32Z</time>
      </trkpt>
      <trkpt lat="50.21831" lon="2.59026">
        <ele>158.2741699</ele>
        <time>2013-04-21T08:08:40Z</time>
      </trkpt>
      <trkpt lat="50.21813" lon="2.59087">
        <ele>157.3128662</ele>
        <time>2013-04-21T08:08:46Z</time>
      </trkpt>
      <trkpt lat="50.21785" lon="2.5919">
        <ele>155.3902588</ele>
        <time>2013-04-21T08:08:56Z</time>
      </trkpt>
      <trkpt lat="50.21758" lon="2.59291">
        <ele>153.9483643</ele>
        <time>2013-04-21T08:09:06Z</time>
      </trkpt>
      <trkpt lat="50.21734" lon="2.59381">
        <ele>152.9869385</ele>
        <time>2013-04-21T08:09:15Z</time>
      </trkpt>
      <trkpt lat="50.21718" lon="2.59445">
        <ele>152.9869385</ele>
        <time>2013-04-21T08:09:22Z</time>
      </trkpt>
      <trkpt lat="50.21704" lon="2.59525">
        <ele>152.0257568</ele>
        <time>2013-04-21T08:09:31Z</time>
      </trkpt>
      <trkpt lat="50.21692" lon="2.59616">
        <ele>150.1030273</ele>
        <time>2013-04-21T08:09:41Z</time>
      </trkpt>
      <trkpt lat="50.21683" lon="2.59698">
        <ele>149.1416016</ele>
        <time>2013-04-21T08:09:50Z</time>
      </trkpt>
      <trkpt lat="50.21671" lon="2.598">
        <ele>147.2189941</ele>
        <time>2013-04-21T08:10:01Z</time>
      </trkpt>
      <trkpt lat="50.21669" lon="2.59815">
        <ele>146.7384033</ele>
        <time>2013-04-21T08:10:03Z</time>
      </trkpt>
      <trkpt lat="50.21662" lon="2.59816">
        <ele>145.2963867</ele>
        <time>2013-04-21T08:10:07Z</time>
      </trkpt>
      <trkpt lat="50.21661" lon="2.59805">
        <ele>143.8543701</ele>
        <time>2013-04-21T08:10:09Z</time>
      </trkpt>
      <trkpt lat="50.21651" lon="2.59752">
        <ele>141.9317627</ele>
        <time>2013-04-21T08:10:16Z</time>
      </trkpt>
      <trkpt lat="50.21646" lon="2.59727">
        <ele>141.4510498</ele>
        <time>2013-04-21T08:10:19Z</time>
      </trkpt>
      <trkpt lat="50.21636" lon="2.59678">
        <ele>141.4510498</ele>
        <time>2013-04-21T08:10:25Z</time>
      </trkpt>
      <trkpt lat="50.2162" lon="2.5961">
        <ele>141.4510498</ele>
        <time>2013-04-21T08:10:33Z</time>
      </trkpt>
      <trkpt lat="50.21609" lon="2.59558">
        <ele>141.4510498</ele>
        <time>2013-04-21T08:10:39Z</time>
      </trkpt>
      <trkpt lat="50.21594" lon="2.59491">
        <ele>140.970459</ele>
        <time>2013-04-21T08:10:46Z</time>
      </trkpt>
      <trkpt lat="50.21576" lon="2.59422">
        <ele>142.8930664</ele>
        <time>2013-04-21T08:10:54Z</time>
      </trkpt>
      <trkpt lat="50.21564" lon="2.59371">
        <ele>144.3352051</ele>
        <time>2013-04-21T08:11:01Z</time>
      </trkpt>
      <trkpt lat="50.2155" lon="2.59303">
        <ele>144.3352051</ele>
        <time>2013-04-21T08:11:10Z</time>
      </trkpt>
      <trkpt lat="50.21534" lon="2.59257">
        <ele>143.8543701</ele>
        <time>2013-04-21T08:11:16Z</time>
      </trkpt>
      <trkpt lat="50.21507" lon="2.59212">
        <ele>142.8930664</ele>
        <time>2013-04-21T08:11:22Z</time>
      </trkpt>
      <trkpt lat="50.21473" lon="2.59168">
        <ele>139.5284424</ele>
        <time>2013-04-21T08:11:28Z</time>
      </trkpt>
      <trkpt lat="50.21466" lon="2.5916">
        <ele>138.5672607</ele>
        <time>2013-04-21T08:11:29Z</time>
      </trkpt>
      <trkpt lat="50.21437" lon="2.59142">
        <ele>138.5672607</ele>
        <time>2013-04-21T08:11:33Z</time>
      </trkpt>
      <trkpt lat="50.21415" lon="2.59144">
        <ele>139.0478516</ele>
        <time>2013-04-21T08:11:36Z</time>
      </trkpt>
      <trkpt lat="50.2141" lon="2.59147">
        <ele>139.0478516</ele>
        <time>2013-04-21T08:11:37Z</time>
      </trkpt>
      <trkpt lat="50.21398" lon="2.59155">
        <ele>139.0478516</ele>
        <time>2013-04-21T08:11:41Z</time>
      </trkpt>
      <trkpt lat="50.21388" lon="2.59169">
        <ele>138.5672607</ele>
        <time>2013-04-21T08:11:45Z</time>
      </trkpt>
      <trkpt lat="50.21377" lon="2.59206">
        <ele>139.5284424</ele>
        <time>2013-04-21T08:11:50Z</time>
      </trkpt>
      <trkpt lat="50.21376" lon="2.59216">
        <ele>139.5284424</ele>
        <time>2013-04-21T08:11:51Z</time>
      </trkpt>
      <trkpt lat="50.21369" lon="2.59247">
        <ele>139.0478516</ele>
        <time>2013-04-21T08:11:54Z</time>
      </trkpt>
      <trkpt lat="50.21353" lon="2.5929">
        <ele>137.605835</ele>
        <time>2013-04-21T08:11:59Z</time>
      </trkpt>
      <trkpt lat="50.21345" lon="2.59302">
        <ele>137.605835</ele>
        <time>2013-04-21T08:12:01Z</time>
      </trkpt>
      <trkpt lat="50.21331" lon="2.5934">
        <ele>137.1252441</ele>
        <time>2013-04-21T08:12:06Z</time>
      </trkpt>
      <trkpt lat="50.21325" lon="2.59366">
        <ele>137.1252441</ele>
        <time>2013-04-21T08:12:10Z</time>
      </trkpt>
      <trkpt lat="50.21323" lon="2.59393">
        <ele>136.1639404</ele>
        <time>2013-04-21T08:12:15Z</time>
      </trkpt>
      <trkpt lat="50.21323" lon="2.59399">
        <ele>136.6446533</ele>
        <time>2013-04-21T08:12:16Z</time>
      </trkpt>
      <trkpt lat="50.21333" lon="2.5943">
        <ele>138.5672607</ele>
        <time>2013-04-21T08:12:21Z</time>
      </trkpt>
      <trkpt lat="50.2134" lon="2.59451">
        <ele>139.5284424</ele>
        <time>2013-04-21T08:12:24Z</time>
      </trkpt>
      <trkpt lat="50.21339" lon="2.59484">
        <ele>138.0865479</ele>
        <time>2013-04-21T08:12:29Z</time>
      </trkpt>
      <trkpt lat="50.21331" lon="2.5951">
        <ele>138.0865479</ele>
        <time>2013-04-21T08:12:33Z</time>
      </trkpt>
      <trkpt lat="50.21332" lon="2.59529">
        <ele>136.6446533</ele>
        <time>2013-04-21T08:12:36Z</time>
      </trkpt>
      <trkpt lat="50.21341" lon="2.59561">
        <ele>133.2799072</ele>
        <time>2013-04-21T08:12:41Z</time>
      </trkpt>
      <trkpt lat="50.21339" lon="2.59597">
        <ele>133.2799072</ele>
        <time>2013-04-21T08:12:46Z</time>
      </trkpt>
      <trkpt lat="50.21334" lon="2.59627">
        <ele>130.876709</ele>
        <time>2013-04-21T08:12:51Z</time>
      </trkpt>
      <trkpt lat="50.21325" lon="2.59649">
        <ele>129.4346924</ele>
        <time>2013-04-21T08:12:55Z</time>
      </trkpt>
      <trkpt lat="50.21323" lon="2.59656">
        <ele>129.4346924</ele>
        <time>2013-04-21T08:12:56Z</time>
      </trkpt>
      <trkpt lat="50.2132" lon="2.59668">
        <ele>127.5119629</ele>
        <time>2013-04-21T08:12:58Z</time>
      </trkpt>
      <trkpt lat="50.21316" lon="2.59687">
        <ele>128.9541016</ele>
        <time>2013-04-21T08:13:01Z</time>
      </trkpt>
      <trkpt lat="50.21319" lon="2.59715">
        <ele>128.9541016</ele>
        <time>2013-04-21T08:13:05Z</time>
      </trkpt>
      <trkpt lat="50.21322" lon="2.5975">
        <ele>127.5119629</ele>
        <time>2013-04-21T08:13:10Z</time>
      </trkpt>
      <trkpt lat="50.21325" lon="2.59782">
        <ele>124.6280518</ele>
        <time>2013-04-21T08:13:15Z</time>
      </trkpt>
      <trkpt lat="50.21328" lon="2.59799">
        <ele>124.6280518</ele>
        <time>2013-04-21T08:13:18Z</time>
      </trkpt>
      <trkpt lat="50.21328" lon="2.59836">
        <ele>125.1087646</ele>
        <time>2013-04-21T08:13:23Z</time>
      </trkpt>
      <trkpt lat="50.21328" lon="2.59843">
        <ele>124.1473389</ele>
        <time>2013-04-21T08:13:24Z</time>
      </trkpt>
      <trkpt lat="50.21327" lon="2.59872">
        <ele>122.7054443</ele>
        <time>2013-04-21T08:13:28Z</time>
      </trkpt>
      <trkpt lat="50.21324" lon="2.59899">
        <ele>123.666748</ele>
        <time>2013-04-21T08:13:32Z</time>
      </trkpt>
      <trkpt lat="50.21323" lon="2.59913">
        <ele>126.0699463</ele>
        <time>2013-04-21T08:13:34Z</time>
      </trkpt>
      <trkpt lat="50.21319" lon="2.59935">
        <ele>128.4733887</ele>
        <time>2013-04-21T08:13:37Z</time>
      </trkpt>
      <trkpt lat="50.21316" lon="2.59965">
        <ele>127.5119629</ele>
        <time>2013-04-21T08:13:41Z</time>
      </trkpt>
      <trkpt lat="50.21309" lon="2.59995">
        <ele>127.0313721</ele>
        <time>2013-04-21T08:13:45Z</time>
      </trkpt>
      <trkpt lat="50.21296" lon="2.60037">
        <ele>129.4346924</ele>
        <time>2013-04-21T08:13:51Z</time>
      </trkpt>
      <trkpt lat="50.21294" lon="2.60042">
        <ele>129.9152832</ele>
        <time>2013-04-21T08:13:52Z</time>
      </trkpt>
      <trkpt lat="50.21286" lon="2.60058">
        <ele>129.4346924</ele>
        <time>2013-04-21T08:13:55Z</time>
      </trkpt>
      <trkpt lat="50.21271" lon="2.60086">
        <ele>134.2412109</ele>
        <time>2013-04-21T08:14:01Z</time>
      </trkpt>
      <trkpt lat="50.21266" lon="2.60095">
        <ele>135.6831055</ele>
        <time>2013-04-21T08:14:03Z</time>
      </trkpt>
      <trkpt lat="50.21257" lon="2.60113">
        <ele>135.6831055</ele>
        <time>2013-04-21T08:14:08Z</time>
      </trkpt>
      <trkpt lat="50.21248" lon="2.60136">
        <ele>132.3186035</ele>
        <time>2013-04-21T08:14:13Z</time>
      </trkpt>
      <trkpt lat="50.21246" lon="2.6014">
        <ele>132.3186035</ele>
        <time>2013-04-21T08:14:14Z</time>
      </trkpt>
      <trkpt lat="50.21238" lon="2.60167">
        <ele>133.760498</ele>
        <time>2013-04-21T08:14:19Z</time>
      </trkpt>
      <trkpt lat="50.2123" lon="2.60182">
        <ele>132.7993164</ele>
        <time>2013-04-21T08:14:23Z</time>
      </trkpt>
      <trkpt lat="50.21221" lon="2.60181">
        <ele>131.8378906</ele>
        <time>2013-04-21T08:14:28Z</time>
      </trkpt>
      <trkpt lat="50.21216" lon="2.60176">
        <ele>131.8378906</ele>
        <time>2013-04-21T08:14:30Z</time>
      </trkpt>
      <trkpt lat="50.212" lon="2.6016">
        <ele>132.3186035</ele>
        <time>2013-04-21T08:14:37Z</time>
      </trkpt>
      <trkpt lat="50.21184" lon="2.60144">
        <ele>131.8378906</ele>
        <time>2013-04-21T08:14:44Z</time>
      </trkpt>
      <trkpt lat="50.21168" lon="2.60128">
        <ele>132.3186035</ele>
        <time>2013-04-21T08:14:51Z</time>
      </trkpt>
      <trkpt lat="50.21153" lon="2.60114">
        <ele>133.760498</ele>
        <time>2013-04-21T08:14:59Z</time>
      </trkpt>
      <trkpt lat="50.21138" lon="2.60098">
        <ele>136.1639404</ele>
        <time>2013-04-21T08:15:09Z</time>
      </trkpt>
      <trkpt lat="50.21128" lon="2.60084">
        <ele>136.6446533</ele>
        <time>2013-04-21T08:15:18Z</time>
      </trkpt>
      <trkpt lat="50.21115" lon="2.6007">
        <ele>137.605835</ele>
        <time>2013-04-21T08:15:28Z</time>
      </trkpt>
      <trkpt lat="50.21105" lon="2.60058">
        <ele>138.0865479</ele>
        <time>2013-04-21T08:15:37Z</time>
      </trkpt>
      <trkpt lat="50.21095" lon="2.60048">
        <ele>139.5284424</ele>
        <time>2013-04-21T08:15:45Z</time>
      </trkpt>
      <trkpt lat="50.21082" lon="2.60039">
        <ele>141.9317627</ele>
        <time>2013-04-21T08:15:54Z</time>
      </trkpt>
      <trkpt lat="50.2107" lon="2.60033">
        <ele>143.3736572</ele>
        <time>2013-04-21T08:16:02Z</time>
      </trkpt>
      <trkpt lat="50.21058" lon="2.60027">
        <ele>144.8157959</ele>
        <time>2013-04-21T08:16:11Z</time>
      </trkpt>
      <trkpt lat="50.21047" lon="2.60019">
        <ele>146.7384033</ele>
        <time>2013-04-21T08:16:19Z</time>
      </trkpt>
      <trkpt lat="50.2103" lon="2.60009">
        <ele>147.699707</ele>
        <time>2013-04-21T08:16:28Z</time>
      </trkpt>
      <trkpt lat="50.21012" lon="2.59998">
        <ele>149.6223145</ele>
        <time>2013-04-21T08:16:37Z</time>
      </trkpt>
      <trkpt lat="50.20994" lon="2.59988">
        <ele>151.5449219</ele>
        <time>2013-04-21T08:16:46Z</time>
      </trkpt>
      <trkpt lat="50.20973" lon="2.59976">
        <ele>153.9483643</ele>
        <time>2013-04-21T08:16:57Z</time>
      </trkpt>
      <trkpt lat="50.2097" lon="2.59983">
        <ele>154.9095459</ele>
        <time>2013-04-21T08:17:02Z</time>
      </trkpt>
      <trkpt lat="50.20975" lon="2.59994">
        <ele>154.9095459</ele>
        <time>2013-04-21T08:17:08Z</time>
      </trkpt>
      <trkpt lat="50.20982" lon="2.60012">
        <ele>154.4289551</ele>
        <time>2013-04-21T08:17:14Z</time>
      </trkpt>
      <trkpt lat="50.20995" lon="2.60039">
        <ele>153.4676514</ele>
        <time>2013-04-21T08:17:20Z</time>
      </trkpt>
      <trkpt lat="50.21015" lon="2.60077">
        <ele>151.5449219</ele>
        <time>2013-04-21T08:17:26Z</time>
      </trkpt>
      <trkpt lat="50.21041" lon="2.60123">
        <ele>149.1416016</ele>
        <time>2013-04-21T08:17:32Z</time>
      </trkpt>
      <trkpt lat="50.21075" lon="2.60175">
        <ele>146.7384033</ele>
        <time>2013-04-21T08:17:38Z</time>
      </trkpt>
      <trkpt lat="50.21119" lon="2.60248">
        <ele>141.4510498</ele>
        <time>2013-04-21T08:17:45Z</time>
      </trkpt>
      <trkpt lat="50.21154" lon="2.60324">
        <ele>138.0865479</ele>
        <time>2013-04-21T08:17:51Z</time>
      </trkpt>
      <trkpt lat="50.21176" lon="2.60379">
        <ele>136.1639404</ele>
        <time>2013-04-21T08:17:55Z</time>
      </trkpt>
      <trkpt lat="50.2121" lon="2.60461">
        <ele>132.7993164</ele>
        <time>2013-04-21T08:18:01Z</time>
      </trkpt>
      <trkpt lat="50.21246" lon="2.60551">
        <ele>130.876709</ele>
        <time>2013-04-21T08:18:08Z</time>
      </trkpt>
      <trkpt lat="50.21274" lon="2.60617">
        <ele>130.876709</ele>
        <time>2013-04-21T08:18:14Z</time>
      </trkpt>
      <trkpt lat="50.21301" lon="2.60683">
        <ele>130.876709</ele>
        <time>2013-04-21T08:18:21Z</time>
      </trkpt>
      <trkpt lat="50.21315" lon="2.60715">
        <ele>130.3959961</ele>
        <time>2013-04-21T08:18:25Z</time>
      </trkpt>
      <trkpt lat="50.21329" lon="2.60736">
        <ele>130.876709</ele>
        <time>2013-04-21T08:18:29Z</time>
      </trkpt>
      <trkpt lat="50.21336" lon="2.60733">
        <ele>130.876709</ele>
        <time>2013-04-21T08:18:31Z</time>
      </trkpt>
      <trkpt lat="50.21355" lon="2.6071">
        <ele>132.3186035</ele>
        <time>2013-04-21T08:18:38Z</time>
      </trkpt>
      <trkpt lat="50.21356" lon="2.60688">
        <ele>132.7993164</ele>
        <time>2013-04-21T08:18:42Z</time>
      </trkpt>
      <trkpt lat="50.21347" lon="2.60664">
        <ele>133.2799072</ele>
        <time>2013-04-21T08:18:46Z</time>
      </trkpt>
      <trkpt lat="50.21339" lon="2.60642">
        <ele>133.2799072</ele>
        <time>2013-04-21T08:18:49Z</time>
      </trkpt>
      <trkpt lat="50.21329" lon="2.60613">
        <ele>133.760498</ele>
        <time>2013-04-21T08:18:53Z</time>
      </trkpt>
      <trkpt lat="50.21314" lon="2.6057">
        <ele>133.760498</ele>
        <time>2013-04-21T08:18:59Z</time>
      </trkpt>
      <trkpt lat="50.21312" lon="2.60562">
        <ele>133.760498</ele>
        <time>2013-04-21T08:19:00Z</time>
      </trkpt>
      <trkpt lat="50.21308" lon="2.60509">
        <ele>133.760498</ele>
        <time>2013-04-21T08:19:07Z</time>
      </trkpt>
      <trkpt lat="50.21308" lon="2.60461">
        <ele>135.2025146</ele>
        <time>2013-04-21T08:19:14Z</time>
      </trkpt>
      <trkpt lat="50.21305" lon="2.60412">
        <ele>140.0091553</ele>
        <time>2013-04-21T08:19:21Z</time>
      </trkpt>
      <trkpt lat="50.21302" lon="2.60357">
        <ele>140.970459</ele>
        <time>2013-04-21T08:19:29Z</time>
      </trkpt>
      <trkpt lat="50.213" lon="2.60314">
        <ele>135.6831055</ele>
        <time>2013-04-21T08:19:36Z</time>
      </trkpt>
      <trkpt lat="50.21308" lon="2.60305">
        <ele>135.6831055</ele>
        <time>2013-04-21T08:19:40Z</time>
      </trkpt>
      <trkpt lat="50.21312" lon="2.60311">
        <ele>135.2025146</ele>
        <time>2013-04-21T08:19:42Z</time>
      </trkpt>
      <trkpt lat="50.2133" lon="2.60337">
        <ele>135.2025146</ele>
        <time>2013-04-21T08:19:49Z</time>
      </trkpt>
      <trkpt lat="50.21347" lon="2.60357">
        <ele>134.7219238</ele>
        <time>2013-04-21T08:19:55Z</time>
      </trkpt>
      <trkpt lat="50.21364" lon="2.60376">
        <ele>134.2412109</ele>
        <time>2013-04-21T08:20:01Z</time>
      </trkpt>
      <trkpt lat="50.21382" lon="2.60398">
        <ele>135.6831055</ele>
        <time>2013-04-21T08:20:08Z</time>
      </trkpt>
      <trkpt lat="50.21396" lon="2.60426">
        <ele>138.0865479</ele>
        <time>2013-04-21T08:20:15Z</time>
      </trkpt>
      <trkpt lat="50.21413" lon="2.60451">
        <ele>139.0478516</ele>
        <time>2013-04-21T08:20:22Z</time>
      </trkpt>
      <trkpt lat="50.21434" lon="2.60475">
        <ele>140.4898682</ele>
        <time>2013-04-21T08:20:29Z</time>
      </trkpt>
      <trkpt lat="50.21459" lon="2.60502">
        <ele>142.4124756</ele>
        <time>2013-04-21T08:20:39Z</time>
      </trkpt>
      <trkpt lat="50.21471" lon="2.60518">
        <ele>143.8543701</ele>
        <time>2013-04-21T08:20:45Z</time>
      </trkpt>
      <trkpt lat="50.215" lon="2.60554">
        <ele>144.8157959</ele>
        <time>2013-04-21T08:20:55Z</time>
      </trkpt>
      <trkpt lat="50.21525" lon="2.60586">
        <ele>145.2963867</ele>
        <time>2013-04-21T08:21:04Z</time>
      </trkpt>
      <trkpt lat="50.21539" lon="2.60609">
        <ele>146.2578125</ele>
        <time>2013-04-21T08:21:11Z</time>
      </trkpt>
      <trkpt lat="50.21558" lon="2.60637">
        <ele>146.7384033</ele>
        <time>2013-04-21T08:21:19Z</time>
      </trkpt>
      <trkpt lat="50.2156" lon="2.6064">
        <ele>146.7384033</ele>
        <time>2013-04-21T08:21:20Z</time>
      </trkpt>
      <trkpt lat="50.21557" lon="2.6065">
        <ele>147.2189941</ele>
        <time>2013-04-21T08:21:24Z</time>
      </trkpt>
      <trkpt lat="50.21537" lon="2.60659">
        <ele>146.2578125</ele>
        <time>2013-04-21T08:21:30Z</time>
      </trkpt>
      <trkpt lat="50.21505" lon="2.60683">
        <ele>143.8543701</ele>
        <time>2013-04-21T08:21:37Z</time>
      </trkpt>
      <trkpt lat="50.2146" lon="2.60722">
        <ele>139.5284424</ele>
        <time>2013-04-21T08:21:45Z</time>
      </trkpt>
      <trkpt lat="50.21429" lon="2.6077">
        <ele>136.6446533</ele>
        <time>2013-04-21T08:21:51Z</time>
      </trkpt>
      <trkpt lat="50.2142" lon="2.60787">
        <ele>135.6831055</ele>
        <time>2013-04-21T08:21:53Z</time>
      </trkpt>
      <trkpt lat="50.21406" lon="2.60834">
        <ele>134.7219238</ele>
        <time>2013-04-21T08:21:58Z</time>
      </trkpt>
      <trkpt lat="50.21405" lon="2.60843">
        <ele>135.2025146</ele>
        <time>2013-04-21T08:21:59Z</time>
      </trkpt>
      <trkpt lat="50.21404" lon="2.60858">
        <ele>135.2025146</ele>
        <time>2013-04-21T08:22:01Z</time>
      </trkpt>
      <trkpt lat="50.21393" lon="2.60906">
        <ele>135.6831055</ele>
        <time>2013-04-21T08:22:08Z</time>
      </trkpt>
      <trkpt lat="50.21379" lon="2.60956">
        <ele>135.6831055</ele>
        <time>2013-04-21T08:22:15Z</time>
      </trkpt>
      <trkpt lat="50.21376" lon="2.60964">
        <ele>135.6831055</ele>
        <time>2013-04-21T08:22:16Z</time>
      </trkpt>
      <trkpt lat="50.21373" lon="2.60986">
        <ele>135.6831055</ele>
        <time>2013-04-21T08:22:19Z</time>
      </trkpt>
      <trkpt lat="50.21374" lon="2.61033">
        <ele>135.6831055</ele>
        <time>2013-04-21T08:22:26Z</time>
      </trkpt>
      <trkpt lat="50.21384" lon="2.61066">
        <ele>135.2025146</ele>
        <time>2013-04-21T08:22:32Z</time>
      </trkpt>
      <trkpt lat="50.21397" lon="2.61117">
        <ele>135.6831055</ele>
        <time>2013-04-21T08:22:40Z</time>
      </trkpt>
      <trkpt lat="50.21408" lon="2.61162">
        <ele>134.7219238</ele>
        <time>2013-04-21T08:22:47Z</time>
      </trkpt>
      <trkpt lat="50.21411" lon="2.61175">
        <ele>134.2412109</ele>
        <time>2013-04-21T08:22:49Z</time>
      </trkpt>
      <trkpt lat="50.21421" lon="2.61205">
        <ele>134.2412109</ele>
        <time>2013-04-21T08:22:54Z</time>
      </trkpt>
      <trkpt lat="50.2143" lon="2.61227">
        <ele>133.760498</ele>
        <time>2013-04-21T08:22:58Z</time>
      </trkpt>
      <trkpt lat="50.21426" lon="2.61239">
        <ele>132.3186035</ele>
        <time>2013-04-21T08:23:02Z</time>
      </trkpt>
      <trkpt lat="50.21421" lon="2.61234">
        <ele>131.3572998</ele>
        <time>2013-04-21T08:23:04Z</time>
      </trkpt>
      <trkpt lat="50.21397" lon="2.61205">
        <ele>128.9541016</ele>
        <time>2013-04-21T08:23:11Z</time>
      </trkpt>
      <trkpt lat="50.21381" lon="2.61184">
        <ele>127.0313721</ele>
        <time>2013-04-21T08:23:15Z</time>
      </trkpt>
      <trkpt lat="50.2137" lon="2.61142">
        <ele>126.0699463</ele>
        <time>2013-04-21T08:23:21Z</time>
      </trkpt>
      <trkpt lat="50.21367" lon="2.61118">
        <ele>125.1087646</ele>
        <time>2013-04-21T08:23:24Z</time>
      </trkpt>
      <trkpt lat="50.21363" lon="2.61063">
        <ele>123.666748</ele>
        <time>2013-04-21T08:23:30Z</time>
      </trkpt>
      <trkpt lat="50.21359" lon="2.61002">
        <ele>119.8214111</ele>
        <time>2013-04-21T08:23:36Z</time>
      </trkpt>
      <trkpt lat="50.21357" lon="2.6099">
        <ele>119.3408203</ele>
        <time>2013-04-21T08:23:37Z</time>
      </trkpt>
      <trkpt lat="50.21339" lon="2.60944">
        <ele>118.8601074</ele>
        <time>2013-04-21T08:23:41Z</time>
      </trkpt>
      <trkpt lat="50.21324" lon="2.60928">
        <ele>118.8601074</ele>
        <time>2013-04-21T08:23:43Z</time>
      </trkpt>
      <trkpt lat="50.21261" lon="2.60884">
        <ele>121.2635498</ele>
        <time>2013-04-21T08:23:51Z</time>
      </trkpt>
      <trkpt lat="50.21234" lon="2.6086">
        <ele>122.7054443</ele>
        <time>2013-04-21T08:23:56Z</time>
      </trkpt>
      <trkpt lat="50.21216" lon="2.60844">
        <ele>123.666748</ele>
        <time>2013-04-21T08:24:00Z</time>
      </trkpt>
      <trkpt lat="50.21185" lon="2.60829">
        <ele>126.0699463</ele>
        <time>2013-04-21T08:24:07Z</time>
      </trkpt>
      <trkpt lat="50.21157" lon="2.60823">
        <ele>129.9152832</ele>
        <time>2013-04-21T08:24:13Z</time>
      </trkpt>
      <trkpt lat="50.21127" lon="2.60817">
        <ele>132.7993164</ele>
        <time>2013-04-21T08:24:20Z</time>
      </trkpt>
      <trkpt lat="50.21107" lon="2.60814">
        <ele>134.7219238</ele>
        <time>2013-04-21T08:24:25Z</time>
      </trkpt>
      <trkpt lat="50.21086" lon="2.60807">
        <ele>137.1252441</ele>
        <time>2013-04-21T08:24:31Z</time>
      </trkpt>
      <trkpt lat="50.21058" lon="2.60792">
        <ele>139.0478516</ele>
        <time>2013-04-21T08:24:40Z</time>
      </trkpt>
      <trkpt lat="50.21031" lon="2.60776">
        <ele>140.0091553</ele>
        <time>2013-04-21T08:24:50Z</time>
      </trkpt>
      <trkpt lat="50.21007" lon="2.60761">
        <ele>141.4510498</ele>
        <time>2013-04-21T08:24:58Z</time>
      </trkpt>
      <trkpt lat="50.20978" lon="2.60738">
        <ele>141.9317627</ele>
        <time>2013-04-21T08:25:08Z</time>
      </trkpt>
      <trkpt lat="50.20952" lon="2.60705">
        <ele>142.4124756</ele>
        <time>2013-04-21T08:25:17Z</time>
      </trkpt>
      <trkpt lat="50.20924" lon="2.60665">
        <ele>142.8930664</ele>
        <time>2013-04-21T08:25:26Z</time>
      </trkpt>
      <trkpt lat="50.20891" lon="2.60617">
        <ele>142.8930664</ele>
        <time>2013-04-21T08:25:35Z</time>
      </trkpt>
      <trkpt lat="50.20853" lon="2.60566">
        <ele>142.4124756</ele>
        <time>2013-04-21T08:25:45Z</time>
      </trkpt>
      <trkpt lat="50.2081" lon="2.60509">
        <ele>141.4510498</ele>
        <time>2013-04-21T08:25:55Z</time>
      </trkpt>
      <trkpt lat="50.20776" lon="2.60461">
        <ele>140.4898682</ele>
        <time>2013-04-21T08:26:03Z</time>
      </trkpt>
      <trkpt lat="50.20721" lon="2.60384">
        <ele>140.0091553</ele>
        <time>2013-04-21T08:26:15Z</time>
      </trkpt>
      <trkpt lat="50.20679" lon="2.60336">
        <ele>141.9317627</ele>
        <time>2013-04-21T08:26:24Z</time>
      </trkpt>
      <trkpt lat="50.20653" lon="2.603">
        <ele>144.3352051</ele>
        <time>2013-04-21T08:26:31Z</time>
      </trkpt>
      <trkpt lat="50.20634" lon="2.6026">
        <ele>146.7384033</ele>
        <time>2013-04-21T08:26:38Z</time>
      </trkpt>
      <trkpt lat="50.20615" lon="2.60215">
        <ele>147.699707</ele>
        <time>2013-04-21T08:26:45Z</time>
      </trkpt>
      <trkpt lat="50.20588" lon="2.60157">
        <ele>148.6610107</ele>
        <time>2013-04-21T08:26:55Z</time>
      </trkpt>
      <trkpt lat="50.20564" lon="2.60107">
        <ele>149.1416016</ele>
        <time>2013-04-21T08:27:05Z</time>
      </trkpt>
      <trkpt lat="50.20532" lon="2.60039">
        <ele>149.1416016</ele>
        <time>2013-04-21T08:27:19Z</time>
      </trkpt>
      <trkpt lat="50.20512" lon="2.59997">
        <ele>149.6223145</ele>
        <time>2013-04-21T08:27:28Z</time>
      </trkpt>
      <trkpt lat="50.20492" lon="2.5996">
        <ele>151.064209</ele>
        <time>2013-04-21T08:27:37Z</time>
      </trkpt>
      <trkpt lat="50.20473" lon="2.5993">
        <ele>151.5449219</ele>
        <time>2013-04-21T08:27:46Z</time>
      </trkpt>
      <trkpt lat="50.20446" lon="2.5989">
        <ele>152.0257568</ele>
        <time>2013-04-21T08:27:57Z</time>
      </trkpt>
      <trkpt lat="50.20422" lon="2.59855">
        <ele>152.5063477</ele>
        <time>2013-04-21T08:28:07Z</time>
      </trkpt>
      <trkpt lat="50.20407" lon="2.59834">
        <ele>152.9869385</ele>
        <time>2013-04-21T08:28:14Z</time>
      </trkpt>
      <trkpt lat="50.20394" lon="2.59814">
        <ele>153.4676514</ele>
        <time>2013-04-21T08:28:20Z</time>
      </trkpt>
      <trkpt lat="50.20374" lon="2.59783">
        <ele>153.4676514</ele>
        <time>2013-04-21T08:28:29Z</time>
      </trkpt>
      <trkpt lat="50.20351" lon="2.59747">
        <ele>153.4676514</ele>
        <time>2013-04-21T08:28:41Z</time>
      </trkpt>
      <trkpt lat="50.20333" lon="2.59719">
        <ele>154.4289551</ele>
        <time>2013-04-21T08:28:50Z</time>
      </trkpt>
      <trkpt lat="50.20303" lon="2.59673">
        <ele>154.4289551</ele>
        <time>2013-04-21T08:29:03Z</time>
      </trkpt>
      <trkpt lat="50.20287" lon="2.5965">
        <ele>154.9095459</ele>
        <time>2013-04-21T08:29:11Z</time>
      </trkpt>
      <trkpt lat="50.20275" lon="2.59629">
        <ele>154.9095459</ele>
        <time>2013-04-21T08:29:17Z</time>
      </trkpt>
      <trkpt lat="50.20249" lon="2.59592">
        <ele>155.8709717</ele>
        <time>2013-04-21T08:29:26Z</time>
      </trkpt>
      <trkpt lat="50.20224" lon="2.59556">
        <ele>157.3128662</ele>
        <time>2013-04-21T08:29:35Z</time>
      </trkpt>
      <trkpt lat="50.20193" lon="2.59511">
        <ele>158.2741699</ele>
        <time>2013-04-21T08:29:46Z</time>
      </trkpt>
      <trkpt lat="50.20184" lon="2.59517">
        <ele>158.7547607</ele>
        <time>2013-04-21T08:29:50Z</time>
      </trkpt>
      <trkpt lat="50.20182" lon="2.59535">
        <ele>159.7161865</ele>
        <time>2013-04-21T08:29:53Z</time>
      </trkpt>
      <trkpt lat="50.2017" lon="2.59598">
        <ele>158.2741699</ele>
        <time>2013-04-21T08:30:01Z</time>
      </trkpt>
      <trkpt lat="50.20151" lon="2.59686">
        <ele>156.8321533</ele>
        <time>2013-04-21T08:30:11Z</time>
      </trkpt>
      <trkpt lat="50.20136" lon="2.59751">
        <ele>155.3902588</ele>
        <time>2013-04-21T08:30:19Z</time>
      </trkpt>
      <trkpt lat="50.20114" lon="2.59829">
        <ele>156.3515625</ele>
        <time>2013-04-21T08:30:28Z</time>
      </trkpt>
      <trkpt lat="50.20098" lon="2.59899">
        <ele>154.9095459</ele>
        <time>2013-04-21T08:30:36Z</time>
      </trkpt>
      <trkpt lat="50.20083" lon="2.59977">
        <ele>153.9483643</ele>
        <time>2013-04-21T08:30:45Z</time>
      </trkpt>
      <trkpt lat="50.20068" lon="2.60053">
        <ele>151.5449219</ele>
        <time>2013-04-21T08:30:53Z</time>
      </trkpt>
      <trkpt lat="50.20049" lon="2.6015">
        <ele>149.6223145</ele>
        <time>2013-04-21T08:31:03Z</time>
      </trkpt>
      <trkpt lat="50.20034" lon="2.60241">
        <ele>147.2189941</ele>
        <time>2013-04-21T08:31:13Z</time>
      </trkpt>
      <trkpt lat="50.20026" lon="2.60294">
        <ele>145.2963867</ele>
        <time>2013-04-21T08:31:18Z</time>
      </trkpt>
      <trkpt lat="50.20025" lon="2.60325">
        <ele>142.8930664</ele>
        <time>2013-04-21T08:31:21Z</time>
      </trkpt>
      <trkpt lat="50.2002" lon="2.60355">
        <ele>140.4898682</ele>
        <time>2013-04-21T08:31:23Z</time>
      </trkpt>
      <trkpt lat="50.19999" lon="2.60438">
        <ele>133.760498</ele>
        <time>2013-04-21T08:31:30Z</time>
      </trkpt>
      <trkpt lat="50.19996" lon="2.60458">
        <ele>132.3186035</ele>
        <time>2013-04-21T08:31:32Z</time>
      </trkpt>
      <trkpt lat="50.19997" lon="2.60493">
        <ele>132.3186035</ele>
        <time>2013-04-21T08:31:36Z</time>
      </trkpt>
      <trkpt lat="50.20002" lon="2.60508">
        <ele>132.3186035</ele>
        <time>2013-04-21T08:31:38Z</time>
      </trkpt>
      <trkpt lat="50.20007" lon="2.60525">
        <ele>133.2799072</ele>
        <time>2013-04-21T08:31:41Z</time>
      </trkpt>
      <trkpt lat="50.20011" lon="2.60545">
        <ele>132.7993164</ele>
        <time>2013-04-21T08:31:45Z</time>
      </trkpt>
      <trkpt lat="50.20014" lon="2.60561">
        <ele>133.2799072</ele>
        <time>2013-04-21T08:31:50Z</time>
      </trkpt>
      <trkpt lat="50.20021" lon="2.60564">
        <ele>135.6831055</ele>
        <time>2013-04-21T08:31:52Z</time>
      </trkpt>
      <trkpt lat="50.20036" lon="2.60582">
        <ele>136.6446533</ele>
        <time>2013-04-21T08:31:59Z</time>
      </trkpt>
      <trkpt lat="50.2005" lon="2.60596">
        <ele>139.0478516</ele>
        <time>2013-04-21T08:32:03Z</time>
      </trkpt>
      <trkpt lat="50.20066" lon="2.60612">
        <ele>141.9317627</ele>
        <time>2013-04-21T08:32:08Z</time>
      </trkpt>
      <trkpt lat="50.20069" lon="2.60615">
        <ele>143.3736572</ele>
        <time>2013-04-21T08:32:09Z</time>
      </trkpt>
      <trkpt lat="50.20086" lon="2.60618">
        <ele>144.3352051</ele>
        <time>2013-04-21T08:32:13Z</time>
      </trkpt>
      <trkpt lat="50.20091" lon="2.60619">
        <ele>144.3352051</ele>
        <time>2013-04-21T08:32:14Z</time>
      </trkpt>
      <trkpt lat="50.20114" lon="2.60627">
        <ele>143.8543701</ele>
        <time>2013-04-21T08:32:18Z</time>
      </trkpt>
      <trkpt lat="50.20125" lon="2.60642">
        <ele>141.9317627</ele>
        <time>2013-04-21T08:32:22Z</time>
      </trkpt>
      <trkpt lat="50.20131" lon="2.60651">
        <ele>140.0091553</ele>
        <time>2013-04-21T08:32:25Z</time>
      </trkpt>
      <trkpt lat="50.20135" lon="2.60662">
        <ele>139.5284424</ele>
        <time>2013-04-21T08:32:27Z</time>
      </trkpt>
      <trkpt lat="50.2015" lon="2.60677">
        <ele>138.0865479</ele>
        <time>2013-04-21T08:32:32Z</time>
      </trkpt>
      <trkpt lat="50.2017" lon="2.60686">
        <ele>138.0865479</ele>
        <time>2013-04-21T08:32:37Z</time>
      </trkpt>
      <trkpt lat="50.20177" lon="2.60691">
        <ele>136.6446533</ele>
        <time>2013-04-21T08:32:39Z</time>
      </trkpt>
      <trkpt lat="50.20193" lon="2.60707">
        <ele>131.8378906</ele>
        <time>2013-04-21T08:32:43Z</time>
      </trkpt>
      <trkpt lat="50.20211" lon="2.60727">
        <ele>127.5119629</ele>
        <time>2013-04-21T08:32:48Z</time>
      </trkpt>
      <trkpt lat="50.20227" lon="2.60736">
        <ele>125.1087646</ele>
        <time>2013-04-21T08:32:52Z</time>
      </trkpt>
      <trkpt lat="50.20255" lon="2.60748">
        <ele>125.5893555</ele>
        <time>2013-04-21T08:32:57Z</time>
      </trkpt>
      <trkpt lat="50.20285" lon="2.60767">
        <ele>118.8601074</ele>
        <time>2013-04-21T08:33:03Z</time>
      </trkpt>
      <trkpt lat="50.20298" lon="2.60774">
        <ele>115.9761963</ele>
        <time>2013-04-21T08:33:06Z</time>
      </trkpt>
      <trkpt lat="50.20315" lon="2.60782">
        <ele>113.572998</ele>
        <time>2013-04-21T08:33:10Z</time>
      </trkpt>
      <trkpt lat="50.20335" lon="2.6079">
        <ele>110.208252</ele>
        <time>2013-04-21T08:33:14Z</time>
      </trkpt>
      <trkpt lat="50.20358" lon="2.60792">
        <ele>111.1695557</ele>
        <time>2013-04-21T08:33:19Z</time>
      </trkpt>
      <trkpt lat="50.20379" lon="2.60792">
        <ele>114.5341797</ele>
        <time>2013-04-21T08:33:23Z</time>
      </trkpt>
      <trkpt lat="50.204" lon="2.60799">
        <ele>115.0148926</ele>
        <time>2013-04-21T08:33:28Z</time>
      </trkpt>
      <trkpt lat="50.20414" lon="2.60804">
        <ele>115.4956055</ele>
        <time>2013-04-21T08:33:31Z</time>
      </trkpt>
      <trkpt lat="50.20431" lon="2.60814">
        <ele>116.4567871</ele>
        <time>2013-04-21T08:33:35Z</time>
      </trkpt>
      <trkpt lat="50.20448" lon="2.60828">
        <ele>113.572998</ele>
        <time>2013-04-21T08:33:40Z</time>
      </trkpt>
      <trkpt lat="50.20453" lon="2.60832">
        <ele>113.0922852</ele>
        <time>2013-04-21T08:33:41Z</time>
      </trkpt>
      <trkpt lat="50.20465" lon="2.60853">
        <ele>110.208252</ele>
        <time>2013-04-21T08:33:47Z</time>
      </trkpt>
      <trkpt lat="50.20478" lon="2.60863">
        <ele>110.208252</ele>
        <time>2013-04-21T08:33:52Z</time>
      </trkpt>
      <trkpt lat="50.20481" lon="2.60864">
        <ele>109.2469482</ele>
        <time>2013-04-21T08:33:53Z</time>
      </trkpt>
      <trkpt lat="50.20499" lon="2.60875">
        <ele>108.2856445</ele>
        <time>2013-04-21T08:33:57Z</time>
      </trkpt>
      <trkpt lat="50.20526" lon="2.60889">
        <ele>109.7276611</ele>
        <time>2013-04-21T08:34:02Z</time>
      </trkpt>
      <trkpt lat="50.20546" lon="2.60899">
        <ele>110.6888428</ele>
        <time>2013-04-21T08:34:06Z</time>
      </trkpt>
      <trkpt lat="50.20573" lon="2.60912">
        <ele>110.6888428</ele>
        <time>2013-04-21T08:34:11Z</time>
      </trkpt>
      <trkpt lat="50.20596" lon="2.60923">
        <ele>110.6888428</ele>
        <time>2013-04-21T08:34:15Z</time>
      </trkpt>
      <trkpt lat="50.20608" lon="2.60935">
        <ele>114.0535889</ele>
        <time>2013-04-21T08:34:18Z</time>
      </trkpt>
      <trkpt lat="50.20613" lon="2.60944">
        <ele>114.0535889</ele>
        <time>2013-04-21T08:34:20Z</time>
      </trkpt>
      <trkpt lat="50.20619" lon="2.60951">
        <ele>113.572998</ele>
        <time>2013-04-21T08:34:22Z</time>
      </trkpt>
      <trkpt lat="50.20636" lon="2.60961">
        <ele>116.9375</ele>
        <time>2013-04-21T08:34:26Z</time>
      </trkpt>
      <trkpt lat="50.20663" lon="2.60974">
        <ele>119.3408203</ele>
        <time>2013-04-21T08:34:33Z</time>
      </trkpt>
      <trkpt lat="50.20679" lon="2.60986">
        <ele>118.3793945</ele>
        <time>2013-04-21T08:34:37Z</time>
      </trkpt>
      <trkpt lat="50.20687" lon="2.60992">
        <ele>119.3408203</ele>
        <time>2013-04-21T08:34:39Z</time>
      </trkpt>
      <trkpt lat="50.20709" lon="2.61018">
        <ele>124.1473389</ele>
        <time>2013-04-21T08:34:46Z</time>
      </trkpt>
      <trkpt lat="50.20721" lon="2.61032">
        <ele>124.6280518</ele>
        <time>2013-04-21T08:34:52Z</time>
      </trkpt>
      <trkpt lat="50.20731" lon="2.61042">
        <ele>123.666748</ele>
        <time>2013-04-21T08:34:56Z</time>
      </trkpt>
      <trkpt lat="50.20746" lon="2.61054">
        <ele>123.666748</ele>
        <time>2013-04-21T08:35:01Z</time>
      </trkpt>
      <trkpt lat="50.20762" lon="2.61064">
        <ele>123.1861572</ele>
        <time>2013-04-21T08:35:06Z</time>
      </trkpt>
      <trkpt lat="50.20784" lon="2.61074">
        <ele>122.7054443</ele>
        <time>2013-04-21T08:35:12Z</time>
      </trkpt>
      <trkpt lat="50.20811" lon="2.61084">
        <ele>123.666748</ele>
        <time>2013-04-21T08:35:19Z</time>
      </trkpt>
      <trkpt lat="50.20831" lon="2.61089">
        <ele>124.1473389</ele>
        <time>2013-04-21T08:35:25Z</time>
      </trkpt>
      <trkpt lat="50.20857" lon="2.61092">
        <ele>125.1087646</ele>
        <time>2013-04-21T08:35:32Z</time>
      </trkpt>
      <trkpt lat="50.20878" lon="2.61102">
        <ele>126.0699463</ele>
        <time>2013-04-21T08:35:37Z</time>
      </trkpt>
      <trkpt lat="50.2091" lon="2.61134">
        <ele>125.5893555</ele>
        <time>2013-04-21T08:35:44Z</time>
      </trkpt>
      <trkpt lat="50.20946" lon="2.61168">
        <ele>124.6280518</ele>
        <time>2013-04-21T08:35:51Z</time>
      </trkpt>
      <trkpt lat="50.20981" lon="2.61204">
        <ele>123.666748</ele>
        <time>2013-04-21T08:35:58Z</time>
      </trkpt>
      <trkpt lat="50.20999" lon="2.61236">
        <ele>124.1473389</ele>
        <time>2013-04-21T08:36:03Z</time>
      </trkpt>
      <trkpt lat="50.21008" lon="2.61276">
        <ele>124.1473389</ele>
        <time>2013-04-21T08:36:08Z</time>
      </trkpt>
      <trkpt lat="50.21029" lon="2.61345">
        <ele>122.7054443</ele>
        <time>2013-04-21T08:36:16Z</time>
      </trkpt>
      <trkpt lat="50.21052" lon="2.61395">
        <ele>122.7054443</ele>
        <time>2013-04-21T08:36:23Z</time>
      </trkpt>
      <trkpt lat="50.21069" lon="2.61426">
        <ele>122.7054443</ele>
        <time>2013-04-21T08:36:28Z</time>
      </trkpt>
      <trkpt lat="50.21093" lon="2.61475">
        <ele>121.7441406</ele>
        <time>2013-04-21T08:36:35Z</time>
      </trkpt>
      <trkpt lat="50.21122" lon="2.61534">
        <ele>121.7441406</ele>
        <time>2013-04-21T08:36:43Z</time>
      </trkpt>
      <trkpt lat="50.21146" lon="2.61567">
        <ele>122.7054443</ele>
        <time>2013-04-21T08:36:48Z</time>
      </trkpt>
      <trkpt lat="50.21182" lon="2.61588">
        <ele>120.302124</ele>
        <time>2013-04-21T08:36:53Z</time>
      </trkpt>
      <trkpt lat="50.21214" lon="2.61599">
        <ele>119.3408203</ele>
        <time>2013-04-21T08:36:58Z</time>
      </trkpt>
      <trkpt lat="50.21225" lon="2.61612">
        <ele>120.302124</ele>
        <time>2013-04-21T08:37:02Z</time>
      </trkpt>
      <trkpt lat="50.21223" lon="2.61627">
        <ele>119.8214111</ele>
        <time>2013-04-21T08:37:04Z</time>
      </trkpt>
      <trkpt lat="50.21219" lon="2.61645">
        <ele>119.8214111</ele>
        <time>2013-04-21T08:37:06Z</time>
      </trkpt>
      <trkpt lat="50.21218" lon="2.61717">
        <ele>115.9761963</ele>
        <time>2013-04-21T08:37:13Z</time>
      </trkpt>
      <trkpt lat="50.2122" lon="2.61788">
        <ele>111.1695557</ele>
        <time>2013-04-21T08:37:20Z</time>
      </trkpt>
      <trkpt lat="50.21231" lon="2.61854">
        <ele>108.7662354</ele>
        <time>2013-04-21T08:37:27Z</time>
      </trkpt>
      <trkpt lat="50.21253" lon="2.61932">
        <ele>111.6502686</ele>
        <time>2013-04-21T08:37:36Z</time>
      </trkpt>
      <trkpt lat="50.21257" lon="2.61948">
        <ele>112.1309814</ele>
        <time>2013-04-21T08:37:38Z</time>
      </trkpt>
      <trkpt lat="50.21253" lon="2.61981">
        <ele>111.6502686</ele>
        <time>2013-04-21T08:37:42Z</time>
      </trkpt>
      <trkpt lat="50.21244" lon="2.61991">
        <ele>112.1309814</ele>
        <time>2013-04-21T08:37:44Z</time>
      </trkpt>
      <trkpt lat="50.21199" lon="2.62016">
        <ele>113.0922852</ele>
        <time>2013-04-21T08:37:52Z</time>
      </trkpt>
      <trkpt lat="50.21177" lon="2.62023">
        <ele>113.0922852</ele>
        <time>2013-04-21T08:37:56Z</time>
      </trkpt>
      <trkpt lat="50.21168" lon="2.62044">
        <ele>115.0148926</ele>
        <time>2013-04-21T08:38:00Z</time>
      </trkpt>
      <trkpt lat="50.21172" lon="2.62057">
        <ele>116.4567871</ele>
        <time>2013-04-21T08:38:03Z</time>
      </trkpt>
      <trkpt lat="50.21189" lon="2.62084">
        <ele>118.3793945</ele>
        <time>2013-04-21T08:38:09Z</time>
      </trkpt>
      <trkpt lat="50.2121" lon="2.62129">
        <ele>120.7828369</ele>
        <time>2013-04-21T08:38:16Z</time>
      </trkpt>
      <trkpt lat="50.21229" lon="2.62174">
        <ele>119.3408203</ele>
        <time>2013-04-21T08:38:23Z</time>
      </trkpt>
      <trkpt lat="50.21245" lon="2.62204">
        <ele>118.8601074</ele>
        <time>2013-04-21T08:38:28Z</time>
      </trkpt>
      <trkpt lat="50.21275" lon="2.62265">
        <ele>116.9375</ele>
        <time>2013-04-21T08:38:37Z</time>
      </trkpt>
      <trkpt lat="50.21273" lon="2.62293">
        <ele>116.4567871</ele>
        <time>2013-04-21T08:38:41Z</time>
      </trkpt>
      <trkpt lat="50.21267" lon="2.62301">
        <ele>116.9375</ele>
        <time>2013-04-21T08:38:43Z</time>
      </trkpt>
      <trkpt lat="50.21247" lon="2.62321">
        <ele>119.3408203</ele>
        <time>2013-04-21T08:38:49Z</time>
      </trkpt>
      <trkpt lat="50.21237" lon="2.62338">
        <ele>121.2635498</ele>
        <time>2013-04-21T08:38:54Z</time>
      </trkpt>
      <trkpt lat="50.21243" lon="2.62356">
        <ele>122.7054443</ele>
        <time>2013-04-21T08:38:59Z</time>
      </trkpt>
      <trkpt lat="50.21246" lon="2.62359">
        <ele>123.1861572</ele>
        <time>2013-04-21T08:39:00Z</time>
      </trkpt>
      <trkpt lat="50.21271" lon="2.62402">
        <ele>124.6280518</ele>
        <time>2013-04-21T08:39:08Z</time>
      </trkpt>
      <trkpt lat="50.21295" lon="2.62444">
        <ele>127.5119629</ele>
        <time>2013-04-21T08:39:16Z</time>
      </trkpt>
      <trkpt lat="50.21318" lon="2.62493">
        <ele>128.9541016</ele>
        <time>2013-04-21T08:39:26Z</time>
      </trkpt>
      <trkpt lat="50.21344" lon="2.62539">
        <ele>130.876709</ele>
        <time>2013-04-21T08:39:36Z</time>
      </trkpt>
      <trkpt lat="50.21368" lon="2.62576">
        <ele>131.3572998</ele>
        <time>2013-04-21T08:39:44Z</time>
      </trkpt>
      <trkpt lat="50.21396" lon="2.62625">
        <ele>132.3186035</ele>
        <time>2013-04-21T08:39:54Z</time>
      </trkpt>
      <trkpt lat="50.2142" lon="2.62667">
        <ele>134.2412109</ele>
        <time>2013-04-21T08:40:03Z</time>
      </trkpt>
      <trkpt lat="50.21437" lon="2.62694">
        <ele>136.1639404</ele>
        <time>2013-04-21T08:40:09Z</time>
      </trkpt>
      <trkpt lat="50.21456" lon="2.62727">
        <ele>135.6831055</ele>
        <time>2013-04-21T08:40:16Z</time>
      </trkpt>
      <trkpt lat="50.2148" lon="2.62769">
        <ele>137.1252441</ele>
        <time>2013-04-21T08:40:25Z</time>
      </trkpt>
      <trkpt lat="50.21501" lon="2.62804">
        <ele>136.6446533</ele>
        <time>2013-04-21T08:40:33Z</time>
      </trkpt>
      <trkpt lat="50.21514" lon="2.62826">
        <ele>136.6446533</ele>
        <time>2013-04-21T08:40:37Z</time>
      </trkpt>
      <trkpt lat="50.21539" lon="2.62875">
        <ele>135.2025146</ele>
        <time>2013-04-21T08:40:47Z</time>
      </trkpt>
      <trkpt lat="50.21554" lon="2.62888">
        <ele>134.7219238</ele>
        <time>2013-04-21T08:40:51Z</time>
      </trkpt>
      <trkpt lat="50.21569" lon="2.62878">
        <ele>133.760498</ele>
        <time>2013-04-21T08:40:54Z</time>
      </trkpt>
      <trkpt lat="50.21584" lon="2.62871">
        <ele>131.8378906</ele>
        <time>2013-04-21T08:40:57Z</time>
      </trkpt>
      <trkpt lat="50.21595" lon="2.62881">
        <ele>130.876709</ele>
        <time>2013-04-21T08:41:00Z</time>
      </trkpt>
      <trkpt lat="50.21619" lon="2.62939">
        <ele>132.3186035</ele>
        <time>2013-04-21T08:41:09Z</time>
      </trkpt>
      <trkpt lat="50.21633" lon="2.6297">
        <ele>133.2799072</ele>
        <time>2013-04-21T08:41:14Z</time>
      </trkpt>
      <trkpt lat="50.21652" lon="2.63014">
        <ele>134.7219238</ele>
        <time>2013-04-21T08:41:21Z</time>
      </trkpt>
      <trkpt lat="50.2166" lon="2.63036">
        <ele>135.6831055</ele>
        <time>2013-04-21T08:41:25Z</time>
      </trkpt>
      <trkpt lat="50.21658" lon="2.63054">
        <ele>136.6446533</ele>
        <time>2013-04-21T08:41:30Z</time>
      </trkpt>
      <trkpt lat="50.21656" lon="2.63055">
        <ele>136.6446533</ele>
        <time>2013-04-21T08:41:31Z</time>
      </trkpt>
      <trkpt lat="50.21648" lon="2.63048">
        <ele>137.1252441</ele>
        <time>2013-04-21T08:41:37Z</time>
      </trkpt>
      <trkpt lat="50.21635" lon="2.63043">
        <ele>137.1252441</ele>
        <time>2013-04-21T08:41:43Z</time>
      </trkpt>
      <trkpt lat="50.21624" lon="2.6304">
        <ele>135.6831055</ele>
        <time>2013-04-21T08:41:48Z</time>
      </trkpt>
      <trkpt lat="50.21608" lon="2.63041">
        <ele>135.2025146</ele>
        <time>2013-04-21T08:41:54Z</time>
      </trkpt>
      <trkpt lat="50.21596" lon="2.63042">
        <ele>136.1639404</ele>
        <time>2013-04-21T08:41:59Z</time>
      </trkpt>
      <trkpt lat="50.21583" lon="2.63043">
        <ele>133.760498</ele>
        <time>2013-04-21T08:42:05Z</time>
      </trkpt>
      <trkpt lat="50.21567" lon="2.63046">
        <ele>134.2412109</ele>
        <time>2013-04-21T08:42:12Z</time>
      </trkpt>
      <trkpt lat="50.2155" lon="2.63045">
        <ele>133.760498</ele>
        <time>2013-04-21T08:42:19Z</time>
      </trkpt>
      <trkpt lat="50.21534" lon="2.63046">
        <ele>132.3186035</ele>
        <time>2013-04-21T08:42:25Z</time>
      </trkpt>
      <trkpt lat="50.21514" lon="2.63049">
        <ele>134.2412109</ele>
        <time>2013-04-21T08:42:33Z</time>
      </trkpt>
      <trkpt lat="50.21491" lon="2.63059">
        <ele>138.0865479</ele>
        <time>2013-04-21T08:42:42Z</time>
      </trkpt>
      <trkpt lat="50.21464" lon="2.63069">
        <ele>141.9317627</ele>
        <time>2013-04-21T08:42:52Z</time>
      </trkpt>
      <trkpt lat="50.21437" lon="2.63075">
        <ele>144.8157959</ele>
        <time>2013-04-21T08:43:03Z</time>
      </trkpt>
      <trkpt lat="50.21425" lon="2.63077">
        <ele>145.7770996</ele>
        <time>2013-04-21T08:43:08Z</time>
      </trkpt>
      <trkpt lat="50.21421" lon="2.63091">
        <ele>146.7384033</ele>
        <time>2013-04-21T08:43:12Z</time>
      </trkpt>
      <trkpt lat="50.21422" lon="2.63101">
        <ele>147.2189941</ele>
        <time>2013-04-21T08:43:14Z</time>
      </trkpt>
      <trkpt lat="50.21436" lon="2.63151">
        <ele>149.6223145</ele>
        <time>2013-04-21T08:43:23Z</time>
      </trkpt>
      <trkpt lat="50.21449" lon="2.63189">
        <ele>150.1030273</ele>
        <time>2013-04-21T08:43:30Z</time>
      </trkpt>
      <trkpt lat="50.2147" lon="2.63251">
        <ele>152.0257568</ele>
        <time>2013-04-21T08:43:40Z</time>
      </trkpt>
      <trkpt lat="50.2149" lon="2.6331">
        <ele>152.9869385</ele>
        <time>2013-04-21T08:43:49Z</time>
      </trkpt>
      <trkpt lat="50.21512" lon="2.63377">
        <ele>150.5836182</ele>
        <time>2013-04-21T08:43:59Z</time>
      </trkpt>
      <trkpt lat="50.21529" lon="2.63429">
        <ele>151.064209</ele>
        <time>2013-04-21T08:44:07Z</time>
      </trkpt>
      <trkpt lat="50.21551" lon="2.63497">
        <ele>147.699707</ele>
        <time>2013-04-21T08:44:16Z</time>
      </trkpt>
      <trkpt lat="50.21574" lon="2.63568">
        <ele>145.7770996</ele>
        <time>2013-04-21T08:44:25Z</time>
      </trkpt>
      <trkpt lat="50.21596" lon="2.63629">
        <ele>145.2963867</ele>
        <time>2013-04-21T08:44:33Z</time>
      </trkpt>
      <trkpt lat="50.21623" lon="2.63712">
        <ele>145.7770996</ele>
        <time>2013-04-21T08:44:43Z</time>
      </trkpt>
      <trkpt lat="50.21654" lon="2.63802">
        <ele>145.7770996</ele>
        <time>2013-04-21T08:44:54Z</time>
      </trkpt>
      <trkpt lat="50.21663" lon="2.63833">
        <ele>145.7770996</ele>
        <time>2013-04-21T08:44:58Z</time>
      </trkpt>
      <trkpt lat="50.21679" lon="2.63844">
        <ele>145.2963867</ele>
        <time>2013-04-21T08:45:02Z</time>
      </trkpt>
      <trkpt lat="50.21684" lon="2.63841">
        <ele>145.2963867</ele>
        <time>2013-04-21T08:45:03Z</time>
      </trkpt>
      <trkpt lat="50.21728" lon="2.63807">
        <ele>144.3352051</ele>
        <time>2013-04-21T08:45:12Z</time>
      </trkpt>
      <trkpt lat="50.21771" lon="2.63773">
        <ele>142.4124756</ele>
        <time>2013-04-21T08:45:21Z</time>
      </trkpt>
      <trkpt lat="50.218" lon="2.6375">
        <ele>140.0091553</ele>
        <time>2013-04-21T08:45:27Z</time>
      </trkpt>
      <trkpt lat="50.21827" lon="2.6373">
        <ele>138.0865479</ele>
        <time>2013-04-21T08:45:32Z</time>
      </trkpt>
      <trkpt lat="50.21844" lon="2.63703">
        <ele>135.6831055</ele>
        <time>2013-04-21T08:45:36Z</time>
      </trkpt>
      <trkpt lat="50.21843" lon="2.63673">
        <ele>135.6831055</ele>
        <time>2013-04-21T08:45:39Z</time>
      </trkpt>
      <trkpt lat="50.21841" lon="2.63664">
        <ele>135.6831055</ele>
        <time>2013-04-21T08:45:40Z</time>
      </trkpt>
      <trkpt lat="50.2182" lon="2.63577">
        <ele>135.2025146</ele>
        <time>2013-04-21T08:45:50Z</time>
      </trkpt>
      <trkpt lat="50.21809" lon="2.63529">
        <ele>134.7219238</ele>
        <time>2013-04-21T08:45:56Z</time>
      </trkpt>
      <trkpt lat="50.21813" lon="2.63498">
        <ele>134.2412109</ele>
        <time>2013-04-21T08:46:00Z</time>
      </trkpt>
      <trkpt lat="50.21824" lon="2.63493">
        <ele>133.2799072</ele>
        <time>2013-04-21T08:46:02Z</time>
      </trkpt>
      <trkpt lat="50.21831" lon="2.63493">
        <ele>132.7993164</ele>
        <time>2013-04-21T08:46:03Z</time>
      </trkpt>
      <trkpt lat="50.21878" lon="2.635">
        <ele>129.9152832</ele>
        <time>2013-04-21T08:46:09Z</time>
      </trkpt>
      <trkpt lat="50.21917" lon="2.63519">
        <ele>127.0313721</ele>
        <time>2013-04-21T08:46:14Z</time>
      </trkpt>
      <trkpt lat="50.21956" lon="2.63554">
        <ele>123.666748</ele>
        <time>2013-04-21T08:46:19Z</time>
      </trkpt>
      <trkpt lat="50.21984" lon="2.63594">
        <ele>123.666748</ele>
        <time>2013-04-21T08:46:24Z</time>
      </trkpt>
      <trkpt lat="50.22013" lon="2.63661">
        <ele>119.3408203</ele>
        <time>2013-04-21T08:46:30Z</time>
      </trkpt>
      <trkpt lat="50.22022" lon="2.63685">
        <ele>118.3793945</ele>
        <time>2013-04-21T08:46:32Z</time>
      </trkpt>
      <trkpt lat="50.22047" lon="2.63765">
        <ele>108.7662354</ele>
        <time>2013-04-21T08:46:39Z</time>
      </trkpt>
      <trkpt lat="50.22074" lon="2.63831">
        <ele>103.4790039</ele>
        <time>2013-04-21T08:46:44Z</time>
      </trkpt>
      <trkpt lat="50.22102" lon="2.63843">
        <ele>104.4404297</ele>
        <time>2013-04-21T08:46:48Z</time>
      </trkpt>
      <trkpt lat="50.22113" lon="2.63847">
        <ele>105.4017334</ele>
        <time>2013-04-21T08:46:53Z</time>
      </trkpt>
      <trkpt lat="50.22107" lon="2.63859">
        <ele>103.4790039</ele>
        <time>2013-04-21T08:46:56Z</time>
      </trkpt>
      <trkpt lat="50.22102" lon="2.63883">
        <ele>102.0371094</ele>
        <time>2013-04-21T08:47:02Z</time>
      </trkpt>
      <trkpt lat="50.22096" lon="2.63904">
        <ele>102.0371094</ele>
        <time>2013-04-21T08:47:07Z</time>
      </trkpt>
      <trkpt lat="50.22092" lon="2.63925">
        <ele>102.0371094</ele>
        <time>2013-04-21T08:47:12Z</time>
      </trkpt>
      <trkpt lat="50.22091" lon="2.63936">
        <ele>103.4790039</ele>
        <time>2013-04-21T08:47:16Z</time>
      </trkpt>
      <trkpt lat="50.2209" lon="2.63955">
        <ele>106.3630371</ele>
        <time>2013-04-21T08:47:22Z</time>
      </trkpt>
      <trkpt lat="50.22089" lon="2.63967">
        <ele>107.3243408</ele>
        <time>2013-04-21T08:47:26Z</time>
      </trkpt>
      <trkpt lat="50.22086" lon="2.63999">
        <ele>110.208252</ele>
        <time>2013-04-21T08:47:36Z</time>
      </trkpt>
      <trkpt lat="50.22085" lon="2.64017">
        <ele>111.1695557</ele>
        <time>2013-04-21T08:47:42Z</time>
      </trkpt>
      <trkpt lat="50.22084" lon="2.64033">
        <ele>112.6115723</ele>
        <time>2013-04-21T08:47:48Z</time>
      </trkpt>
      <trkpt lat="50.22083" lon="2.64049">
        <ele>114.0535889</ele>
        <time>2013-04-21T08:47:54Z</time>
      </trkpt>
      <trkpt lat="50.22081" lon="2.64062">
        <ele>115.4956055</ele>
        <time>2013-04-21T08:47:59Z</time>
      </trkpt>
      <trkpt lat="50.22078" lon="2.64077">
        <ele>115.9761963</ele>
        <time>2013-04-21T08:48:05Z</time>
      </trkpt>
      <trkpt lat="50.22077" lon="2.64092">
        <ele>115.0148926</ele>
        <time>2013-04-21T08:48:13Z</time>
      </trkpt>
      <trkpt lat="50.22072" lon="2.64103">
        <ele>115.0148926</ele>
        <time>2013-04-21T08:48:19Z</time>
      </trkpt>
      <trkpt lat="50.22067" lon="2.64114">
        <ele>114.5341797</ele>
        <time>2013-04-21T08:48:26Z</time>
      </trkpt>
      <trkpt lat="50.22057" lon="2.6413">
        <ele>115.4956055</ele>
        <time>2013-04-21T08:48:35Z</time>
      </trkpt>
      <trkpt lat="50.2205" lon="2.64141">
        <ele>115.4956055</ele>
        <time>2013-04-21T08:48:42Z</time>
      </trkpt>
      <trkpt lat="50.22044" lon="2.64152">
        <ele>111.6502686</ele>
        <time>2013-04-21T08:48:49Z</time>
      </trkpt>
      <trkpt lat="50.22032" lon="2.64167">
        <ele>115.0148926</ele>
        <time>2013-04-21T08:48:55Z</time>
      </trkpt>
      <trkpt lat="50.22014" lon="2.6419">
        <ele>122.2247314</ele>
        <time>2013-04-21T08:49:04Z</time>
      </trkpt>
      <trkpt lat="50.22002" lon="2.64193">
        <ele>123.1861572</ele>
        <time>2013-04-21T08:49:09Z</time>
      </trkpt>
      <trkpt lat="50.21981" lon="2.64197">
        <ele>124.6280518</ele>
        <time>2013-04-21T08:49:16Z</time>
      </trkpt>
      <trkpt lat="50.21946" lon="2.64206">
        <ele>126.5506592</ele>
        <time>2013-04-21T08:49:25Z</time>
      </trkpt>
      <trkpt lat="50.21928" lon="2.64222">
        <ele>127.5119629</ele>
        <time>2013-04-21T08:49:30Z</time>
      </trkpt>
      <trkpt lat="50.21899" lon="2.64263">
        <ele>128.4733887</ele>
        <time>2013-04-21T08:49:38Z</time>
      </trkpt>
      <trkpt lat="50.21866" lon="2.64315">
        <ele>128.9541016</ele>
        <time>2013-04-21T08:49:48Z</time>
      </trkpt>
      <trkpt lat="50.21843" lon="2.64355">
        <ele>128.9541016</ele>
        <time>2013-04-21T08:49:55Z</time>
      </trkpt>
      <trkpt lat="50.21822" lon="2.64394">
        <ele>128.4733887</ele>
        <time>2013-04-21T08:50:01Z</time>
      </trkpt>
      <trkpt lat="50.21799" lon="2.64437">
        <ele>127.5119629</ele>
        <time>2013-04-21T08:50:07Z</time>
      </trkpt>
      <trkpt lat="50.21772" lon="2.64488">
        <ele>125.5893555</ele>
        <time>2013-04-21T08:50:13Z</time>
      </trkpt>
      <trkpt lat="50.21745" lon="2.64506">
        <ele>125.1087646</ele>
        <time>2013-04-21T08:50:17Z</time>
      </trkpt>
      <trkpt lat="50.21738" lon="2.64506">
        <ele>125.1087646</ele>
        <time>2013-04-21T08:50:18Z</time>
      </trkpt>
      <trkpt lat="50.2169" lon="2.64492">
        <ele>123.666748</ele>
        <time>2013-04-21T08:50:25Z</time>
      </trkpt>
      <trkpt lat="50.21647" lon="2.64479">
        <ele>121.7441406</ele>
        <time>2013-04-21T08:50:31Z</time>
      </trkpt>
      <trkpt lat="50.21613" lon="2.64484">
        <ele>119.3408203</ele>
        <time>2013-04-21T08:50:35Z</time>
      </trkpt>
      <trkpt lat="50.21605" lon="2.64489">
        <ele>118.8601074</ele>
        <time>2013-04-21T08:50:36Z</time>
      </trkpt>
      <trkpt lat="50.21542" lon="2.64541">
        <ele>117.8988037</ele>
        <time>2013-04-21T08:50:44Z</time>
      </trkpt>
      <trkpt lat="50.21514" lon="2.64565">
        <ele>120.302124</ele>
        <time>2013-04-21T08:50:49Z</time>
      </trkpt>
      <trkpt lat="50.21494" lon="2.64583">
        <ele>122.2247314</ele>
        <time>2013-04-21T08:50:54Z</time>
      </trkpt>
      <trkpt lat="50.21483" lon="2.64594">
        <ele>122.7054443</ele>
        <time>2013-04-21T08:50:57Z</time>
      </trkpt>
      <trkpt lat="50.21456" lon="2.64628">
        <ele>122.2247314</ele>
        <time>2013-04-21T08:51:04Z</time>
      </trkpt>
      <trkpt lat="50.21423" lon="2.64671">
        <ele>120.7828369</ele>
        <time>2013-04-21T08:51:12Z</time>
      </trkpt>
      <trkpt lat="50.21387" lon="2.64715">
        <ele>118.3793945</ele>
        <time>2013-04-21T08:51:20Z</time>
      </trkpt>
      <trkpt lat="50.21359" lon="2.64749">
        <ele>115.0148926</ele>
        <time>2013-04-21T08:51:25Z</time>
      </trkpt>
      <trkpt lat="50.21312" lon="2.64806">
        <ele>111.6502686</ele>
        <time>2013-04-21T08:51:32Z</time>
      </trkpt>
      <trkpt lat="50.21278" lon="2.64847">
        <ele>109.7276611</ele>
        <time>2013-04-21T08:51:37Z</time>
      </trkpt>
      <trkpt lat="50.21273" lon="2.64853">
        <ele>109.7276611</ele>
        <time>2013-04-21T08:51:38Z</time>
      </trkpt>
      <trkpt lat="50.2127" lon="2.64871">
        <ele>111.1695557</ele>
        <time>2013-04-21T08:51:42Z</time>
      </trkpt>
      <trkpt lat="50.21292" lon="2.64892">
        <ele>111.1695557</ele>
        <time>2013-04-21T08:51:48Z</time>
      </trkpt>
      <trkpt lat="50.21308" lon="2.64911">
        <ele>108.7662354</ele>
        <time>2013-04-21T08:51:52Z</time>
      </trkpt>
      <trkpt lat="50.21337" lon="2.64935">
        <ele>102.998291</ele>
        <time>2013-04-21T08:51:58Z</time>
      </trkpt>
      <trkpt lat="50.21346" lon="2.64942">
        <ele>102.5177002</ele>
        <time>2013-04-21T08:52:01Z</time>
      </trkpt>
      <trkpt lat="50.21374" lon="2.64956">
        <ele>100.5950928</ele>
        <time>2013-04-21T08:52:07Z</time>
      </trkpt>
      <trkpt lat="50.21392" lon="2.64967">
        <ele>101.0756836</ele>
        <time>2013-04-21T08:52:11Z</time>
      </trkpt>
      <trkpt lat="50.21413" lon="2.64986">
        <ele>100.5950928</ele>
        <time>2013-04-21T08:52:17Z</time>
      </trkpt>
      <trkpt lat="50.21421" lon="2.64991">
        <ele>101.5563965</ele>
        <time>2013-04-21T08:52:19Z</time>
      </trkpt>
      <trkpt lat="50.21441" lon="2.65011">
        <ele>102.0371094</ele>
        <time>2013-04-21T08:52:24Z</time>
      </trkpt>
      <trkpt lat="50.21458" lon="2.65026">
        <ele>101.5563965</ele>
        <time>2013-04-21T08:52:28Z</time>
      </trkpt>
      <trkpt lat="50.21482" lon="2.65041">
        <ele>101.0756836</ele>
        <time>2013-04-21T08:52:34Z</time>
      </trkpt>
      <trkpt lat="50.21503" lon="2.65058">
        <ele>99.6337891</ele>
        <time>2013-04-21T08:52:39Z</time>
      </trkpt>
      <trkpt lat="50.21511" lon="2.65061">
        <ele>100.5950928</ele>
        <time>2013-04-21T08:52:41Z</time>
      </trkpt>
      <trkpt lat="50.21521" lon="2.65063">
        <ele>99.1530762</ele>
        <time>2013-04-21T08:52:43Z</time>
      </trkpt>
      <trkpt lat="50.21549" lon="2.65077">
        <ele>94.8271484</ele>
        <time>2013-04-21T08:52:49Z</time>
      </trkpt>
      <trkpt lat="50.21563" lon="2.65084">
        <ele>94.3465576</ele>
        <time>2013-04-21T08:52:52Z</time>
      </trkpt>
      <trkpt lat="50.21585" lon="2.65092">
        <ele>96.7498779</ele>
        <time>2013-04-21T08:52:56Z</time>
      </trkpt>
      <trkpt lat="50.21594" lon="2.65095">
        <ele>97.2304688</ele>
        <time>2013-04-21T08:52:58Z</time>
      </trkpt>
      <trkpt lat="50.2161" lon="2.65105">
        <ele>98.1918945</ele>
        <time>2013-04-21T08:53:02Z</time>
      </trkpt>
      <trkpt lat="50.21621" lon="2.65113">
        <ele>98.1918945</ele>
        <time>2013-04-21T08:53:05Z</time>
      </trkpt>
      <trkpt lat="50.21636" lon="2.65117">
        <ele>98.6724854</ele>
        <time>2013-04-21T08:53:09Z</time>
      </trkpt>
      <trkpt lat="50.2164" lon="2.65118">
        <ele>98.6724854</ele>
        <time>2013-04-21T08:53:10Z</time>
      </trkpt>
      <trkpt lat="50.21665" lon="2.65125">
        <ele>99.1530762</ele>
        <time>2013-04-21T08:53:17Z</time>
      </trkpt>
      <trkpt lat="50.21693" lon="2.65138">
        <ele>98.1918945</ele>
        <time>2013-04-21T08:53:24Z</time>
      </trkpt>
      <trkpt lat="50.2171" lon="2.65149">
        <ele>95.7884521</ele>
        <time>2013-04-21T08:53:29Z</time>
      </trkpt>
      <trkpt lat="50.21713" lon="2.6515">
        <ele>96.2692871</ele>
        <time>2013-04-21T08:53:30Z</time>
      </trkpt>
      <trkpt lat="50.21715" lon="2.65154">
        <ele>97.7111816</ele>
        <time>2013-04-21T08:53:34Z</time>
      </trkpt>
      <trkpt lat="50.21714" lon="2.65152">
        <ele>98.1918945</ele>
        <time>2013-04-21T08:53:35Z</time>
      </trkpt>
      <trkpt lat="50.21706" lon="2.65146">
        <ele>104.9210205</ele>
        <time>2013-04-21T08:53:42Z</time>
      </trkpt>
      <trkpt lat="50.217" lon="2.65147">
        <ele>105.8824463</ele>
        <time>2013-04-21T08:53:45Z</time>
      </trkpt>
      <trkpt lat="50.21699" lon="2.65159">
        <ele>108.2856445</ele>
        <time>2013-04-21T08:53:49Z</time>
      </trkpt>
      <trkpt lat="50.21707" lon="2.65168">
        <ele>109.7276611</ele>
        <time>2013-04-21T08:53:55Z</time>
      </trkpt>
      <trkpt lat="50.21716" lon="2.65176">
        <ele>112.6115723</ele>
        <time>2013-04-21T08:54:02Z</time>
      </trkpt>
      <trkpt lat="50.21719" lon="2.6518">
        <ele>113.572998</ele>
        <time>2013-04-21T08:54:05Z</time>
      </trkpt>
      <trkpt lat="50.21724" lon="2.65185">
        <ele>114.5341797</ele>
        <time>2013-04-21T08:54:09Z</time>
      </trkpt>
      <trkpt lat="50.21729" lon="2.65191">
        <ele>114.5341797</ele>
        <time>2013-04-21T08:54:13Z</time>
      </trkpt>
      <trkpt lat="50.21731" lon="2.65195">
        <ele>113.572998</ele>
        <time>2013-04-21T08:54:15Z</time>
      </trkpt>
      <trkpt lat="50.2175" lon="2.6521">
        <ele>109.7276611</ele>
        <time>2013-04-21T08:54:22Z</time>
      </trkpt>
      <trkpt lat="50.21766" lon="2.65224">
        <ele>114.5341797</ele>
        <time>2013-04-21T08:54:27Z</time>
      </trkpt>
      <trkpt lat="50.21781" lon="2.65241">
        <ele>117.4182129</ele>
        <time>2013-04-21T08:54:33Z</time>
      </trkpt>
      <trkpt lat="50.21797" lon="2.65257">
        <ele>116.9375</ele>
        <time>2013-04-21T08:54:38Z</time>
      </trkpt>
      <trkpt lat="50.21816" lon="2.65275">
        <ele>115.4956055</ele>
        <time>2013-04-21T08:54:43Z</time>
      </trkpt>
      <trkpt lat="50.21823" lon="2.65283">
        <ele>114.5341797</ele>
        <time>2013-04-21T08:54:45Z</time>
      </trkpt>
      <trkpt lat="50.21836" lon="2.65297">
        <ele>113.0922852</ele>
        <time>2013-04-21T08:54:48Z</time>
      </trkpt>
      <trkpt lat="50.21882" lon="2.65337">
        <ele>103.4790039</ele>
        <time>2013-04-21T08:54:55Z</time>
      </trkpt>
      <trkpt lat="50.21897" lon="2.65348">
        <ele>103.4790039</ele>
        <time>2013-04-21T08:54:57Z</time>
      </trkpt>
      <trkpt lat="50.21928" lon="2.65355">
        <ele>103.4790039</ele>
        <time>2013-04-21T08:55:01Z</time>
      </trkpt>
      <trkpt lat="50.21949" lon="2.6537">
        <ele>102.5177002</ele>
        <time>2013-04-21T08:55:04Z</time>
      </trkpt>
      <trkpt lat="50.22003" lon="2.65416">
        <ele>96.7498779</ele>
        <time>2013-04-21T08:55:14Z</time>
      </trkpt>
      <trkpt lat="50.22031" lon="2.65439">
        <ele>94.3465576</ele>
        <time>2013-04-21T08:55:20Z</time>
      </trkpt>
      <trkpt lat="50.22058" lon="2.65448">
        <ele>93.8658447</ele>
        <time>2013-04-21T08:55:25Z</time>
      </trkpt>
      <trkpt lat="50.22082" lon="2.65456">
        <ele>92.904541</ele>
        <time>2013-04-21T08:55:30Z</time>
      </trkpt>
      <trkpt lat="50.22085" lon="2.65461">
        <ele>93.3851318</ele>
        <time>2013-04-21T08:55:31Z</time>
      </trkpt>
      <trkpt lat="50.22112" lon="2.655">
        <ele>94.3465576</ele>
        <time>2013-04-21T08:55:37Z</time>
      </trkpt>
      <trkpt lat="50.22139" lon="2.65535">
        <ele>96.7498779</ele>
        <time>2013-04-21T08:55:42Z</time>
      </trkpt>
      <trkpt lat="50.22171" lon="2.65565">
        <ele>95.3077393</ele>
        <time>2013-04-21T08:55:48Z</time>
      </trkpt>
      <trkpt lat="50.22208" lon="2.65591">
        <ele>92.904541</ele>
        <time>2013-04-21T08:55:55Z</time>
      </trkpt>
      <trkpt lat="50.22252" lon="2.65626">
        <ele>88.5787354</ele>
        <time>2013-04-21T08:56:03Z</time>
      </trkpt>
      <trkpt lat="50.22284" lon="2.65653">
        <ele>86.175293</ele>
        <time>2013-04-21T08:56:10Z</time>
      </trkpt>
      <trkpt lat="50.22319" lon="2.65687">
        <ele>82.3300781</ele>
        <time>2013-04-21T08:56:18Z</time>
      </trkpt>
      <trkpt lat="50.22363" lon="2.65725">
        <ele>83.2913818</ele>
        <time>2013-04-21T08:56:27Z</time>
      </trkpt>
      <trkpt lat="50.22401" lon="2.6576">
        <ele>82.810791</ele>
        <time>2013-04-21T08:56:35Z</time>
      </trkpt>
      <trkpt lat="50.2244" lon="2.65791">
        <ele>87.1365967</ele>
        <time>2013-04-21T08:56:43Z</time>
      </trkpt>
      <trkpt lat="50.22478" lon="2.65817">
        <ele>94.3465576</ele>
        <time>2013-04-21T08:56:51Z</time>
      </trkpt>
      <trkpt lat="50.22487" lon="2.65824">
        <ele>95.3077393</ele>
        <time>2013-04-21T08:56:53Z</time>
      </trkpt>
      <trkpt lat="50.22497" lon="2.65838">
        <ele>94.3465576</ele>
        <time>2013-04-21T08:56:56Z</time>
      </trkpt>
      <trkpt lat="50.22518" lon="2.6588">
        <ele>90.0206299</ele>
        <time>2013-04-21T08:57:03Z</time>
      </trkpt>
      <trkpt lat="50.22531" lon="2.65908">
        <ele>88.0980225</ele>
        <time>2013-04-21T08:57:08Z</time>
      </trkpt>
      <trkpt lat="50.22552" lon="2.65948">
        <ele>84.2526855</ele>
        <time>2013-04-21T08:57:15Z</time>
      </trkpt>
      <trkpt lat="50.22578" lon="2.65985">
        <ele>82.810791</ele>
        <time>2013-04-21T08:57:23Z</time>
      </trkpt>
      <trkpt lat="50.22596" lon="2.65997">
        <ele>83.7719727</ele>
        <time>2013-04-21T08:57:28Z</time>
      </trkpt>
      <trkpt lat="50.22606" lon="2.6599">
        <ele>86.175293</ele>
        <time>2013-04-21T08:57:32Z</time>
      </trkpt>
      <trkpt lat="50.22607" lon="2.65984">
        <ele>86.175293</ele>
        <time>2013-04-21T08:57:33Z</time>
      </trkpt>
      <trkpt lat="50.22615" lon="2.65933">
        <ele>91.4625244</ele>
        <time>2013-04-21T08:57:40Z</time>
      </trkpt>
      <trkpt lat="50.22624" lon="2.65863">
        <ele>92.4239502</ele>
        <time>2013-04-21T08:57:49Z</time>
      </trkpt>
      <trkpt lat="50.22629" lon="2.65813">
        <ele>92.904541</ele>
        <time>2013-04-21T08:57:56Z</time>
      </trkpt>
      <trkpt lat="50.2263" lon="2.65801">
        <ele>92.904541</ele>
        <time>2013-04-21T08:57:58Z</time>
      </trkpt>
      <trkpt lat="50.22641" lon="2.65798">
        <ele>92.904541</ele>
        <time>2013-04-21T08:58:02Z</time>
      </trkpt>
      <trkpt lat="50.22643" lon="2.65803">
        <ele>93.3851318</ele>
        <time>2013-04-21T08:58:03Z</time>
      </trkpt>
      <trkpt lat="50.22657" lon="2.65851">
        <ele>94.3465576</ele>
        <time>2013-04-21T08:58:10Z</time>
      </trkpt>
      <trkpt lat="50.22681" lon="2.65926">
        <ele>97.7111816</ele>
        <time>2013-04-21T08:58:20Z</time>
      </trkpt>
      <trkpt lat="50.227" lon="2.65986">
        <ele>98.1918945</ele>
        <time>2013-04-21T08:58:29Z</time>
      </trkpt>
      <trkpt lat="50.2272" lon="2.66038">
        <ele>98.6724854</ele>
        <time>2013-04-21T08:58:38Z</time>
      </trkpt>
      <trkpt lat="50.22739" lon="2.66084">
        <ele>100.114502</ele>
        <time>2013-04-21T08:58:45Z</time>
      </trkpt>
      <trkpt lat="50.22765" lon="2.66137">
        <ele>102.998291</ele>
        <time>2013-04-21T08:58:54Z</time>
      </trkpt>
      <trkpt lat="50.22795" lon="2.662">
        <ele>103.4790039</ele>
        <time>2013-04-21T08:59:05Z</time>
      </trkpt>
      <trkpt lat="50.22815" lon="2.66246">
        <ele>103.4790039</ele>
        <time>2013-04-21T08:59:13Z</time>
      </trkpt>
      <trkpt lat="50.22833" lon="2.66292">
        <ele>102.5177002</ele>
        <time>2013-04-21T08:59:20Z</time>
      </trkpt>
      <trkpt lat="50.2284" lon="2.66315">
        <ele>102.0371094</ele>
        <time>2013-04-21T08:59:24Z</time>
      </trkpt>
      <trkpt lat="50.22855" lon="2.66373">
        <ele>101.5563965</ele>
        <time>2013-04-21T08:59:34Z</time>
      </trkpt>
      <trkpt lat="50.2286" lon="2.6639">
        <ele>101.5563965</ele>
        <time>2013-04-21T08:59:37Z</time>
      </trkpt>
      <trkpt lat="50.22877" lon="2.66458">
        <ele>100.114502</ele>
        <time>2013-04-21T08:59:47Z</time>
      </trkpt>
      <trkpt lat="50.22896" lon="2.66536">
        <ele>99.6337891</ele>
        <time>2013-04-21T08:59:58Z</time>
      </trkpt>
      <trkpt lat="50.22907" lon="2.6658">
        <ele>99.1530762</ele>
        <time>2013-04-21T09:00:04Z</time>
      </trkpt>
      <trkpt lat="50.22912" lon="2.66603">
        <ele>98.6724854</ele>
        <time>2013-04-21T09:00:07Z</time>
      </trkpt>
      <trkpt lat="50.22912" lon="2.66603">
        <ele>98.6724854</ele>
        <time>2013-04-21T09:00:07Z</time>
      </trkpt>
      <trkpt lat="50.22923" lon="2.66649">
        <ele>97.2304688</ele>
        <time>2013-04-21T09:00:13Z</time>
      </trkpt>
      <trkpt lat="50.22943" lon="2.66736">
        <ele>97.2304688</ele>
        <time>2013-04-21T09:00:23Z</time>
      </trkpt>
      <trkpt lat="50.2296" lon="2.66789">
        <ele>98.1918945</ele>
        <time>2013-04-21T09:00:30Z</time>
      </trkpt>
      <trkpt lat="50.22985" lon="2.66857">
        <ele>97.2304688</ele>
        <time>2013-04-21T09:00:39Z</time>
      </trkpt>
      <trkpt lat="50.22988" lon="2.66863">
        <ele>96.7498779</ele>
        <time>2013-04-21T09:00:40Z</time>
      </trkpt>
      <trkpt lat="50.23005" lon="2.66913">
        <ele>96.2692871</ele>
        <time>2013-04-21T09:00:47Z</time>
      </trkpt>
      <trkpt lat="50.23021" lon="2.66961">
        <ele>98.1918945</ele>
        <time>2013-04-21T09:00:53Z</time>
      </trkpt>
      <trkpt lat="50.23049" lon="2.67025">
        <ele>101.0756836</ele>
        <time>2013-04-21T09:01:02Z</time>
      </trkpt>
      <trkpt lat="50.23085" lon="2.67089">
        <ele>102.5177002</ele>
        <time>2013-04-21T09:01:13Z</time>
      </trkpt>
      <trkpt lat="50.23094" lon="2.67105">
        <ele>103.4790039</ele>
        <time>2013-04-21T09:01:16Z</time>
      </trkpt>
      <trkpt lat="50.23101" lon="2.67122">
        <ele>103.4790039</ele>
        <time>2013-04-21T09:01:19Z</time>
      </trkpt>
      <trkpt lat="50.23102" lon="2.67149">
        <ele>100.5950928</ele>
        <time>2013-04-21T09:01:23Z</time>
      </trkpt>
      <trkpt lat="50.23092" lon="2.67201">
        <ele>95.7884521</ele>
        <time>2013-04-21T09:01:29Z</time>
      </trkpt>
      <trkpt lat="50.23091" lon="2.6721">
        <ele>95.3077393</ele>
        <time>2013-04-21T09:01:30Z</time>
      </trkpt>
      <trkpt lat="50.23094" lon="2.67246">
        <ele>93.8658447</ele>
        <time>2013-04-21T09:01:34Z</time>
      </trkpt>
      <trkpt lat="50.23115" lon="2.67317">
        <ele>93.3851318</ele>
        <time>2013-04-21T09:01:43Z</time>
      </trkpt>
      <trkpt lat="50.23117" lon="2.67332">
        <ele>92.4239502</ele>
        <time>2013-04-21T09:01:45Z</time>
      </trkpt>
      <trkpt lat="50.23126" lon="2.67381">
        <ele>92.4239502</ele>
        <time>2013-04-21T09:01:51Z</time>
      </trkpt>
      <trkpt lat="50.23153" lon="2.67448">
        <ele>93.8658447</ele>
        <time>2013-04-21T09:02:00Z</time>
      </trkpt>
      <trkpt lat="50.2318" lon="2.67517">
        <ele>95.3077393</ele>
        <time>2013-04-21T09:02:09Z</time>
      </trkpt>
      <trkpt lat="50.23188" lon="2.67542">
        <ele>95.7884521</ele>
        <time>2013-04-21T09:02:12Z</time>
      </trkpt>
      <trkpt lat="50.23195" lon="2.67596">
        <ele>92.904541</ele>
        <time>2013-04-21T09:02:18Z</time>
      </trkpt>
      <trkpt lat="50.23191" lon="2.67653">
        <ele>90.5013428</ele>
        <time>2013-04-21T09:02:25Z</time>
      </trkpt>
      <trkpt lat="50.23182" lon="2.67728">
        <ele>89.539917</ele>
        <time>2013-04-21T09:02:34Z</time>
      </trkpt>
      <trkpt lat="50.23168" lon="2.67806">
        <ele>88.0980225</ele>
        <time>2013-04-21T09:02:43Z</time>
      </trkpt>
      <trkpt lat="50.23156" lon="2.67873">
        <ele>88.0980225</ele>
        <time>2013-04-21T09:02:51Z</time>
      </trkpt>
      <trkpt lat="50.23147" lon="2.67917">
        <ele>87.6171875</ele>
        <time>2013-04-21T09:02:57Z</time>
      </trkpt>
      <trkpt lat="50.23139" lon="2.67965">
        <ele>88.0980225</ele>
        <time>2013-04-21T09:03:03Z</time>
      </trkpt>
      <trkpt lat="50.23121" lon="2.68014">
        <ele>89.0593262</ele>
        <time>2013-04-21T09:03:10Z</time>
      </trkpt>
      <trkpt lat="50.23117" lon="2.68056">
        <ele>90.5013428</ele>
        <time>2013-04-21T09:03:16Z</time>
      </trkpt>
      <trkpt lat="50.23119" lon="2.68071">
        <ele>90.9819336</ele>
        <time>2013-04-21T09:03:18Z</time>
      </trkpt>
      <trkpt lat="50.23134" lon="2.68141">
        <ele>91.4625244</ele>
        <time>2013-04-21T09:03:27Z</time>
      </trkpt>
      <trkpt lat="50.23154" lon="2.6819">
        <ele>91.9432373</ele>
        <time>2013-04-21T09:03:34Z</time>
      </trkpt>
      <trkpt lat="50.23184" lon="2.6825">
        <ele>92.904541</ele>
        <time>2013-04-21T09:03:44Z</time>
      </trkpt>
      <trkpt lat="50.23215" lon="2.68312">
        <ele>93.3851318</ele>
        <time>2013-04-21T09:03:55Z</time>
      </trkpt>
      <trkpt lat="50.23236" lon="2.68339">
        <ele>93.3851318</ele>
        <time>2013-04-21T09:04:01Z</time>
      </trkpt>
      <trkpt lat="50.23263" lon="2.68366">
        <ele>93.8658447</ele>
        <time>2013-04-21T09:04:08Z</time>
      </trkpt>
      <trkpt lat="50.2329" lon="2.68393">
        <ele>93.3851318</ele>
        <time>2013-04-21T09:04:15Z</time>
      </trkpt>
      <trkpt lat="50.23308" lon="2.68411">
        <ele>93.3851318</ele>
        <time>2013-04-21T09:04:20Z</time>
      </trkpt>
      <trkpt lat="50.23329" lon="2.6845">
        <ele>93.8658447</ele>
        <time>2013-04-21T09:04:28Z</time>
      </trkpt>
      <trkpt lat="50.2335" lon="2.68501">
        <ele>93.8658447</ele>
        <time>2013-04-21T09:04:37Z</time>
      </trkpt>
      <trkpt lat="50.23373" lon="2.68546">
        <ele>95.7884521</ele>
        <time>2013-04-21T09:04:45Z</time>
      </trkpt>
      <trkpt lat="50.23405" lon="2.68592">
        <ele>98.1918945</ele>
        <time>2013-04-21T09:04:54Z</time>
      </trkpt>
      <trkpt lat="50.23441" lon="2.68651">
        <ele>99.1530762</ele>
        <time>2013-04-21T09:05:05Z</time>
      </trkpt>
      <trkpt lat="50.23458" lon="2.6869">
        <ele>99.1530762</ele>
        <time>2013-04-21T09:05:11Z</time>
      </trkpt>
      <trkpt lat="50.2347" lon="2.68746">
        <ele>98.6724854</ele>
        <time>2013-04-21T09:05:18Z</time>
      </trkpt>
      <trkpt lat="50.23482" lon="2.68814">
        <ele>99.6337891</ele>
        <time>2013-04-21T09:05:26Z</time>
      </trkpt>
      <trkpt lat="50.23503" lon="2.68866">
        <ele>99.6337891</ele>
        <time>2013-04-21T09:05:33Z</time>
      </trkpt>
      <trkpt lat="50.23525" lon="2.68926">
        <ele>100.5950928</ele>
        <time>2013-04-21T09:05:41Z</time>
      </trkpt>
      <trkpt lat="50.23555" lon="2.69012">
        <ele>101.0756836</ele>
        <time>2013-04-21T09:05:52Z</time>
      </trkpt>
      <trkpt lat="50.23579" lon="2.69088">
        <ele>100.5950928</ele>
        <time>2013-04-21T09:06:02Z</time>
      </trkpt>
      <trkpt lat="50.236" lon="2.69137">
        <ele>100.5950928</ele>
        <time>2013-04-21T09:06:10Z</time>
      </trkpt>
      <trkpt lat="50.23604" lon="2.69146">
        <ele>100.5950928</ele>
        <time>2013-04-21T09:06:12Z</time>
      </trkpt>
      <trkpt lat="50.23614" lon="2.6915">
        <ele>100.114502</ele>
        <time>2013-04-21T09:06:16Z</time>
      </trkpt>
      <trkpt lat="50.23635" lon="2.69136">
        <ele>101.0756836</ele>
        <time>2013-04-21T09:06:23Z</time>
      </trkpt>
      <trkpt lat="50.23661" lon="2.69117">
        <ele>99.6337891</ele>
        <time>2013-04-21T09:06:30Z</time>
      </trkpt>
      <trkpt lat="50.2368" lon="2.69102">
        <ele>99.6337891</ele>
        <time>2013-04-21T09:06:36Z</time>
      </trkpt>
      <trkpt lat="50.23705" lon="2.69086">
        <ele>100.5950928</ele>
        <time>2013-04-21T09:06:45Z</time>
      </trkpt>
      <trkpt lat="50.2373" lon="2.69068">
        <ele>101.5563965</ele>
        <time>2013-04-21T09:06:55Z</time>
      </trkpt>
      <trkpt lat="50.23753" lon="2.69051">
        <ele>101.0756836</ele>
        <time>2013-04-21T09:07:04Z</time>
      </trkpt>
      <trkpt lat="50.23782" lon="2.6903">
        <ele>100.114502</ele>
        <time>2013-04-21T09:07:15Z</time>
      </trkpt>
      <trkpt lat="50.238" lon="2.69013">
        <ele>100.5950928</ele>
        <time>2013-04-21T09:07:23Z</time>
      </trkpt>
      <trkpt lat="50.238" lon="2.68984">
        <ele>102.998291</ele>
        <time>2013-04-21T09:07:29Z</time>
      </trkpt>
      <trkpt lat="50.23791" lon="2.68928">
        <ele>103.9597168</ele>
        <time>2013-04-21T09:07:38Z</time>
      </trkpt>
      <trkpt lat="50.23784" lon="2.68881">
        <ele>105.4017334</ele>
        <time>2013-04-21T09:07:45Z</time>
      </trkpt>
      <trkpt lat="50.23775" lon="2.68854">
        <ele>107.3243408</ele>
        <time>2013-04-21T09:07:50Z</time>
      </trkpt>
      <trkpt lat="50.23761" lon="2.68821">
        <ele>110.208252</ele>
        <time>2013-04-21T09:07:56Z</time>
      </trkpt>
      <trkpt lat="50.23759" lon="2.68816">
        <ele>110.208252</ele>
        <time>2013-04-21T09:07:57Z</time>
      </trkpt>
      <trkpt lat="50.23745" lon="2.68777">
        <ele>108.2856445</ele>
        <time>2013-04-21T09:08:04Z</time>
      </trkpt>
      <trkpt lat="50.23743" lon="2.68772">
        <ele>108.2856445</ele>
        <time>2013-04-21T09:08:05Z</time>
      </trkpt>
      <trkpt lat="50.23736" lon="2.68745">
        <ele>106.8436279</ele>
        <time>2013-04-21T09:08:09Z</time>
      </trkpt>
      <trkpt lat="50.2373" lon="2.6872">
        <ele>106.3630371</ele>
        <time>2013-04-21T09:08:13Z</time>
      </trkpt>
      <trkpt lat="50.23723" lon="2.68679">
        <ele>106.3630371</ele>
        <time>2013-04-21T09:08:19Z</time>
      </trkpt>
      <trkpt lat="50.23719" lon="2.6864">
        <ele>103.9597168</ele>
        <time>2013-04-21T09:08:25Z</time>
      </trkpt>
      <trkpt lat="50.23714" lon="2.68579">
        <ele>102.5177002</ele>
        <time>2013-04-21T09:08:34Z</time>
      </trkpt>
      <trkpt lat="50.23704" lon="2.68524">
        <ele>103.9597168</ele>
        <time>2013-04-21T09:08:42Z</time>
      </trkpt>
      <trkpt lat="50.23693" lon="2.68477">
        <ele>105.4017334</ele>
        <time>2013-04-21T09:08:49Z</time>
      </trkpt>
      <trkpt lat="50.23687" lon="2.68426">
        <ele>106.8436279</ele>
        <time>2013-04-21T09:08:56Z</time>
      </trkpt>
      <trkpt lat="50.23679" lon="2.68355">
        <ele>107.8050537</ele>
        <time>2013-04-21T09:09:06Z</time>
      </trkpt>
      <trkpt lat="50.2367" lon="2.68282">
        <ele>109.7276611</ele>
        <time>2013-04-21T09:09:17Z</time>
      </trkpt>
      <trkpt lat="50.23659" lon="2.68212">
        <ele>110.208252</ele>
        <time>2013-04-21T09:09:28Z</time>
      </trkpt>
      <trkpt lat="50.23653" lon="2.68191">
        <ele>110.6888428</ele>
        <time>2013-04-21T09:09:31Z</time>
      </trkpt>
      <trkpt lat="50.23632" lon="2.68144">
        <ele>109.7276611</ele>
        <time>2013-04-21T09:09:39Z</time>
      </trkpt>
      <trkpt lat="50.23614" lon="2.68098">
        <ele>108.7662354</ele>
        <time>2013-04-21T09:09:46Z</time>
      </trkpt>
      <trkpt lat="50.23603" lon="2.68066">
        <ele>107.8050537</ele>
        <time>2013-04-21T09:09:51Z</time>
      </trkpt>
      <trkpt lat="50.23588" lon="2.68036">
        <ele>108.2856445</ele>
        <time>2013-04-21T09:09:56Z</time>
      </trkpt>
      <trkpt lat="50.23577" lon="2.67992">
        <ele>108.7662354</ele>
        <time>2013-04-21T09:10:02Z</time>
      </trkpt>
      <trkpt lat="50.23571" lon="2.67926">
        <ele>109.2469482</ele>
        <time>2013-04-21T09:10:10Z</time>
      </trkpt>
      <trkpt lat="50.23566" lon="2.67856">
        <ele>108.7662354</ele>
        <time>2013-04-21T09:10:19Z</time>
      </trkpt>
      <trkpt lat="50.2356" lon="2.67783">
        <ele>108.7662354</ele>
        <time>2013-04-21T09:10:28Z</time>
      </trkpt>
      <trkpt lat="50.23552" lon="2.67705">
        <ele>110.6888428</ele>
        <time>2013-04-21T09:10:38Z</time>
      </trkpt>
      <trkpt lat="50.23546" lon="2.67622">
        <ele>111.1695557</ele>
        <time>2013-04-21T09:10:48Z</time>
      </trkpt>
      <trkpt lat="50.23539" lon="2.67543">
        <ele>110.6888428</ele>
        <time>2013-04-21T09:10:58Z</time>
      </trkpt>
      <trkpt lat="50.23533" lon="2.67472">
        <ele>110.6888428</ele>
        <time>2013-04-21T09:11:07Z</time>
      </trkpt>
      <trkpt lat="50.23528" lon="2.67403">
        <ele>111.1695557</ele>
        <time>2013-04-21T09:11:16Z</time>
      </trkpt>
      <trkpt lat="50.23523" lon="2.67334">
        <ele>111.1695557</ele>
        <time>2013-04-21T09:11:25Z</time>
      </trkpt>
      <trkpt lat="50.23515" lon="2.67261">
        <ele>109.7276611</ele>
        <time>2013-04-21T09:11:35Z</time>
      </trkpt>
      <trkpt lat="50.2351" lon="2.67206">
        <ele>109.2469482</ele>
        <time>2013-04-21T09:11:42Z</time>
      </trkpt>
      <trkpt lat="50.23509" lon="2.67197">
        <ele>108.7662354</ele>
        <time>2013-04-21T09:11:43Z</time>
      </trkpt>
      <trkpt lat="50.23508" lon="2.67181">
        <ele>108.2856445</ele>
        <time>2013-04-21T09:11:45Z</time>
      </trkpt>
      <trkpt lat="50.23502" lon="2.67122">
        <ele>105.8824463</ele>
        <time>2013-04-21T09:11:52Z</time>
      </trkpt>
      <trkpt lat="50.23498" lon="2.67088">
        <ele>104.9210205</ele>
        <time>2013-04-21T09:11:56Z</time>
      </trkpt>
      <trkpt lat="50.2349" lon="2.67068">
        <ele>102.998291</ele>
        <time>2013-04-21T09:12:00Z</time>
      </trkpt>
      <trkpt lat="50.23477" lon="2.6707">
        <ele>102.5177002</ele>
        <time>2013-04-21T09:12:03Z</time>
      </trkpt>
      <trkpt lat="50.23473" lon="2.67074">
        <ele>102.0371094</ele>
        <time>2013-04-21T09:12:04Z</time>
      </trkpt>
      <trkpt lat="50.23431" lon="2.67116">
        <ele>100.114502</ele>
        <time>2013-04-21T09:12:13Z</time>
      </trkpt>
      <trkpt lat="50.23382" lon="2.67165">
        <ele>98.6724854</ele>
        <time>2013-04-21T09:12:22Z</time>
      </trkpt>
      <trkpt lat="50.23352" lon="2.67195">
        <ele>98.1918945</ele>
        <time>2013-04-21T09:12:28Z</time>
      </trkpt>
      <trkpt lat="50.23304" lon="2.67236">
        <ele>97.7111816</ele>
        <time>2013-04-21T09:12:37Z</time>
      </trkpt>
      <trkpt lat="50.23294" lon="2.67242">
        <ele>97.7111816</ele>
        <time>2013-04-21T09:12:39Z</time>
      </trkpt>
      <trkpt lat="50.23284" lon="2.67237">
        <ele>96.2692871</ele>
        <time>2013-04-21T09:12:42Z</time>
      </trkpt>
      <trkpt lat="50.23285" lon="2.67219">
        <ele>95.7884521</ele>
        <time>2013-04-21T09:12:45Z</time>
      </trkpt>
      <trkpt lat="50.23286" lon="2.67213">
        <ele>95.7884521</ele>
        <time>2013-04-21T09:12:46Z</time>
      </trkpt>
      <trkpt lat="50.233" lon="2.67183">
        <ele>96.7498779</ele>
        <time>2013-04-21T09:12:52Z</time>
      </trkpt>
      <trkpt lat="50.2332" lon="2.67169">
        <ele>98.1918945</ele>
        <time>2013-04-21T09:12:58Z</time>
      </trkpt>
      <trkpt lat="50.23341" lon="2.6715">
        <ele>99.1530762</ele>
        <time>2013-04-21T09:13:04Z</time>
      </trkpt>
      <trkpt lat="50.23363" lon="2.67122">
        <ele>99.6337891</ele>
        <time>2013-04-21T09:13:10Z</time>
      </trkpt>
      <trkpt lat="50.23385" lon="2.67095">
        <ele>99.6337891</ele>
        <time>2013-04-21T09:13:17Z</time>
      </trkpt>
      <trkpt lat="50.23412" lon="2.67048">
        <ele>100.5950928</ele>
        <time>2013-04-21T09:13:27Z</time>
      </trkpt>
      <trkpt lat="50.23422" lon="2.67032">
        <ele>101.5563965</ele>
        <time>2013-04-21T09:13:32Z</time>
      </trkpt>
      <trkpt lat="50.23435" lon="2.67011">
        <ele>101.0756836</ele>
        <time>2013-04-21T09:13:39Z</time>
      </trkpt>
      <trkpt lat="50.23446" lon="2.66989">
        <ele>100.114502</ele>
        <time>2013-04-21T09:13:44Z</time>
      </trkpt>
      <trkpt lat="50.2345" lon="2.66961">
        <ele>100.5950928</ele>
        <time>2013-04-21T09:13:49Z</time>
      </trkpt>
      <trkpt lat="50.23455" lon="2.6693">
        <ele>97.2304688</ele>
        <time>2013-04-21T09:13:54Z</time>
      </trkpt>
      <trkpt lat="50.23453" lon="2.669">
        <ele>99.1530762</ele>
        <time>2013-04-21T09:13:59Z</time>
      </trkpt>
      <trkpt lat="50.23454" lon="2.66893">
        <ele>99.1530762</ele>
        <time>2013-04-21T09:14:00Z</time>
      </trkpt>
      <trkpt lat="50.2346" lon="2.66872">
        <ele>98.1918945</ele>
        <time>2013-04-21T09:14:04Z</time>
      </trkpt>
      <trkpt lat="50.23474" lon="2.66852">
        <ele>98.1918945</ele>
        <time>2013-04-21T09:14:10Z</time>
      </trkpt>
      <trkpt lat="50.23489" lon="2.66829">
        <ele>99.6337891</ele>
        <time>2013-04-21T09:14:16Z</time>
      </trkpt>
      <trkpt lat="50.23496" lon="2.66803">
        <ele>100.5950928</ele>
        <time>2013-04-21T09:14:22Z</time>
      </trkpt>
      <trkpt lat="50.235" lon="2.66772">
        <ele>101.0756836</ele>
        <time>2013-04-21T09:14:28Z</time>
      </trkpt>
      <trkpt lat="50.23499" lon="2.66745">
        <ele>99.1530762</ele>
        <time>2013-04-21T09:14:33Z</time>
      </trkpt>
      <trkpt lat="50.23497" lon="2.66714">
        <ele>101.0756836</ele>
        <time>2013-04-21T09:14:38Z</time>
      </trkpt>
      <trkpt lat="50.23496" lon="2.66684">
        <ele>105.8824463</ele>
        <time>2013-04-21T09:14:43Z</time>
      </trkpt>
      <trkpt lat="50.23496" lon="2.66663">
        <ele>106.3630371</ele>
        <time>2013-04-21T09:14:47Z</time>
      </trkpt>
      <trkpt lat="50.23489" lon="2.66629">
        <ele>108.2856445</ele>
        <time>2013-04-21T09:14:54Z</time>
      </trkpt>
      <trkpt lat="50.23487" lon="2.66598">
        <ele>104.9210205</ele>
        <time>2013-04-21T09:15:00Z</time>
      </trkpt>
      <trkpt lat="50.2348" lon="2.66574">
        <ele>104.4404297</ele>
        <time>2013-04-21T09:15:05Z</time>
      </trkpt>
      <trkpt lat="50.23466" lon="2.66551">
        <ele>105.8824463</ele>
        <time>2013-04-21T09:15:11Z</time>
      </trkpt>
      <trkpt lat="50.23452" lon="2.66525">
        <ele>104.4404297</ele>
        <time>2013-04-21T09:15:18Z</time>
      </trkpt>
      <trkpt lat="50.23444" lon="2.66498">
        <ele>104.9210205</ele>
        <time>2013-04-21T09:15:23Z</time>
      </trkpt>
      <trkpt lat="50.23442" lon="2.66472">
        <ele>106.8436279</ele>
        <time>2013-04-21T09:15:28Z</time>
      </trkpt>
      <trkpt lat="50.23445" lon="2.66443">
        <ele>103.4790039</ele>
        <time>2013-04-21T09:15:34Z</time>
      </trkpt>
      <trkpt lat="50.23446" lon="2.6642">
        <ele>105.8824463</ele>
        <time>2013-04-21T09:15:40Z</time>
      </trkpt>
      <trkpt lat="50.23444" lon="2.66392">
        <ele>106.8436279</ele>
        <time>2013-04-21T09:15:46Z</time>
      </trkpt>
      <trkpt lat="50.23439" lon="2.66365">
        <ele>111.1695557</ele>
        <time>2013-04-21T09:15:51Z</time>
      </trkpt>
      <trkpt lat="50.23438" lon="2.66339">
        <ele>114.0535889</ele>
        <time>2013-04-21T09:15:56Z</time>
      </trkpt>
      <trkpt lat="50.23442" lon="2.66314">
        <ele>113.572998</ele>
        <time>2013-04-21T09:16:02Z</time>
      </trkpt>
      <trkpt lat="50.23441" lon="2.66306">
        <ele>114.0535889</ele>
        <time>2013-04-21T09:16:05Z</time>
      </trkpt>
      <trkpt lat="50.23438" lon="2.66294">
        <ele>113.0922852</ele>
        <time>2013-04-21T09:16:10Z</time>
      </trkpt>
      <trkpt lat="50.23438" lon="2.66292">
        <ele>112.1309814</ele>
        <time>2013-04-21T09:16:11Z</time>
      </trkpt>
      <trkpt lat="50.23436" lon="2.66276">
        <ele>114.5341797</ele>
        <time>2013-04-21T09:16:18Z</time>
      </trkpt>
      <trkpt lat="50.23434" lon="2.66264">
        <ele>115.9761963</ele>
        <time>2013-04-21T09:16:25Z</time>
      </trkpt>
      <trkpt lat="50.23432" lon="2.66241">
        <ele>114.5341797</ele>
        <time>2013-04-21T09:16:35Z</time>
      </trkpt>
      <trkpt lat="50.23429" lon="2.66226">
        <ele>115.0148926</ele>
        <time>2013-04-21T09:16:41Z</time>
      </trkpt>
      <trkpt lat="50.23432" lon="2.66211">
        <ele>116.9375</ele>
        <time>2013-04-21T09:16:47Z</time>
      </trkpt>
      <trkpt lat="50.23441" lon="2.66199">
        <ele>119.8214111</ele>
        <time>2013-04-21T09:16:55Z</time>
      </trkpt>
      <trkpt lat="50.23447" lon="2.66186">
        <ele>118.8601074</ele>
        <time>2013-04-21T09:17:02Z</time>
      </trkpt>
      <trkpt lat="50.23452" lon="2.66164">
        <ele>119.8214111</ele>
        <time>2013-04-21T09:17:11Z</time>
      </trkpt>
      <trkpt lat="50.23456" lon="2.66144">
        <ele>121.2635498</ele>
        <time>2013-04-21T09:17:19Z</time>
      </trkpt>
      <trkpt lat="50.2346" lon="2.66123">
        <ele>120.7828369</ele>
        <time>2013-04-21T09:17:27Z</time>
      </trkpt>
      <trkpt lat="50.23459" lon="2.66107">
        <ele>119.8214111</ele>
        <time>2013-04-21T09:17:33Z</time>
      </trkpt>
      <trkpt lat="50.23449" lon="2.66077">
        <ele>119.8214111</ele>
        <time>2013-04-21T09:17:41Z</time>
      </trkpt>
      <trkpt lat="50.23443" lon="2.66059">
        <ele>120.302124</ele>
        <time>2013-04-21T09:17:47Z</time>
      </trkpt>
      <trkpt lat="50.23432" lon="2.66026">
        <ele>120.7828369</ele>
        <time>2013-04-21T09:17:57Z</time>
      </trkpt>
      <trkpt lat="50.23421" lon="2.65994">
        <ele>121.7441406</ele>
        <time>2013-04-21T09:18:06Z</time>
      </trkpt>
      <trkpt lat="50.23407" lon="2.65954">
        <ele>123.666748</ele>
        <time>2013-04-21T09:18:16Z</time>
      </trkpt>
      <trkpt lat="50.23395" lon="2.65917">
        <ele>126.0699463</ele>
        <time>2013-04-21T09:18:26Z</time>
      </trkpt>
      <trkpt lat="50.23385" lon="2.6589">
        <ele>127.0313721</ele>
        <time>2013-04-21T09:18:34Z</time>
      </trkpt>
      <trkpt lat="50.23374" lon="2.65859">
        <ele>127.5119629</ele>
        <time>2013-04-21T09:18:43Z</time>
      </trkpt>
      <trkpt lat="50.23359" lon="2.65819">
        <ele>127.9925537</ele>
        <time>2013-04-21T09:18:52Z</time>
      </trkpt>
      <trkpt lat="50.23342" lon="2.65775">
        <ele>128.9541016</ele>
        <time>2013-04-21T09:19:00Z</time>
      </trkpt>
      <trkpt lat="50.23336" lon="2.65758">
        <ele>129.4346924</ele>
        <time>2013-04-21T09:19:03Z</time>
      </trkpt>
      <trkpt lat="50.2332" lon="2.65715">
        <ele>129.9152832</ele>
        <time>2013-04-21T09:19:11Z</time>
      </trkpt>
      <trkpt lat="50.2332" lon="2.65693">
        <ele>130.3959961</ele>
        <time>2013-04-21T09:19:15Z</time>
      </trkpt>
      <trkpt lat="50.23331" lon="2.65683">
        <ele>130.876709</ele>
        <time>2013-04-21T09:19:19Z</time>
      </trkpt>
      <trkpt lat="50.23364" lon="2.65654">
        <ele>132.3186035</ele>
        <time>2013-04-21T09:19:30Z</time>
      </trkpt>
      <trkpt lat="50.23391" lon="2.65629">
        <ele>134.2412109</ele>
        <time>2013-04-21T09:19:40Z</time>
      </trkpt>
      <trkpt lat="50.23432" lon="2.65592">
        <ele>135.6831055</ele>
        <time>2013-04-21T09:19:54Z</time>
      </trkpt>
      <trkpt lat="50.2346" lon="2.65567">
        <ele>137.1252441</ele>
        <time>2013-04-21T09:20:04Z</time>
      </trkpt>
      <trkpt lat="50.23492" lon="2.65539">
        <ele>138.5672607</ele>
        <time>2013-04-21T09:20:16Z</time>
      </trkpt>
      <trkpt lat="50.23517" lon="2.65514">
        <ele>140.0091553</ele>
        <time>2013-04-21T09:20:25Z</time>
      </trkpt>
      <trkpt lat="50.23543" lon="2.65484">
        <ele>140.970459</ele>
        <time>2013-04-21T09:20:35Z</time>
      </trkpt>
      <trkpt lat="50.23575" lon="2.65442">
        <ele>141.4510498</ele>
        <time>2013-04-21T09:20:46Z</time>
      </trkpt>
      <trkpt lat="50.23599" lon="2.65409">
        <ele>141.9317627</ele>
        <time>2013-04-21T09:20:55Z</time>
      </trkpt>
      <trkpt lat="50.23608" lon="2.654">
        <ele>142.4124756</ele>
        <time>2013-04-21T09:20:58Z</time>
      </trkpt>
      <trkpt lat="50.23627" lon="2.65412">
        <ele>141.9317627</ele>
        <time>2013-04-21T09:21:04Z</time>
      </trkpt>
      <trkpt lat="50.23648" lon="2.65435">
        <ele>141.9317627</ele>
        <time>2013-04-21T09:21:12Z</time>
      </trkpt>
      <trkpt lat="50.23656" lon="2.65458">
        <ele>141.4510498</ele>
        <time>2013-04-21T09:21:17Z</time>
      </trkpt>
      <trkpt lat="50.23671" lon="2.65496">
        <ele>140.970459</ele>
        <time>2013-04-21T09:21:24Z</time>
      </trkpt>
      <trkpt lat="50.23684" lon="2.65529">
        <ele>140.970459</ele>
        <time>2013-04-21T09:21:29Z</time>
      </trkpt>
      <trkpt lat="50.23708" lon="2.65588">
        <ele>141.9317627</ele>
        <time>2013-04-21T09:21:37Z</time>
      </trkpt>
      <trkpt lat="50.2373" lon="2.65641">
        <ele>141.4510498</ele>
        <time>2013-04-21T09:21:43Z</time>
      </trkpt>
      <trkpt lat="50.23749" lon="2.65691">
        <ele>140.4898682</ele>
        <time>2013-04-21T09:21:49Z</time>
      </trkpt>
      <trkpt lat="50.23778" lon="2.65765">
        <ele>139.5284424</ele>
        <time>2013-04-21T09:21:58Z</time>
      </trkpt>
      <trkpt lat="50.23817" lon="2.65862">
        <ele>139.0478516</ele>
        <time>2013-04-21T09:22:09Z</time>
      </trkpt>
      <trkpt lat="50.23853" lon="2.65952">
        <ele>140.4898682</ele>
        <time>2013-04-21T09:22:19Z</time>
      </trkpt>
      <trkpt lat="50.23874" lon="2.66006">
        <ele>140.0091553</ele>
        <time>2013-04-21T09:22:25Z</time>
      </trkpt>
      <trkpt lat="50.23894" lon="2.66063">
        <ele>140.0091553</ele>
        <time>2013-04-21T09:22:32Z</time>
      </trkpt>
      <trkpt lat="50.23914" lon="2.66114">
        <ele>140.4898682</ele>
        <time>2013-04-21T09:22:38Z</time>
      </trkpt>
      <trkpt lat="50.23931" lon="2.6616">
        <ele>139.5284424</ele>
        <time>2013-04-21T09:22:44Z</time>
      </trkpt>
      <trkpt lat="50.23941" lon="2.66193">
        <ele>140.4898682</ele>
        <time>2013-04-21T09:22:49Z</time>
      </trkpt>
      <trkpt lat="50.23949" lon="2.6621">
        <ele>141.4510498</ele>
        <time>2013-04-21T09:22:54Z</time>
      </trkpt>
      <trkpt lat="50.23956" lon="2.66208">
        <ele>141.4510498</ele>
        <time>2013-04-21T09:22:57Z</time>
      </trkpt>
      <trkpt lat="50.23958" lon="2.66205">
        <ele>140.970459</ele>
        <time>2013-04-21T09:22:58Z</time>
      </trkpt>
      <trkpt lat="50.23981" lon="2.66169">
        <ele>139.5284424</ele>
        <time>2013-04-21T09:23:06Z</time>
      </trkpt>
      <trkpt lat="50.23996" lon="2.6614">
        <ele>138.5672607</ele>
        <time>2013-04-21T09:23:11Z</time>
      </trkpt>
      <trkpt lat="50.24004" lon="2.66119">
        <ele>137.605835</ele>
        <time>2013-04-21T09:23:17Z</time>
      </trkpt>
      <trkpt lat="50.24013" lon="2.66101">
        <ele>138.0865479</ele>
        <time>2013-04-21T09:23:23Z</time>
      </trkpt>
      <trkpt lat="50.24025" lon="2.66072">
        <ele>137.605835</ele>
        <time>2013-04-21T09:23:31Z</time>
      </trkpt>
      <trkpt lat="50.24041" lon="2.66033">
        <ele>137.605835</ele>
        <time>2013-04-21T09:23:40Z</time>
      </trkpt>
      <trkpt lat="50.24037" lon="2.66012">
        <ele>138.0865479</ele>
        <time>2013-04-21T09:23:45Z</time>
      </trkpt>
    </trkseg>
  </trk>
</gpx>